<?xml version="1.0" encoding="UTF-8" standalone="no" ?>
<gpx xmlns="http://www.topografix.com/GPX/1/1" xmlns:xsi="http://www.w3.org/2001/XMLSchema-instance" xsi:schemaLocation="http://www.topografix.com/GPX/1/1 http://www.topografix.com/GPX/1/1/gpx.xsd" version="1.1" creator="VisuGPX - https://www.visugpx.com">
  <metadata>
    <name>2022-06-24 09:56 Locquenolé - Carantec</name>
    <desc><![CDATA[File with points/tracks from LocusWorld/]]></desc>
  </metadata>
  <trk>
    <name><![CDATA[2022-06-24 09:56 Morlaix - Carantec]]></name>
    <extensions>
      <line xmlns="http://www.topografix.com/GPX/gpx_style/0/2">
        <color>FF0000</color>
        <opacity>0.78</opacity>
        <width>3.0</width>
      </line>
    </extensions>
    <trkseg>
      <trkpt lat="48.60408" lon="-3.8791">
        <ele>69.08</ele>
        <time>2022-06-24T07:56:16.910Z</time>
      </trkpt>
      <trkpt lat="48.60407" lon="-3.87908">
        <ele>69.08</ele>
        <time>2022-06-24T07:57:16.000Z</time>
      </trkpt>
      <trkpt lat="48.60408" lon="-3.87906">
        <ele>68.08</ele>
        <time>2022-06-24T07:57:26.000Z</time>
      </trkpt>
      <trkpt lat="48.60409" lon="-3.87904">
        <ele>69.08</ele>
        <time>2022-06-24T07:57:44.392Z</time>
      </trkpt>
      <trkpt lat="48.60417" lon="-3.87894">
        <ele>69.08</ele>
        <time>2022-06-24T07:57:53.809Z</time>
      </trkpt>
      <trkpt lat="48.60426" lon="-3.8789">
        <ele>69.08</ele>
        <time>2022-06-24T07:58:03.168Z</time>
      </trkpt>
      <trkpt lat="48.60427" lon="-3.87888">
        <ele>61.26</ele>
        <time>2022-06-24T07:58:12.305Z</time>
      </trkpt>
      <trkpt lat="48.60424" lon="-3.87884">
        <ele>64.08</ele>
        <time>2022-06-24T07:58:22.486Z</time>
      </trkpt>
      <trkpt lat="48.60433" lon="-3.87888">
        <ele>66.06</ele>
        <time>2022-06-24T07:58:32.546Z</time>
      </trkpt>
      <trkpt lat="48.60442" lon="-3.87883">
        <ele>67.08</ele>
        <time>2022-06-24T07:58:41.945Z</time>
      </trkpt>
      <trkpt lat="48.60452" lon="-3.87878">
        <ele>68.08</ele>
        <time>2022-06-24T07:58:51.712Z</time>
      </trkpt>
      <trkpt lat="48.6046" lon="-3.87876">
        <ele>68.08</ele>
        <time>2022-06-24T07:59:00.767Z</time>
      </trkpt>
      <trkpt lat="48.60469" lon="-3.87875">
        <ele>67.89</ele>
        <time>2022-06-24T07:59:09.828Z</time>
      </trkpt>
      <trkpt lat="48.60479" lon="-3.87875">
        <ele>69.06</ele>
        <time>2022-06-24T07:59:18.852Z</time>
      </trkpt>
      <trkpt lat="48.60489" lon="-3.8787">
        <ele>69.83</ele>
        <time>2022-06-24T07:59:28.826Z</time>
      </trkpt>
      <trkpt lat="48.60491" lon="-3.87868">
        <ele>69.08</ele>
        <time>2022-06-24T07:59:38.448Z</time>
      </trkpt>
      <trkpt lat="48.60501" lon="-3.87856">
        <ele>69.08</ele>
        <time>2022-06-24T07:59:47.853Z</time>
      </trkpt>
      <trkpt lat="48.60506" lon="-3.8784">
        <ele>69.08</ele>
        <time>2022-06-24T07:59:57.514Z</time>
      </trkpt>
      <trkpt lat="48.60514" lon="-3.87833">
        <ele>69.08</ele>
        <time>2022-06-24T08:00:07.628Z</time>
      </trkpt>
      <trkpt lat="48.60526" lon="-3.87828">
        <ele>70.08</ele>
        <time>2022-06-24T08:00:17.726Z</time>
      </trkpt>
      <trkpt lat="48.60537" lon="-3.87823">
        <ele>70.02</ele>
        <time>2022-06-24T08:00:27.707Z</time>
      </trkpt>
      <trkpt lat="48.60548" lon="-3.8782">
        <ele>70.08</ele>
        <time>2022-06-24T08:00:37.606Z</time>
      </trkpt>
      <trkpt lat="48.60558" lon="-3.87817">
        <ele>70.08</ele>
        <time>2022-06-24T08:00:47.000Z</time>
      </trkpt>
      <trkpt lat="48.60559" lon="-3.87817">
        <ele>70.08</ele>
        <time>2022-06-24T08:01:03.746Z</time>
      </trkpt>
      <trkpt lat="48.60571" lon="-3.8781">
        <ele>70.08</ele>
        <time>2022-06-24T08:01:13.712Z</time>
      </trkpt>
      <trkpt lat="48.60579" lon="-3.87803">
        <ele>70.08</ele>
        <time>2022-06-24T08:01:23.214Z</time>
      </trkpt>
      <trkpt lat="48.60588" lon="-3.87794">
        <ele>69.08</ele>
        <time>2022-06-24T08:01:32.571Z</time>
      </trkpt>
      <trkpt lat="48.60597" lon="-3.87784">
        <ele>68.08</ele>
        <time>2022-06-24T08:01:41.753Z</time>
      </trkpt>
      <trkpt lat="48.60603" lon="-3.8777">
        <ele>67.08</ele>
        <time>2022-06-24T08:01:51.070Z</time>
      </trkpt>
      <trkpt lat="48.6061" lon="-3.87757">
        <ele>66.08</ele>
        <time>2022-06-24T08:02:00.247Z</time>
      </trkpt>
      <trkpt lat="48.60619" lon="-3.87748">
        <ele>66.1</ele>
        <time>2022-06-24T08:02:09.374Z</time>
      </trkpt>
      <trkpt lat="48.60625" lon="-3.87736">
        <ele>65.33</ele>
        <time>2022-06-24T08:02:18.493Z</time>
      </trkpt>
      <trkpt lat="48.60633" lon="-3.8772">
        <ele>67.08</ele>
        <time>2022-06-24T08:02:27.666Z</time>
      </trkpt>
      <trkpt lat="48.6064" lon="-3.87711">
        <ele>66.08</ele>
        <time>2022-06-24T08:02:36.872Z</time>
      </trkpt>
      <trkpt lat="48.60646" lon="-3.87704">
        <ele>66.08</ele>
        <time>2022-06-24T08:02:45.885Z</time>
      </trkpt>
      <trkpt lat="48.60654" lon="-3.87693">
        <ele>66.08</ele>
        <time>2022-06-24T08:02:55.947Z</time>
      </trkpt>
      <trkpt lat="48.60662" lon="-3.87681">
        <ele>66.08</ele>
        <time>2022-06-24T08:03:05.313Z</time>
      </trkpt>
      <trkpt lat="48.6067" lon="-3.87671">
        <ele>65.13</ele>
        <time>2022-06-24T08:03:14.652Z</time>
      </trkpt>
      <trkpt lat="48.60678" lon="-3.8766">
        <ele>65.08</ele>
        <time>2022-06-24T08:03:23.930Z</time>
      </trkpt>
      <trkpt lat="48.60685" lon="-3.87647">
        <ele>65.08</ele>
        <time>2022-06-24T08:03:33.192Z</time>
      </trkpt>
      <trkpt lat="48.60692" lon="-3.87636">
        <ele>64.09</ele>
        <time>2022-06-24T08:03:42.532Z</time>
      </trkpt>
      <trkpt lat="48.60699" lon="-3.87625">
        <ele>64.33</ele>
        <time>2022-06-24T08:03:51.631Z</time>
      </trkpt>
      <trkpt lat="48.60705" lon="-3.87611">
        <ele>64.33</ele>
        <time>2022-06-24T08:04:00.772Z</time>
      </trkpt>
      <trkpt lat="48.60714" lon="-3.87601">
        <ele>64.08</ele>
        <time>2022-06-24T08:04:09.798Z</time>
      </trkpt>
      <trkpt lat="48.60721" lon="-3.8759">
        <ele>65.08</ele>
        <time>2022-06-24T08:04:18.953Z</time>
      </trkpt>
      <trkpt lat="48.60725" lon="-3.87586">
        <ele>64.09</ele>
        <time>2022-06-24T08:04:28.000Z</time>
      </trkpt>
      <trkpt lat="48.60726" lon="-3.87583">
        <ele>64.27</ele>
        <time>2022-06-24T08:04:37.013Z</time>
      </trkpt>
      <trkpt lat="48.60734" lon="-3.87571">
        <ele>65.08</ele>
        <time>2022-06-24T08:04:46.492Z</time>
      </trkpt>
      <trkpt lat="48.60741" lon="-3.87559">
        <ele>65.08</ele>
        <time>2022-06-24T08:04:55.650Z</time>
      </trkpt>
      <trkpt lat="48.60747" lon="-3.87544">
        <ele>65.08</ele>
        <time>2022-06-24T08:05:04.801Z</time>
      </trkpt>
      <trkpt lat="48.60755" lon="-3.87533">
        <ele>65.08</ele>
        <time>2022-06-24T08:05:14.991Z</time>
      </trkpt>
      <trkpt lat="48.60761" lon="-3.87522">
        <ele>65.08</ele>
        <time>2022-06-24T08:05:24.652Z</time>
      </trkpt>
      <trkpt lat="48.60765" lon="-3.87508">
        <ele>64.08</ele>
        <time>2022-06-24T08:05:33.747Z</time>
      </trkpt>
      <trkpt lat="48.60772" lon="-3.87497">
        <ele>64.08</ele>
        <time>2022-06-24T08:05:43.329Z</time>
      </trkpt>
      <trkpt lat="48.60778" lon="-3.87488">
        <ele>64.08</ele>
        <time>2022-06-24T08:05:52.729Z</time>
      </trkpt>
      <trkpt lat="48.60781" lon="-3.87479">
        <ele>63.08</ele>
        <time>2022-06-24T08:06:03.000Z</time>
      </trkpt>
      <trkpt lat="48.60783" lon="-3.87473">
        <ele>64.08</ele>
        <time>2022-06-24T08:06:12.798Z</time>
      </trkpt>
      <trkpt lat="48.60789" lon="-3.87458">
        <ele>69.98</ele>
        <time>2022-06-24T08:06:22.725Z</time>
      </trkpt>
      <trkpt lat="48.60793" lon="-3.87445">
        <ele>69.98</ele>
        <time>2022-06-24T08:06:32.533Z</time>
      </trkpt>
      <trkpt lat="48.60795" lon="-3.8743">
        <ele>69.98</ele>
        <time>2022-06-24T08:06:41.803Z</time>
      </trkpt>
      <trkpt lat="48.60797" lon="-3.87415">
        <ele>69.98</ele>
        <time>2022-06-24T08:06:51.468Z</time>
      </trkpt>
      <trkpt lat="48.60799" lon="-3.87398">
        <ele>69.98</ele>
        <time>2022-06-24T08:07:00.707Z</time>
      </trkpt>
      <trkpt lat="48.60808" lon="-3.87387">
        <ele>69.98</ele>
        <time>2022-06-24T08:07:10.227Z</time>
      </trkpt>
      <trkpt lat="48.60818" lon="-3.87388">
        <ele>69.98</ele>
        <time>2022-06-24T08:07:19.290Z</time>
      </trkpt>
      <trkpt lat="48.60828" lon="-3.8739">
        <ele>69.98</ele>
        <time>2022-06-24T08:07:28.792Z</time>
      </trkpt>
      <trkpt lat="48.60838" lon="-3.87396">
        <ele>69.98</ele>
        <time>2022-06-24T08:07:38.032Z</time>
      </trkpt>
      <trkpt lat="48.60846" lon="-3.874">
        <ele>69.98</ele>
        <time>2022-06-24T08:07:47.351Z</time>
      </trkpt>
      <trkpt lat="48.60852" lon="-3.87403">
        <ele>69.98</ele>
        <time>2022-06-24T08:07:56.753Z</time>
      </trkpt>
      <trkpt lat="48.60862" lon="-3.87406">
        <ele>69.98</ele>
        <time>2022-06-24T08:08:06.694Z</time>
      </trkpt>
      <trkpt lat="48.60868" lon="-3.87406">
        <ele>69.98</ele>
        <time>2022-06-24T08:08:16.248Z</time>
      </trkpt>
      <trkpt lat="48.60877" lon="-3.87406">
        <ele>69.98</ele>
        <time>2022-06-24T08:08:25.818Z</time>
      </trkpt>
      <trkpt lat="48.60882" lon="-3.87408">
        <ele>69.98</ele>
        <time>2022-06-24T08:08:34.829Z</time>
      </trkpt>
      <trkpt lat="48.60885" lon="-3.87409">
        <ele>64.06</ele>
        <time>2022-06-24T08:08:43.949Z</time>
      </trkpt>
      <trkpt lat="48.60897" lon="-3.87411">
        <ele>61.08</ele>
        <time>2022-06-24T08:08:52.955Z</time>
      </trkpt>
      <trkpt lat="48.60908" lon="-3.87412">
        <ele>60.08</ele>
        <time>2022-06-24T08:09:02.449Z</time>
      </trkpt>
      <trkpt lat="48.60916" lon="-3.87411">
        <ele>60.1</ele>
        <time>2022-06-24T08:09:11.532Z</time>
      </trkpt>
      <trkpt lat="48.60923" lon="-3.87412">
        <ele>61.08</ele>
        <time>2022-06-24T08:09:20.669Z</time>
      </trkpt>
      <trkpt lat="48.60937" lon="-3.87412">
        <ele>61.09</ele>
        <time>2022-06-24T08:09:30.993Z</time>
      </trkpt>
      <trkpt lat="48.60946" lon="-3.87411">
        <ele>61.08</ele>
        <time>2022-06-24T08:09:40.449Z</time>
      </trkpt>
      <trkpt lat="48.60958" lon="-3.87413">
        <ele>63.08</ele>
        <time>2022-06-24T08:09:50.610Z</time>
      </trkpt>
      <trkpt lat="48.60969" lon="-3.87416">
        <ele>65.08</ele>
        <time>2022-06-24T08:09:59.751Z</time>
      </trkpt>
      <trkpt lat="48.60976" lon="-3.87416">
        <ele>66.08</ele>
        <time>2022-06-24T08:10:09.852Z</time>
      </trkpt>
      <trkpt lat="48.60986" lon="-3.87416">
        <ele>67.27</ele>
        <time>2022-06-24T08:10:19.829Z</time>
      </trkpt>
      <trkpt lat="48.61002" lon="-3.87411">
        <ele>70.02</ele>
        <time>2022-06-24T08:10:29.000Z</time>
      </trkpt>
      <trkpt lat="48.61011" lon="-3.87401">
        <ele>71.07</ele>
        <time>2022-06-24T08:10:38.532Z</time>
      </trkpt>
      <trkpt lat="48.6102" lon="-3.87391">
        <ele>71.09</ele>
        <time>2022-06-24T08:10:47.987Z</time>
      </trkpt>
      <trkpt lat="48.61028" lon="-3.87379">
        <ele>73.08</ele>
        <time>2022-06-24T08:10:58.770Z</time>
      </trkpt>
      <trkpt lat="48.61031" lon="-3.87367">
        <ele>73.07</ele>
        <time>2022-06-24T08:11:08.000Z</time>
      </trkpt>
      <trkpt lat="48.61033" lon="-3.87366">
        <ele>73.09</ele>
        <time>2022-06-24T08:11:18.000Z</time>
      </trkpt>
      <trkpt lat="48.61036" lon="-3.87363">
        <ele>73.84</ele>
        <time>2022-06-24T08:11:27.850Z</time>
      </trkpt>
      <trkpt lat="48.61045" lon="-3.87352">
        <ele>73.09</ele>
        <time>2022-06-24T08:11:37.809Z</time>
      </trkpt>
      <trkpt lat="48.61053" lon="-3.87345">
        <ele>73.09</ele>
        <time>2022-06-24T08:11:47.313Z</time>
      </trkpt>
      <trkpt lat="48.61061" lon="-3.8734">
        <ele>74.09</ele>
        <time>2022-06-24T08:11:56.913Z</time>
      </trkpt>
      <trkpt lat="48.6107" lon="-3.87335">
        <ele>74.09</ele>
        <time>2022-06-24T08:12:06.291Z</time>
      </trkpt>
      <trkpt lat="48.61078" lon="-3.87328">
        <ele>73.09</ele>
        <time>2022-06-24T08:12:15.746Z</time>
      </trkpt>
      <trkpt lat="48.61087" lon="-3.87319">
        <ele>73.09</ele>
        <time>2022-06-24T08:12:25.806Z</time>
      </trkpt>
      <trkpt lat="48.61096" lon="-3.8731">
        <ele>74.09</ele>
        <time>2022-06-24T08:12:34.886Z</time>
      </trkpt>
      <trkpt lat="48.61105" lon="-3.87302">
        <ele>75.09</ele>
        <time>2022-06-24T08:12:44.873Z</time>
      </trkpt>
      <trkpt lat="48.61114" lon="-3.87296">
        <ele>76.07</ele>
        <time>2022-06-24T08:12:54.706Z</time>
      </trkpt>
      <trkpt lat="48.61125" lon="-3.87288">
        <ele>77.04</ele>
        <time>2022-06-24T08:13:04.589Z</time>
      </trkpt>
      <trkpt lat="48.61134" lon="-3.87281">
        <ele>77.09</ele>
        <time>2022-06-24T08:13:13.632Z</time>
      </trkpt>
      <trkpt lat="48.61142" lon="-3.87274">
        <ele>77.09</ele>
        <time>2022-06-24T08:13:22.690Z</time>
      </trkpt>
      <trkpt lat="48.61149" lon="-3.87264">
        <ele>77.09</ele>
        <time>2022-06-24T08:13:31.973Z</time>
      </trkpt>
      <trkpt lat="48.61159" lon="-3.87258">
        <ele>77.1</ele>
        <time>2022-06-24T08:13:42.548Z</time>
      </trkpt>
      <trkpt lat="48.61167" lon="-3.87252">
        <ele>77.09</ele>
        <time>2022-06-24T08:13:52.629Z</time>
      </trkpt>
      <trkpt lat="48.61178" lon="-3.87242">
        <ele>77.09</ele>
        <time>2022-06-24T08:14:02.487Z</time>
      </trkpt>
      <trkpt lat="48.61186" lon="-3.87238">
        <ele>78.09</ele>
        <time>2022-06-24T08:14:11.491Z</time>
      </trkpt>
      <trkpt lat="48.61196" lon="-3.87237">
        <ele>77.09</ele>
        <time>2022-06-24T08:14:20.750Z</time>
      </trkpt>
      <trkpt lat="48.61199" lon="-3.87236">
        <ele>77.09</ele>
        <time>2022-06-24T08:14:30.000Z</time>
      </trkpt>
      <trkpt lat="48.61205" lon="-3.8723">
        <ele>77.09</ele>
        <time>2022-06-24T08:14:39.649Z</time>
      </trkpt>
      <trkpt lat="48.61215" lon="-3.87224">
        <ele>76.1</ele>
        <time>2022-06-24T08:14:49.810Z</time>
      </trkpt>
      <trkpt lat="48.61225" lon="-3.87218">
        <ele>76.09</ele>
        <time>2022-06-24T08:14:59.791Z</time>
      </trkpt>
      <trkpt lat="48.61234" lon="-3.87212">
        <ele>76.09</ele>
        <time>2022-06-24T08:15:09.711Z</time>
      </trkpt>
      <trkpt lat="48.61243" lon="-3.87205">
        <ele>76.08</ele>
        <time>2022-06-24T08:15:18.929Z</time>
      </trkpt>
      <trkpt lat="48.61253" lon="-3.87201">
        <ele>75.09</ele>
        <time>2022-06-24T08:15:28.850Z</time>
      </trkpt>
      <trkpt lat="48.61262" lon="-3.87192">
        <ele>76.09</ele>
        <time>2022-06-24T08:15:38.627Z</time>
      </trkpt>
      <trkpt lat="48.61269" lon="-3.87185">
        <ele>76.09</ele>
        <time>2022-06-24T08:15:47.693Z</time>
      </trkpt>
      <trkpt lat="48.61277" lon="-3.87177">
        <ele>76.09</ele>
        <time>2022-06-24T08:15:56.830Z</time>
      </trkpt>
      <trkpt lat="48.61285" lon="-3.87175">
        <ele>77.09</ele>
        <time>2022-06-24T08:16:05.951Z</time>
      </trkpt>
      <trkpt lat="48.61287" lon="-3.87163">
        <ele>79.07</ele>
        <time>2022-06-24T08:16:15.072Z</time>
      </trkpt>
      <trkpt lat="48.61283" lon="-3.87148">
        <ele>80.09</ele>
        <time>2022-06-24T08:16:24.711Z</time>
      </trkpt>
      <trkpt lat="48.61281" lon="-3.87139">
        <ele>80.09</ele>
        <time>2022-06-24T08:16:34.071Z</time>
      </trkpt>
      <trkpt lat="48.61276" lon="-3.87124">
        <ele>81.07</ele>
        <time>2022-06-24T08:16:43.912Z</time>
      </trkpt>
      <trkpt lat="48.61271" lon="-3.87111">
        <ele>80.09</ele>
        <time>2022-06-24T08:16:53.670Z</time>
      </trkpt>
      <trkpt lat="48.61268" lon="-3.87097">
        <ele>80.09</ele>
        <time>2022-06-24T08:17:02.910Z</time>
      </trkpt>
      <trkpt lat="48.61264" lon="-3.8708">
        <ele>82.07</ele>
        <time>2022-06-24T08:17:12.608Z</time>
      </trkpt>
      <trkpt lat="48.61259" lon="-3.87064">
        <ele>83.09</ele>
        <time>2022-06-24T08:17:21.647Z</time>
      </trkpt>
      <trkpt lat="48.61253" lon="-3.87047">
        <ele>84.09</ele>
        <time>2022-06-24T08:17:30.833Z</time>
      </trkpt>
      <trkpt lat="48.61251" lon="-3.87031">
        <ele>83.14</ele>
        <time>2022-06-24T08:17:40.569Z</time>
      </trkpt>
      <trkpt lat="48.61258" lon="-3.87022">
        <ele>82.34</ele>
        <time>2022-06-24T08:17:49.612Z</time>
      </trkpt>
      <trkpt lat="48.61267" lon="-3.87016">
        <ele>82.09</ele>
        <time>2022-06-24T08:17:59.109Z</time>
      </trkpt>
      <trkpt lat="48.61274" lon="-3.87008">
        <ele>80.1</ele>
        <time>2022-06-24T08:18:08.728Z</time>
      </trkpt>
      <trkpt lat="48.61282" lon="-3.86999">
        <ele>80.09</ele>
        <time>2022-06-24T08:18:18.234Z</time>
      </trkpt>
      <trkpt lat="48.61289" lon="-3.86994">
        <ele>79.15</ele>
        <time>2022-06-24T08:18:27.632Z</time>
      </trkpt>
      <trkpt lat="48.61298" lon="-3.86982">
        <ele>78.14</ele>
        <time>2022-06-24T08:18:37.594Z</time>
      </trkpt>
      <trkpt lat="48.61303" lon="-3.86976">
        <ele>78.34</ele>
        <time>2022-06-24T08:18:46.811Z</time>
      </trkpt>
      <trkpt lat="48.61308" lon="-3.86965">
        <ele>78.34</ele>
        <time>2022-06-24T08:18:56.976Z</time>
      </trkpt>
      <trkpt lat="48.61317" lon="-3.86958">
        <ele>77.09</ele>
        <time>2022-06-24T08:19:06.965Z</time>
      </trkpt>
      <trkpt lat="48.61325" lon="-3.8695">
        <ele>77.09</ele>
        <time>2022-06-24T08:19:16.328Z</time>
      </trkpt>
      <trkpt lat="48.61328" lon="-3.86944">
        <ele>76.09</ele>
        <time>2022-06-24T08:19:25.930Z</time>
      </trkpt>
      <trkpt lat="48.61337" lon="-3.86935">
        <ele>73.09</ele>
        <time>2022-06-24T08:19:35.748Z</time>
      </trkpt>
      <trkpt lat="48.61343" lon="-3.86919">
        <ele>71.85</ele>
        <time>2022-06-24T08:19:45.748Z</time>
      </trkpt>
      <trkpt lat="48.61346" lon="-3.86908">
        <ele>72.09</ele>
        <time>2022-06-24T08:19:55.588Z</time>
      </trkpt>
      <trkpt lat="48.6135" lon="-3.86892">
        <ele>72.09</ele>
        <time>2022-06-24T08:20:05.451Z</time>
      </trkpt>
      <trkpt lat="48.61353" lon="-3.86875">
        <ele>71.09</ele>
        <time>2022-06-24T08:20:14.796Z</time>
      </trkpt>
      <trkpt lat="48.61354" lon="-3.86864">
        <ele>71.09</ele>
        <time>2022-06-24T08:20:24.608Z</time>
      </trkpt>
      <trkpt lat="48.61353" lon="-3.86846">
        <ele>70.09</ele>
        <time>2022-06-24T08:20:33.801Z</time>
      </trkpt>
      <trkpt lat="48.61352" lon="-3.86835">
        <ele>70.09</ele>
        <time>2022-06-24T08:20:42.911Z</time>
      </trkpt>
      <trkpt lat="48.61349" lon="-3.86825">
        <ele>69.09</ele>
        <time>2022-06-24T08:20:52.709Z</time>
      </trkpt>
      <trkpt lat="48.61344" lon="-3.86815">
        <ele>67.09</ele>
        <time>2022-06-24T08:21:01.927Z</time>
      </trkpt>
      <trkpt lat="48.61335" lon="-3.86806">
        <ele>66.09</ele>
        <time>2022-06-24T08:21:11.954Z</time>
      </trkpt>
      <trkpt lat="48.61327" lon="-3.86796">
        <ele>64.15</ele>
        <time>2022-06-24T08:21:20.991Z</time>
      </trkpt>
      <trkpt lat="48.6132" lon="-3.86785">
        <ele>62.84</ele>
        <time>2022-06-24T08:21:30.467Z</time>
      </trkpt>
      <trkpt lat="48.61317" lon="-3.86775">
        <ele>61.34</ele>
        <time>2022-06-24T08:21:39.890Z</time>
      </trkpt>
      <trkpt lat="48.61317" lon="-3.86766">
        <ele>61.09</ele>
        <time>2022-06-24T08:21:51.669Z</time>
      </trkpt>
      <trkpt lat="48.61317" lon="-3.86764">
        <ele>61.09</ele>
        <time>2022-06-24T08:22:02.528Z</time>
      </trkpt>
      <trkpt lat="48.6132" lon="-3.86756">
        <ele>59.11</ele>
        <time>2022-06-24T08:22:11.630Z</time>
      </trkpt>
      <trkpt lat="48.61325" lon="-3.86745">
        <ele>58.09</ele>
        <time>2022-06-24T08:22:20.735Z</time>
      </trkpt>
      <trkpt lat="48.61328" lon="-3.86735">
        <ele>55.34</ele>
        <time>2022-06-24T08:22:30.000Z</time>
      </trkpt>
      <trkpt lat="48.6133" lon="-3.86723">
        <ele>55.09</ele>
        <time>2022-06-24T08:22:39.491Z</time>
      </trkpt>
      <trkpt lat="48.61326" lon="-3.86711">
        <ele>55.09</ele>
        <time>2022-06-24T08:22:49.566Z</time>
      </trkpt>
      <trkpt lat="48.61324" lon="-3.86699">
        <ele>53.09</ele>
        <time>2022-06-24T08:22:58.611Z</time>
      </trkpt>
      <trkpt lat="48.6132" lon="-3.86689">
        <ele>53.09</ele>
        <time>2022-06-24T08:23:08.588Z</time>
      </trkpt>
      <trkpt lat="48.61318" lon="-3.86679">
        <ele>52.09</ele>
        <time>2022-06-24T08:23:18.733Z</time>
      </trkpt>
      <trkpt lat="48.61318" lon="-3.86673">
        <ele>50.11</ele>
        <time>2022-06-24T08:23:28.911Z</time>
      </trkpt>
      <trkpt lat="48.61317" lon="-3.86655">
        <ele>49.14</ele>
        <time>2022-06-24T08:23:38.610Z</time>
      </trkpt>
      <trkpt lat="48.61317" lon="-3.86644">
        <ele>51.03</ele>
        <time>2022-06-24T08:23:48.000Z</time>
      </trkpt>
      <trkpt lat="48.61316" lon="-3.86633">
        <ele>51.09</ele>
        <time>2022-06-24T08:23:57.672Z</time>
      </trkpt>
      <trkpt lat="48.61311" lon="-3.8662">
        <ele>53.09</ele>
        <time>2022-06-24T08:24:07.212Z</time>
      </trkpt>
      <trkpt lat="48.61309" lon="-3.86607">
        <ele>53.15</ele>
        <time>2022-06-24T08:24:16.808Z</time>
      </trkpt>
      <trkpt lat="48.61306" lon="-3.86595">
        <ele>54.09</ele>
        <time>2022-06-24T08:24:26.109Z</time>
      </trkpt>
      <trkpt lat="48.61302" lon="-3.86579">
        <ele>54.09</ele>
        <time>2022-06-24T08:24:35.825Z</time>
      </trkpt>
      <trkpt lat="48.61299" lon="-3.86565">
        <ele>55.09</ele>
        <time>2022-06-24T08:24:44.927Z</time>
      </trkpt>
      <trkpt lat="48.61295" lon="-3.86553">
        <ele>54.11</ele>
        <time>2022-06-24T08:24:54.453Z</time>
      </trkpt>
      <trkpt lat="48.61288" lon="-3.86541">
        <ele>55.09</ele>
        <time>2022-06-24T08:25:03.692Z</time>
      </trkpt>
      <trkpt lat="48.61281" lon="-3.86527">
        <ele>54.09</ele>
        <time>2022-06-24T08:25:13.887Z</time>
      </trkpt>
      <trkpt lat="48.61279" lon="-3.86514">
        <ele>54.09</ele>
        <time>2022-06-24T08:25:23.346Z</time>
      </trkpt>
      <trkpt lat="48.61274" lon="-3.86502">
        <ele>51.15</ele>
        <time>2022-06-24T08:25:32.832Z</time>
      </trkpt>
      <trkpt lat="48.61269" lon="-3.86488">
        <ele>49.15</ele>
        <time>2022-06-24T08:25:41.967Z</time>
      </trkpt>
      <trkpt lat="48.61265" lon="-3.86475">
        <ele>45.22</ele>
        <time>2022-06-24T08:25:51.668Z</time>
      </trkpt>
      <trkpt lat="48.61266" lon="-3.86474">
        <ele>43.12</ele>
        <time>2022-06-24T08:26:00.929Z</time>
      </trkpt>
      <trkpt lat="48.61264" lon="-3.86473">
        <ele>25.8</ele>
        <time>2022-06-24T08:26:10.000Z</time>
      </trkpt>
      <trkpt lat="48.61266" lon="-3.86469">
        <ele>-2.91</ele>
        <time>2022-06-24T08:26:20.000Z</time>
      </trkpt>
      <trkpt lat="48.61267" lon="-3.86464">
        <ele>0.03</ele>
        <time>2022-06-24T08:26:29.866Z</time>
      </trkpt>
      <trkpt lat="48.6126" lon="-3.86458">
        <ele>1.84</ele>
        <time>2022-06-24T08:26:39.388Z</time>
      </trkpt>
      <trkpt lat="48.61254" lon="-3.86456">
        <ele>7.03</ele>
        <time>2022-06-24T08:26:48.911Z</time>
      </trkpt>
      <trkpt lat="48.6125" lon="-3.86456">
        <ele>11.09</ele>
        <time>2022-06-24T08:26:58.952Z</time>
      </trkpt>
      <trkpt lat="48.61244" lon="-3.86446">
        <ele>14.59</ele>
        <time>2022-06-24T08:27:09.000Z</time>
      </trkpt>
      <trkpt lat="48.6124" lon="-3.86439">
        <ele>14.16</ele>
        <time>2022-06-24T08:27:18.474Z</time>
      </trkpt>
      <trkpt lat="48.61233" lon="-3.86432">
        <ele>14.07</ele>
        <time>2022-06-24T08:27:27.871Z</time>
      </trkpt>
      <trkpt lat="48.61227" lon="-3.86422">
        <ele>17.09</ele>
        <time>2022-06-24T08:27:37.913Z</time>
      </trkpt>
      <trkpt lat="48.61221" lon="-3.86413">
        <ele>21.09</ele>
        <time>2022-06-24T08:27:47.869Z</time>
      </trkpt>
      <trkpt lat="48.61219" lon="-3.86412">
        <ele>24.09</ele>
        <time>2022-06-24T08:27:57.000Z</time>
      </trkpt>
      <trkpt lat="48.61219" lon="-3.86415">
        <ele>25.09</ele>
        <time>2022-06-24T08:28:07.000Z</time>
      </trkpt>
      <trkpt lat="48.61219" lon="-3.86419">
        <ele>26.09</ele>
        <time>2022-06-24T08:28:16.930Z</time>
      </trkpt>
      <trkpt lat="48.61219" lon="-3.86423">
        <ele>28.07</ele>
        <time>2022-06-24T08:28:26.452Z</time>
      </trkpt>
      <trkpt lat="48.61218" lon="-3.8643">
        <ele>31.07</ele>
        <time>2022-06-24T08:28:35.531Z</time>
      </trkpt>
      <trkpt lat="48.61215" lon="-3.86434">
        <ele>33.09</ele>
        <time>2022-06-24T08:28:45.946Z</time>
      </trkpt>
      <trkpt lat="48.6121" lon="-3.86438">
        <ele>33.09</ele>
        <time>2022-06-24T08:28:55.627Z</time>
      </trkpt>
      <trkpt lat="48.61206" lon="-3.86446">
        <ele>34.09</ele>
        <time>2022-06-24T08:29:05.000Z</time>
      </trkpt>
      <trkpt lat="48.61204" lon="-3.86452">
        <ele>37.84</ele>
        <time>2022-06-24T08:29:14.711Z</time>
      </trkpt>
      <trkpt lat="48.61199" lon="-3.8646">
        <ele>39.09</ele>
        <time>2022-06-24T08:29:23.728Z</time>
      </trkpt>
      <trkpt lat="48.61193" lon="-3.86463">
        <ele>40.09</ele>
        <time>2022-06-24T08:29:32.817Z</time>
      </trkpt>
      <trkpt lat="48.61188" lon="-3.86461">
        <ele>41.07</ele>
        <time>2022-06-24T08:29:42.486Z</time>
      </trkpt>
      <trkpt lat="48.61182" lon="-3.86458">
        <ele>41.09</ele>
        <time>2022-06-24T08:29:52.845Z</time>
      </trkpt>
      <trkpt lat="48.61175" lon="-3.86456">
        <ele>43.07</ele>
        <time>2022-06-24T08:30:02.951Z</time>
      </trkpt>
      <trkpt lat="48.61168" lon="-3.86459">
        <ele>44.03</ele>
        <time>2022-06-24T08:30:12.266Z</time>
      </trkpt>
      <trkpt lat="48.61162" lon="-3.86461">
        <ele>45.09</ele>
        <time>2022-06-24T08:30:21.526Z</time>
      </trkpt>
      <trkpt lat="48.61157" lon="-3.86461">
        <ele>46.09</ele>
        <time>2022-06-24T08:30:30.832Z</time>
      </trkpt>
      <trkpt lat="48.6115" lon="-3.86461">
        <ele>44.42</ele>
        <time>2022-06-24T08:30:40.431Z</time>
      </trkpt>
      <trkpt lat="48.61144" lon="-3.86456">
        <ele>41.11</ele>
        <time>2022-06-24T08:30:49.511Z</time>
      </trkpt>
      <trkpt lat="48.61133" lon="-3.8646">
        <ele>42.09</ele>
        <time>2022-06-24T08:30:59.957Z</time>
      </trkpt>
      <trkpt lat="48.61123" lon="-3.86463">
        <ele>45.07</ele>
        <time>2022-06-24T08:31:09.508Z</time>
      </trkpt>
      <trkpt lat="48.61112" lon="-3.86469">
        <ele>46.09</ele>
        <time>2022-06-24T08:31:19.808Z</time>
      </trkpt>
      <trkpt lat="48.61104" lon="-3.86467">
        <ele>47.03</ele>
        <time>2022-06-24T08:31:29.974Z</time>
      </trkpt>
      <trkpt lat="48.61097" lon="-3.8646">
        <ele>49.15</ele>
        <time>2022-06-24T08:31:39.826Z</time>
      </trkpt>
      <trkpt lat="48.61094" lon="-3.86453">
        <ele>48.09</ele>
        <time>2022-06-24T08:31:49.865Z</time>
      </trkpt>
      <trkpt lat="48.61093" lon="-3.86447">
        <ele>48.09</ele>
        <time>2022-06-24T08:31:59.586Z</time>
      </trkpt>
      <trkpt lat="48.61095" lon="-3.86441">
        <ele>48.09</ele>
        <time>2022-06-24T08:32:08.864Z</time>
      </trkpt>
      <trkpt lat="48.61096" lon="-3.86435">
        <ele>49.09</ele>
        <time>2022-06-24T08:32:18.960Z</time>
      </trkpt>
      <trkpt lat="48.61099" lon="-3.86426">
        <ele>46.34</ele>
        <time>2022-06-24T08:32:28.669Z</time>
      </trkpt>
      <trkpt lat="48.611" lon="-3.86417">
        <ele>45.09</ele>
        <time>2022-06-24T08:32:37.867Z</time>
      </trkpt>
      <trkpt lat="48.61101" lon="-3.86407">
        <ele>45.09</ele>
        <time>2022-06-24T08:32:47.348Z</time>
      </trkpt>
      <trkpt lat="48.61103" lon="-3.86395">
        <ele>46.09</ele>
        <time>2022-06-24T08:32:56.707Z</time>
      </trkpt>
      <trkpt lat="48.61107" lon="-3.86384">
        <ele>45.09</ele>
        <time>2022-06-24T08:33:05.866Z</time>
      </trkpt>
      <trkpt lat="48.61108" lon="-3.86373">
        <ele>41.09</ele>
        <time>2022-06-24T08:33:15.930Z</time>
      </trkpt>
      <trkpt lat="48.6111" lon="-3.86359">
        <ele>42.09</ele>
        <time>2022-06-24T08:33:25.871Z</time>
      </trkpt>
      <trkpt lat="48.61109" lon="-3.86349">
        <ele>44.84</ele>
        <time>2022-06-24T08:33:35.455Z</time>
      </trkpt>
      <trkpt lat="48.61105" lon="-3.86339">
        <ele>45.1</ele>
        <time>2022-06-24T08:33:44.952Z</time>
      </trkpt>
      <trkpt lat="48.61094" lon="-3.86329">
        <ele>44.1</ele>
        <time>2022-06-24T08:33:54.551Z</time>
      </trkpt>
      <trkpt lat="48.61085" lon="-3.86325">
        <ele>45.09</ele>
        <time>2022-06-24T08:34:04.832Z</time>
      </trkpt>
      <trkpt lat="48.61075" lon="-3.86324">
        <ele>45.14</ele>
        <time>2022-06-24T08:34:14.887Z</time>
      </trkpt>
      <trkpt lat="48.61067" lon="-3.86321">
        <ele>45.09</ele>
        <time>2022-06-24T08:34:24.869Z</time>
      </trkpt>
      <trkpt lat="48.61057" lon="-3.86315">
        <ele>45.15</ele>
        <time>2022-06-24T08:34:35.748Z</time>
      </trkpt>
      <trkpt lat="48.61049" lon="-3.86316">
        <ele>46.07</ele>
        <time>2022-06-24T08:34:44.974Z</time>
      </trkpt>
      <trkpt lat="48.61041" lon="-3.86312">
        <ele>45.15</ele>
        <time>2022-06-24T08:34:54.672Z</time>
      </trkpt>
      <trkpt lat="48.61035" lon="-3.8631">
        <ele>46.09</ele>
        <time>2022-06-24T08:35:04.894Z</time>
      </trkpt>
      <trkpt lat="48.61025" lon="-3.86306">
        <ele>47.09</ele>
        <time>2022-06-24T08:35:14.749Z</time>
      </trkpt>
      <trkpt lat="48.61018" lon="-3.86303">
        <ele>46.09</ele>
        <time>2022-06-24T08:35:23.907Z</time>
      </trkpt>
      <trkpt lat="48.61013" lon="-3.86293">
        <ele>48.09</ele>
        <time>2022-06-24T08:35:33.000Z</time>
      </trkpt>
      <trkpt lat="48.6101" lon="-3.86287">
        <ele>49.09</ele>
        <time>2022-06-24T08:35:42.892Z</time>
      </trkpt>
      <trkpt lat="48.61008" lon="-3.86278">
        <ele>48.09</ele>
        <time>2022-06-24T08:35:52.828Z</time>
      </trkpt>
      <trkpt lat="48.61007" lon="-3.86262">
        <ele>48.09</ele>
        <time>2022-06-24T08:36:01.853Z</time>
      </trkpt>
      <trkpt lat="48.61002" lon="-3.86255">
        <ele>48.09</ele>
        <time>2022-06-24T08:36:11.000Z</time>
      </trkpt>
      <trkpt lat="48.60996" lon="-3.86256">
        <ele>48.09</ele>
        <time>2022-06-24T08:36:20.713Z</time>
      </trkpt>
      <trkpt lat="48.60993" lon="-3.86257">
        <ele>49.84</ele>
        <time>2022-06-24T08:36:30.000Z</time>
      </trkpt>
      <trkpt lat="48.60989" lon="-3.86259">
        <ele>50.11</ele>
        <time>2022-06-24T08:36:39.512Z</time>
      </trkpt>
      <trkpt lat="48.60982" lon="-3.86258">
        <ele>49.11</ele>
        <time>2022-06-24T08:36:48.953Z</time>
      </trkpt>
      <trkpt lat="48.60974" lon="-3.86259">
        <ele>48.09</ele>
        <time>2022-06-24T08:36:58.646Z</time>
      </trkpt>
      <trkpt lat="48.60968" lon="-3.86258">
        <ele>47.84</ele>
        <time>2022-06-24T08:37:08.148Z</time>
      </trkpt>
      <trkpt lat="48.60962" lon="-3.86258">
        <ele>48.09</ele>
        <time>2022-06-24T08:37:17.229Z</time>
      </trkpt>
      <trkpt lat="48.60956" lon="-3.86257">
        <ele>47.09</ele>
        <time>2022-06-24T08:37:26.551Z</time>
      </trkpt>
      <trkpt lat="48.60951" lon="-3.86257">
        <ele>47.09</ele>
        <time>2022-06-24T08:37:35.552Z</time>
      </trkpt>
      <trkpt lat="48.60943" lon="-3.86254">
        <ele>44.1</ele>
        <time>2022-06-24T08:37:44.768Z</time>
      </trkpt>
      <trkpt lat="48.60938" lon="-3.86256">
        <ele>47.09</ele>
        <time>2022-06-24T08:37:54.000Z</time>
      </trkpt>
      <trkpt lat="48.60933" lon="-3.86256">
        <ele>46.09</ele>
        <time>2022-06-24T08:38:04.411Z</time>
      </trkpt>
      <trkpt lat="48.60928" lon="-3.86257">
        <ele>45.09</ele>
        <time>2022-06-24T08:38:14.748Z</time>
      </trkpt>
      <trkpt lat="48.6092" lon="-3.86258">
        <ele>43.09</ele>
        <time>2022-06-24T08:38:24.668Z</time>
      </trkpt>
      <trkpt lat="48.60913" lon="-3.86258">
        <ele>42.09</ele>
        <time>2022-06-24T08:38:34.000Z</time>
      </trkpt>
      <trkpt lat="48.60908" lon="-3.8626">
        <ele>43.09</ele>
        <time>2022-06-24T08:38:44.000Z</time>
      </trkpt>
      <trkpt lat="48.60903" lon="-3.8626">
        <ele>42.09</ele>
        <time>2022-06-24T08:38:54.891Z</time>
      </trkpt>
      <trkpt lat="48.60899" lon="-3.8626">
        <ele>40.09</ele>
        <time>2022-06-24T08:39:04.572Z</time>
      </trkpt>
      <trkpt lat="48.60897" lon="-3.86258">
        <ele>40.09</ele>
        <time>2022-06-24T08:39:14.748Z</time>
      </trkpt>
      <trkpt lat="48.60898" lon="-3.86254">
        <ele>42.03</ele>
        <time>2022-06-24T08:39:23.812Z</time>
      </trkpt>
      <trkpt lat="48.60898" lon="-3.86247">
        <ele>39.09</ele>
        <time>2022-06-24T08:39:33.631Z</time>
      </trkpt>
      <trkpt lat="48.60898" lon="-3.8624">
        <ele>38.09</ele>
        <time>2022-06-24T08:39:43.509Z</time>
      </trkpt>
      <trkpt lat="48.60905" lon="-3.86228">
        <ele>34.1</ele>
        <time>2022-06-24T08:39:53.748Z</time>
      </trkpt>
      <trkpt lat="48.6091" lon="-3.8622">
        <ele>35.09</ele>
        <time>2022-06-24T08:40:02.909Z</time>
      </trkpt>
      <trkpt lat="48.60912" lon="-3.86216">
        <ele>35.09</ele>
        <time>2022-06-24T08:40:12.386Z</time>
      </trkpt>
      <trkpt lat="48.60913" lon="-3.86207">
        <ele>35.1</ele>
        <time>2022-06-24T08:40:21.689Z</time>
      </trkpt>
      <trkpt lat="48.60915" lon="-3.86199">
        <ele>35.09</ele>
        <time>2022-06-24T08:40:31.848Z</time>
      </trkpt>
      <trkpt lat="48.60917" lon="-3.86191">
        <ele>36.09</ele>
        <time>2022-06-24T08:40:41.708Z</time>
      </trkpt>
      <trkpt lat="48.60923" lon="-3.86181">
        <ele>36.09</ele>
        <time>2022-06-24T08:40:51.868Z</time>
      </trkpt>
      <trkpt lat="48.60922" lon="-3.86174">
        <ele>36.09</ele>
        <time>2022-06-24T08:41:01.868Z</time>
      </trkpt>
      <trkpt lat="48.60923" lon="-3.86166">
        <ele>36.84</ele>
        <time>2022-06-24T08:41:11.000Z</time>
      </trkpt>
      <trkpt lat="48.60925" lon="-3.86162">
        <ele>38.09</ele>
        <time>2022-06-24T08:41:20.669Z</time>
      </trkpt>
      <trkpt lat="48.60924" lon="-3.86156">
        <ele>39.03</ele>
        <time>2022-06-24T08:41:30.000Z</time>
      </trkpt>
      <trkpt lat="48.60923" lon="-3.86148">
        <ele>39.09</ele>
        <time>2022-06-24T08:41:39.947Z</time>
      </trkpt>
      <trkpt lat="48.60923" lon="-3.86142">
        <ele>39.09</ele>
        <time>2022-06-24T08:41:49.913Z</time>
      </trkpt>
      <trkpt lat="48.60924" lon="-3.86131">
        <ele>38.09</ele>
        <time>2022-06-24T08:42:00.692Z</time>
      </trkpt>
      <trkpt lat="48.60926" lon="-3.86118">
        <ele>36.09</ele>
        <time>2022-06-24T08:42:10.651Z</time>
      </trkpt>
      <trkpt lat="48.60927" lon="-3.86109">
        <ele>37.03</ele>
        <time>2022-06-24T08:42:20.791Z</time>
      </trkpt>
      <trkpt lat="48.60943" lon="-3.86099">
        <ele>7.01</ele>
        <time>2022-06-24T08:42:30.000Z</time>
      </trkpt>
      <trkpt lat="48.60964" lon="-3.86099">
        <ele>-19.83</ele>
        <time>2022-06-24T08:42:39.794Z</time>
      </trkpt>
      <trkpt lat="48.60951" lon="-3.86067">
        <ele>-2.23</ele>
        <time>2022-06-24T08:42:50.676Z</time>
      </trkpt>
      <trkpt lat="48.60946" lon="-3.86047">
        <ele>8.76</ele>
        <time>2022-06-24T08:43:00.000Z</time>
      </trkpt>
      <trkpt lat="48.60949" lon="-3.86039">
        <ele>11.09</ele>
        <time>2022-06-24T08:43:10.000Z</time>
      </trkpt>
      <trkpt lat="48.6095" lon="-3.86031">
        <ele>13.03</ele>
        <time>2022-06-24T08:43:21.839Z</time>
      </trkpt>
      <trkpt lat="48.6095" lon="-3.86024">
        <ele>15.03</ele>
        <time>2022-06-24T08:43:31.679Z</time>
      </trkpt>
      <trkpt lat="48.60951" lon="-3.86017">
        <ele>15.09</ele>
        <time>2022-06-24T08:43:41.636Z</time>
      </trkpt>
      <trkpt lat="48.60952" lon="-3.86007">
        <ele>16.03</ele>
        <time>2022-06-24T08:43:50.775Z</time>
      </trkpt>
      <trkpt lat="48.60954" lon="-3.86005">
        <ele>16.09</ele>
        <time>2022-06-24T08:43:59.854Z</time>
      </trkpt>
      <trkpt lat="48.60957" lon="-3.86">
        <ele>17.84</ele>
        <time>2022-06-24T08:44:09.439Z</time>
      </trkpt>
      <trkpt lat="48.60964" lon="-3.85991">
        <ele>17.09</ele>
        <time>2022-06-24T08:44:19.695Z</time>
      </trkpt>
      <trkpt lat="48.60972" lon="-3.85986">
        <ele>20.09</ele>
        <time>2022-06-24T08:44:29.814Z</time>
      </trkpt>
      <trkpt lat="48.60979" lon="-3.8598">
        <ele>16.15</ele>
        <time>2022-06-24T08:44:39.861Z</time>
      </trkpt>
      <trkpt lat="48.60986" lon="-3.85976">
        <ele>15.09</ele>
        <time>2022-06-24T08:44:48.902Z</time>
      </trkpt>
      <trkpt lat="48.60995" lon="-3.8597">
        <ele>16.09</ele>
        <time>2022-06-24T08:44:58.875Z</time>
      </trkpt>
      <trkpt lat="48.61002" lon="-3.85963">
        <ele>17.09</ele>
        <time>2022-06-24T08:45:08.000Z</time>
      </trkpt>
      <trkpt lat="48.61009" lon="-3.85961">
        <ele>16.15</ele>
        <time>2022-06-24T08:45:17.754Z</time>
      </trkpt>
      <trkpt lat="48.61015" lon="-3.85962">
        <ele>13.11</ele>
        <time>2022-06-24T08:45:27.363Z</time>
      </trkpt>
      <trkpt lat="48.61018" lon="-3.85962">
        <ele>13.09</ele>
        <time>2022-06-24T08:45:36.496Z</time>
      </trkpt>
      <trkpt lat="48.61022" lon="-3.85964">
        <ele>12.13</ele>
        <time>2022-06-24T08:45:46.000Z</time>
      </trkpt>
      <trkpt lat="48.61022" lon="-3.85966">
        <ele>12.09</ele>
        <time>2022-06-24T08:45:56.000Z</time>
      </trkpt>
      <trkpt lat="48.61021" lon="-3.85967">
        <ele>10.59</ele>
        <time>2022-06-24T08:46:06.000Z</time>
      </trkpt>
      <trkpt lat="48.6102" lon="-3.85969">
        <ele>5.73</ele>
        <time>2022-06-24T08:46:26.000Z</time>
      </trkpt>
      <trkpt lat="48.61018" lon="-3.85982">
        <ele>-1.14</ele>
        <time>2022-06-24T08:46:36.000Z</time>
      </trkpt>
      <trkpt lat="48.61022" lon="-3.85975">
        <ele>1.34</ele>
        <time>2022-06-24T08:46:46.000Z</time>
      </trkpt>
      <trkpt lat="48.61025" lon="-3.85972">
        <ele>8.05</ele>
        <time>2022-06-24T08:46:56.000Z</time>
      </trkpt>
      <trkpt lat="48.61026" lon="-3.8597">
        <ele>11.09</ele>
        <time>2022-06-24T08:47:06.000Z</time>
      </trkpt>
      <trkpt lat="48.61027" lon="-3.85968">
        <ele>11.34</ele>
        <time>2022-06-24T08:48:13.000Z</time>
      </trkpt>
      <trkpt lat="48.61028" lon="-3.85967">
        <ele>12.09</ele>
        <time>2022-06-24T08:49:07.000Z</time>
      </trkpt>
      <trkpt lat="48.61029" lon="-3.85968">
        <ele>13.03</ele>
        <time>2022-06-24T08:49:30.000Z</time>
      </trkpt>
      <trkpt lat="48.61029" lon="-3.8597">
        <ele>12.9</ele>
        <time>2022-06-24T08:49:41.000Z</time>
      </trkpt>
      <trkpt lat="48.61029" lon="-3.85972">
        <ele>13.09</ele>
        <time>2022-06-24T08:49:51.000Z</time>
      </trkpt>
      <trkpt lat="48.6103" lon="-3.85974">
        <ele>13.09</ele>
        <time>2022-06-24T08:50:01.000Z</time>
      </trkpt>
      <trkpt lat="48.61029" lon="-3.85974">
        <ele>13.14</ele>
        <time>2022-06-24T08:50:29.000Z</time>
      </trkpt>
      <trkpt lat="48.61028" lon="-3.85978">
        <ele>13.09</ele>
        <time>2022-06-24T08:50:38.658Z</time>
      </trkpt>
      <trkpt lat="48.61029" lon="-3.85984">
        <ele>12.11</ele>
        <time>2022-06-24T08:50:48.881Z</time>
      </trkpt>
      <trkpt lat="48.61029" lon="-3.85989">
        <ele>12.09</ele>
        <time>2022-06-24T08:50:57.918Z</time>
      </trkpt>
      <trkpt lat="48.61032" lon="-3.85999">
        <ele>13.09</ele>
        <time>2022-06-24T08:51:07.000Z</time>
      </trkpt>
      <trkpt lat="48.61036" lon="-3.86">
        <ele>13.09</ele>
        <time>2022-06-24T08:51:17.201Z</time>
      </trkpt>
      <trkpt lat="48.61044" lon="-3.86003">
        <ele>13.08</ele>
        <time>2022-06-24T08:51:27.000Z</time>
      </trkpt>
      <trkpt lat="48.61048" lon="-3.85999">
        <ele>14.28</ele>
        <time>2022-06-24T08:51:36.622Z</time>
      </trkpt>
      <trkpt lat="48.61054" lon="-3.86001">
        <ele>15.09</ele>
        <time>2022-06-24T08:51:46.000Z</time>
      </trkpt>
      <trkpt lat="48.61058" lon="-3.86008">
        <ele>14.09</ele>
        <time>2022-06-24T08:51:55.656Z</time>
      </trkpt>
      <trkpt lat="48.61061" lon="-3.86017">
        <ele>13.17</ele>
        <time>2022-06-24T08:52:05.816Z</time>
      </trkpt>
      <trkpt lat="48.61062" lon="-3.86028">
        <ele>14.09</ele>
        <time>2022-06-24T08:52:15.000Z</time>
      </trkpt>
      <trkpt lat="48.61066" lon="-3.86039">
        <ele>15.03</ele>
        <time>2022-06-24T08:52:24.962Z</time>
      </trkpt>
      <trkpt lat="48.61068" lon="-3.86046">
        <ele>15.09</ele>
        <time>2022-06-24T08:52:34.000Z</time>
      </trkpt>
      <trkpt lat="48.6107" lon="-3.86054">
        <ele>16.09</ele>
        <time>2022-06-24T08:52:43.841Z</time>
      </trkpt>
      <trkpt lat="48.61072" lon="-3.8606">
        <ele>18.09</ele>
        <time>2022-06-24T08:52:53.579Z</time>
      </trkpt>
      <trkpt lat="48.61075" lon="-3.86065">
        <ele>19.09</ele>
        <time>2022-06-24T08:53:02.599Z</time>
      </trkpt>
      <trkpt lat="48.6108" lon="-3.86072">
        <ele>18.14</ele>
        <time>2022-06-24T08:53:11.923Z</time>
      </trkpt>
      <trkpt lat="48.61085" lon="-3.86079">
        <ele>18.09</ele>
        <time>2022-06-24T08:53:21.000Z</time>
      </trkpt>
      <trkpt lat="48.61088" lon="-3.86086">
        <ele>20.03</ele>
        <time>2022-06-24T08:53:31.000Z</time>
      </trkpt>
      <trkpt lat="48.61088" lon="-3.86089">
        <ele>19.09</ele>
        <time>2022-06-24T08:53:41.000Z</time>
      </trkpt>
      <trkpt lat="48.6109" lon="-3.86091">
        <ele>20.09</ele>
        <time>2022-06-24T08:53:50.521Z</time>
      </trkpt>
      <trkpt lat="48.61094" lon="-3.86094">
        <ele>23.09</ele>
        <time>2022-06-24T08:54:00.424Z</time>
      </trkpt>
      <trkpt lat="48.61097" lon="-3.86101">
        <ele>24.15</ele>
        <time>2022-06-24T08:54:10.000Z</time>
      </trkpt>
      <trkpt lat="48.61101" lon="-3.86105">
        <ele>26.03</ele>
        <time>2022-06-24T08:54:19.841Z</time>
      </trkpt>
      <trkpt lat="48.61105" lon="-3.86106">
        <ele>25.11</ele>
        <time>2022-06-24T08:54:29.459Z</time>
      </trkpt>
      <trkpt lat="48.61109" lon="-3.86109">
        <ele>26.09</ele>
        <time>2022-06-24T08:54:38.919Z</time>
      </trkpt>
      <trkpt lat="48.61114" lon="-3.86113">
        <ele>27.09</ele>
        <time>2022-06-24T08:54:48.895Z</time>
      </trkpt>
      <trkpt lat="48.6112" lon="-3.86116">
        <ele>30.03</ele>
        <time>2022-06-24T08:54:58.480Z</time>
      </trkpt>
      <trkpt lat="48.61124" lon="-3.86123">
        <ele>32.08</ele>
        <time>2022-06-24T08:55:07.875Z</time>
      </trkpt>
      <trkpt lat="48.61123" lon="-3.8613">
        <ele>33.09</ele>
        <time>2022-06-24T08:55:17.980Z</time>
      </trkpt>
      <trkpt lat="48.61121" lon="-3.86136">
        <ele>34.09</ele>
        <time>2022-06-24T08:55:27.980Z</time>
      </trkpt>
      <trkpt lat="48.6112" lon="-3.86141">
        <ele>35.09</ele>
        <time>2022-06-24T08:55:37.429Z</time>
      </trkpt>
      <trkpt lat="48.61122" lon="-3.86149">
        <ele>35.09</ele>
        <time>2022-06-24T08:55:47.956Z</time>
      </trkpt>
      <trkpt lat="48.61124" lon="-3.86152">
        <ele>35.84</ele>
        <time>2022-06-24T08:55:57.478Z</time>
      </trkpt>
      <trkpt lat="48.61125" lon="-3.86162">
        <ele>37.08</ele>
        <time>2022-06-24T08:56:07.902Z</time>
      </trkpt>
      <trkpt lat="48.61128" lon="-3.8617">
        <ele>37.09</ele>
        <time>2022-06-24T08:56:17.000Z</time>
      </trkpt>
      <trkpt lat="48.6113" lon="-3.86173">
        <ele>38.09</ele>
        <time>2022-06-24T08:56:26.902Z</time>
      </trkpt>
      <trkpt lat="48.61133" lon="-3.86178">
        <ele>39.08</ele>
        <time>2022-06-24T08:56:36.598Z</time>
      </trkpt>
      <trkpt lat="48.61138" lon="-3.86185">
        <ele>39.09</ele>
        <time>2022-06-24T08:56:46.800Z</time>
      </trkpt>
      <trkpt lat="48.61146" lon="-3.86191">
        <ele>39.09</ele>
        <time>2022-06-24T08:56:56.000Z</time>
      </trkpt>
      <trkpt lat="48.61155" lon="-3.8619">
        <ele>40.03</ele>
        <time>2022-06-24T08:57:06.717Z</time>
      </trkpt>
      <trkpt lat="48.61159" lon="-3.86185">
        <ele>41.09</ele>
        <time>2022-06-24T08:57:16.560Z</time>
      </trkpt>
      <trkpt lat="48.61161" lon="-3.86181">
        <ele>43.08</ele>
        <time>2022-06-24T08:57:25.779Z</time>
      </trkpt>
      <trkpt lat="48.61163" lon="-3.86177">
        <ele>44.09</ele>
        <time>2022-06-24T08:57:34.939Z</time>
      </trkpt>
      <trkpt lat="48.61152" lon="-3.86204">
        <ele>12.71</ele>
        <time>2022-06-24T08:57:44.000Z</time>
      </trkpt>
      <trkpt lat="48.61166" lon="-3.86185">
        <ele>22.93</ele>
        <time>2022-06-24T08:57:53.894Z</time>
      </trkpt>
      <trkpt lat="48.61175" lon="-3.86167">
        <ele>27.01</ele>
        <time>2022-06-24T08:58:03.875Z</time>
      </trkpt>
      <trkpt lat="48.61182" lon="-3.86164">
        <ele>30.09</ele>
        <time>2022-06-24T08:58:13.653Z</time>
      </trkpt>
      <trkpt lat="48.61183" lon="-3.86164">
        <ele>31.08</ele>
        <time>2022-06-24T08:58:24.574Z</time>
      </trkpt>
      <trkpt lat="48.61185" lon="-3.86162">
        <ele>31.09</ele>
        <time>2022-06-24T08:58:34.777Z</time>
      </trkpt>
      <trkpt lat="48.61189" lon="-3.86159">
        <ele>31.09</ele>
        <time>2022-06-24T08:58:44.675Z</time>
      </trkpt>
      <trkpt lat="48.6119" lon="-3.86158">
        <ele>31.09</ele>
        <time>2022-06-24T08:58:54.000Z</time>
      </trkpt>
      <trkpt lat="48.61193" lon="-3.86156">
        <ele>25.59</ele>
        <time>2022-06-24T08:59:04.000Z</time>
      </trkpt>
      <trkpt lat="48.6119" lon="-3.86162">
        <ele>16.21</ele>
        <time>2022-06-24T08:59:14.000Z</time>
      </trkpt>
      <trkpt lat="48.61191" lon="-3.86162">
        <ele>21.59</ele>
        <time>2022-06-24T08:59:24.000Z</time>
      </trkpt>
      <trkpt lat="48.61185" lon="-3.86178">
        <ele>15.83</ele>
        <time>2022-06-24T08:59:34.000Z</time>
      </trkpt>
      <trkpt lat="48.61187" lon="-3.86171">
        <ele>18.09</ele>
        <time>2022-06-24T08:59:44.000Z</time>
      </trkpt>
      <trkpt lat="48.61188" lon="-3.86168">
        <ele>21.09</ele>
        <time>2022-06-24T08:59:54.000Z</time>
      </trkpt>
      <trkpt lat="48.61188" lon="-3.86167">
        <ele>21.09</ele>
        <time>2022-06-24T09:00:04.000Z</time>
      </trkpt>
      <trkpt lat="48.61185" lon="-3.86162">
        <ele>24.57</ele>
        <time>2022-06-24T09:00:14.000Z</time>
      </trkpt>
      <trkpt lat="48.61188" lon="-3.86165">
        <ele>27.09</ele>
        <time>2022-06-24T09:00:24.000Z</time>
      </trkpt>
      <trkpt lat="48.61189" lon="-3.86162">
        <ele>27.09</ele>
        <time>2022-06-24T09:00:51.000Z</time>
      </trkpt>
      <trkpt lat="48.61191" lon="-3.8616">
        <ele>27.09</ele>
        <time>2022-06-24T09:01:01.000Z</time>
      </trkpt>
      <trkpt lat="48.61192" lon="-3.86158">
        <ele>29.84</ele>
        <time>2022-06-24T09:02:30.000Z</time>
      </trkpt>
      <trkpt lat="48.61195" lon="-3.86162">
        <ele>30.71</ele>
        <time>2022-06-24T09:02:40.000Z</time>
      </trkpt>
      <trkpt lat="48.61196" lon="-3.86169">
        <ele>35.09</ele>
        <time>2022-06-24T09:02:50.000Z</time>
      </trkpt>
      <trkpt lat="48.61198" lon="-3.86178">
        <ele>35.09</ele>
        <time>2022-06-24T09:02:59.587Z</time>
      </trkpt>
      <trkpt lat="48.612" lon="-3.86187">
        <ele>35.09</ele>
        <time>2022-06-24T09:03:08.870Z</time>
      </trkpt>
      <trkpt lat="48.61203" lon="-3.86188">
        <ele>35.09</ele>
        <time>2022-06-24T09:03:18.567Z</time>
      </trkpt>
      <trkpt lat="48.61205" lon="-3.8619">
        <ele>35.09</ele>
        <time>2022-06-24T09:03:27.674Z</time>
      </trkpt>
      <trkpt lat="48.61206" lon="-3.8619">
        <ele>34.09</ele>
        <time>2022-06-24T09:03:43.392Z</time>
      </trkpt>
      <trkpt lat="48.61211" lon="-3.86191">
        <ele>34.09</ele>
        <time>2022-06-24T09:03:52.513Z</time>
      </trkpt>
      <trkpt lat="48.61214" lon="-3.86187">
        <ele>31.15</ele>
        <time>2022-06-24T09:04:02.591Z</time>
      </trkpt>
      <trkpt lat="48.61216" lon="-3.86178">
        <ele>30.09</ele>
        <time>2022-06-24T09:04:11.872Z</time>
      </trkpt>
      <trkpt lat="48.61219" lon="-3.86173">
        <ele>29.11</ele>
        <time>2022-06-24T09:04:21.631Z</time>
      </trkpt>
      <trkpt lat="48.61225" lon="-3.86181">
        <ele>27.09</ele>
        <time>2022-06-24T09:04:31.709Z</time>
      </trkpt>
      <trkpt lat="48.61231" lon="-3.86192">
        <ele>25.09</ele>
        <time>2022-06-24T09:04:41.573Z</time>
      </trkpt>
      <trkpt lat="48.61235" lon="-3.86202">
        <ele>24.09</ele>
        <time>2022-06-24T09:04:50.790Z</time>
      </trkpt>
      <trkpt lat="48.61238" lon="-3.86205">
        <ele>23.15</ele>
        <time>2022-06-24T09:05:00.428Z</time>
      </trkpt>
      <trkpt lat="48.6124" lon="-3.86212">
        <ele>22.09</ele>
        <time>2022-06-24T09:05:10.614Z</time>
      </trkpt>
      <trkpt lat="48.61242" lon="-3.86219">
        <ele>20.09</ele>
        <time>2022-06-24T09:05:20.651Z</time>
      </trkpt>
      <trkpt lat="48.61248" lon="-3.86224">
        <ele>18.11</ele>
        <time>2022-06-24T09:05:30.850Z</time>
      </trkpt>
      <trkpt lat="48.61247" lon="-3.86229">
        <ele>14.15</ele>
        <time>2022-06-24T09:05:39.911Z</time>
      </trkpt>
      <trkpt lat="48.61252" lon="-3.86234">
        <ele>12.09</ele>
        <time>2022-06-24T09:05:49.614Z</time>
      </trkpt>
      <trkpt lat="48.61259" lon="-3.86237">
        <ele>10.1</ele>
        <time>2022-06-24T09:05:58.793Z</time>
      </trkpt>
      <trkpt lat="48.61263" lon="-3.86234">
        <ele>8.34</ele>
        <time>2022-06-24T09:06:08.000Z</time>
      </trkpt>
      <trkpt lat="48.61262" lon="-3.86234">
        <ele>5.09</ele>
        <time>2022-06-24T09:06:18.315Z</time>
      </trkpt>
      <trkpt lat="48.61259" lon="-3.86226">
        <ele>6.08</ele>
        <time>2022-06-24T09:06:28.634Z</time>
      </trkpt>
      <trkpt lat="48.61258" lon="-3.86219">
        <ele>5.15</ele>
        <time>2022-06-24T09:06:38.000Z</time>
      </trkpt>
      <trkpt lat="48.61258" lon="-3.86214">
        <ele>4.15</ele>
        <time>2022-06-24T09:06:47.913Z</time>
      </trkpt>
      <trkpt lat="48.61261" lon="-3.86208">
        <ele>4.09</ele>
        <time>2022-06-24T09:06:57.000Z</time>
      </trkpt>
      <trkpt lat="48.6126" lon="-3.86207">
        <ele>4.09</ele>
        <time>2022-06-24T09:07:26.000Z</time>
      </trkpt>
      <trkpt lat="48.61261" lon="-3.86222">
        <ele>-0.84</ele>
        <time>2022-06-24T09:07:35.391Z</time>
      </trkpt>
      <trkpt lat="48.61272" lon="-3.86222">
        <ele>2.09</ele>
        <time>2022-06-24T09:07:44.733Z</time>
      </trkpt>
      <trkpt lat="48.6128" lon="-3.86235">
        <ele>3.09</ele>
        <time>2022-06-24T09:07:54.772Z</time>
      </trkpt>
      <trkpt lat="48.61285" lon="-3.86247">
        <ele>3.09</ele>
        <time>2022-06-24T09:08:04.000Z</time>
      </trkpt>
      <trkpt lat="48.61292" lon="-3.86258">
        <ele>2.09</ele>
        <time>2022-06-24T09:08:13.954Z</time>
      </trkpt>
      <trkpt lat="48.61295" lon="-3.86269">
        <ele>1.08</ele>
        <time>2022-06-24T09:08:23.000Z</time>
      </trkpt>
      <trkpt lat="48.61294" lon="-3.86266">
        <ele>1.09</ele>
        <time>2022-06-24T09:08:33.000Z</time>
      </trkpt>
      <trkpt lat="48.61293" lon="-3.86265">
        <ele>1.09</ele>
        <time>2022-06-24T09:08:43.000Z</time>
      </trkpt>
      <trkpt lat="48.61295" lon="-3.86265">
        <ele>-0.89</ele>
        <time>2022-06-24T09:08:53.000Z</time>
      </trkpt>
      <trkpt lat="48.61297" lon="-3.86267">
        <ele>0.09</ele>
        <time>2022-06-24T09:09:03.000Z</time>
      </trkpt>
      <trkpt lat="48.61297" lon="-3.86265">
        <ele>0.09</ele>
        <time>2022-06-24T09:09:17.000Z</time>
      </trkpt>
      <trkpt lat="48.61296" lon="-3.86269">
        <ele>-5.96</ele>
        <time>2022-06-24T09:09:27.000Z</time>
      </trkpt>
      <trkpt lat="48.61304" lon="-3.86261">
        <ele>-9.14</ele>
        <time>2022-06-24T09:09:36.912Z</time>
      </trkpt>
      <trkpt lat="48.61314" lon="-3.86273">
        <ele>-12.16</ele>
        <time>2022-06-24T09:09:46.951Z</time>
      </trkpt>
      <trkpt lat="48.61323" lon="-3.86261">
        <ele>-10.97</ele>
        <time>2022-06-24T09:09:57.568Z</time>
      </trkpt>
      <trkpt lat="48.61333" lon="-3.86252">
        <ele>-3.99</ele>
        <time>2022-06-24T09:10:07.000Z</time>
      </trkpt>
      <trkpt lat="48.61333" lon="-3.86254">
        <ele>-3.91</ele>
        <time>2022-06-24T09:10:17.000Z</time>
      </trkpt>
      <trkpt lat="48.61332" lon="-3.86255">
        <ele>-3.91</ele>
        <time>2022-06-24T09:10:27.000Z</time>
      </trkpt>
      <trkpt lat="48.61332" lon="-3.86254">
        <ele>-2.91</ele>
        <time>2022-06-24T09:10:39.773Z</time>
      </trkpt>
      <trkpt lat="48.61332" lon="-3.86255">
        <ele>-4.91</ele>
        <time>2022-06-24T09:10:52.000Z</time>
      </trkpt>
      <trkpt lat="48.61332" lon="-3.86253">
        <ele>-3.91</ele>
        <time>2022-06-24T09:11:15.000Z</time>
      </trkpt>
      <trkpt lat="48.61333" lon="-3.86254">
        <ele>-1.91</ele>
        <time>2022-06-24T09:11:51.934Z</time>
      </trkpt>
      <trkpt lat="48.61335" lon="-3.86259">
        <ele>0.09</ele>
        <time>2022-06-24T09:12:00.955Z</time>
      </trkpt>
      <trkpt lat="48.61333" lon="-3.86262">
        <ele>2.03</ele>
        <time>2022-06-24T09:12:10.768Z</time>
      </trkpt>
      <trkpt lat="48.61333" lon="-3.86266">
        <ele>2.09</ele>
        <time>2022-06-24T09:12:20.000Z</time>
      </trkpt>
      <trkpt lat="48.61332" lon="-3.86269">
        <ele>4.03</ele>
        <time>2022-06-24T09:12:29.791Z</time>
      </trkpt>
      <trkpt lat="48.61331" lon="-3.86271">
        <ele>4.09</ele>
        <time>2022-06-24T09:12:39.668Z</time>
      </trkpt>
      <trkpt lat="48.61331" lon="-3.86269">
        <ele>5.86</ele>
        <time>2022-06-24T09:12:49.000Z</time>
      </trkpt>
      <trkpt lat="48.61336" lon="-3.86271">
        <ele>8.09</ele>
        <time>2022-06-24T09:12:59.000Z</time>
      </trkpt>
      <trkpt lat="48.61337" lon="-3.86274">
        <ele>9.09</ele>
        <time>2022-06-24T09:13:09.873Z</time>
      </trkpt>
      <trkpt lat="48.61341" lon="-3.86276">
        <ele>11.09</ele>
        <time>2022-06-24T09:13:19.690Z</time>
      </trkpt>
      <trkpt lat="48.61342" lon="-3.86277">
        <ele>11.84</ele>
        <time>2022-06-24T09:13:29.000Z</time>
      </trkpt>
      <trkpt lat="48.61343" lon="-3.8628">
        <ele>12.09</ele>
        <time>2022-06-24T09:13:38.272Z</time>
      </trkpt>
      <trkpt lat="48.61348" lon="-3.86283">
        <ele>11.34</ele>
        <time>2022-06-24T09:13:48.000Z</time>
      </trkpt>
      <trkpt lat="48.61351" lon="-3.86289">
        <ele>12.08</ele>
        <time>2022-06-24T09:13:57.715Z</time>
      </trkpt>
      <trkpt lat="48.6135" lon="-3.86301">
        <ele>10.1</ele>
        <time>2022-06-24T09:14:07.393Z</time>
      </trkpt>
      <trkpt lat="48.61356" lon="-3.863">
        <ele>9.84</ele>
        <time>2022-06-24T09:14:16.528Z</time>
      </trkpt>
      <trkpt lat="48.61356" lon="-3.86298">
        <ele>8.09</ele>
        <time>2022-06-24T09:14:31.447Z</time>
      </trkpt>
      <trkpt lat="48.6136" lon="-3.86289">
        <ele>10.09</ele>
        <time>2022-06-24T09:14:40.831Z</time>
      </trkpt>
      <trkpt lat="48.61368" lon="-3.86283">
        <ele>12.08</ele>
        <time>2022-06-24T09:14:50.654Z</time>
      </trkpt>
      <trkpt lat="48.61375" lon="-3.86281">
        <ele>13.09</ele>
        <time>2022-06-24T09:14:59.669Z</time>
      </trkpt>
      <trkpt lat="48.61381" lon="-3.8628">
        <ele>15.09</ele>
        <time>2022-06-24T09:15:09.000Z</time>
      </trkpt>
      <trkpt lat="48.61388" lon="-3.86277">
        <ele>16.11</ele>
        <time>2022-06-24T09:15:18.568Z</time>
      </trkpt>
      <trkpt lat="48.61393" lon="-3.8627">
        <ele>19.09</ele>
        <time>2022-06-24T09:15:27.632Z</time>
      </trkpt>
      <trkpt lat="48.61397" lon="-3.86265">
        <ele>20.09</ele>
        <time>2022-06-24T09:15:36.667Z</time>
      </trkpt>
      <trkpt lat="48.61405" lon="-3.86261">
        <ele>19.09</ele>
        <time>2022-06-24T09:15:46.292Z</time>
      </trkpt>
      <trkpt lat="48.61411" lon="-3.86258">
        <ele>19.09</ele>
        <time>2022-06-24T09:15:55.692Z</time>
      </trkpt>
      <trkpt lat="48.61419" lon="-3.86244">
        <ele>21.09</ele>
        <time>2022-06-24T09:16:05.000Z</time>
      </trkpt>
      <trkpt lat="48.61425" lon="-3.86234">
        <ele>22.09</ele>
        <time>2022-06-24T09:16:14.753Z</time>
      </trkpt>
      <trkpt lat="48.6143" lon="-3.86232">
        <ele>24.09</ele>
        <time>2022-06-24T09:16:24.000Z</time>
      </trkpt>
      <trkpt lat="48.61435" lon="-3.8623">
        <ele>24.11</ele>
        <time>2022-06-24T09:16:33.692Z</time>
      </trkpt>
      <trkpt lat="48.61439" lon="-3.86224">
        <ele>24.09</ele>
        <time>2022-06-24T09:16:42.811Z</time>
      </trkpt>
      <trkpt lat="48.61444" lon="-3.86217">
        <ele>24.09</ele>
        <time>2022-06-24T09:16:51.934Z</time>
      </trkpt>
      <trkpt lat="48.61453" lon="-3.8621">
        <ele>25.04</ele>
        <time>2022-06-24T09:17:01.932Z</time>
      </trkpt>
      <trkpt lat="48.61459" lon="-3.86205">
        <ele>27.09</ele>
        <time>2022-06-24T09:17:11.932Z</time>
      </trkpt>
      <trkpt lat="48.61465" lon="-3.86197">
        <ele>29.08</ele>
        <time>2022-06-24T09:17:21.936Z</time>
      </trkpt>
      <trkpt lat="48.61471" lon="-3.86191">
        <ele>31.03</ele>
        <time>2022-06-24T09:17:31.950Z</time>
      </trkpt>
      <trkpt lat="48.61476" lon="-3.86183">
        <ele>30.1</ele>
        <time>2022-06-24T09:17:41.000Z</time>
      </trkpt>
      <trkpt lat="48.61476" lon="-3.86179">
        <ele>31.09</ele>
        <time>2022-06-24T09:17:51.000Z</time>
      </trkpt>
      <trkpt lat="48.61476" lon="-3.86177">
        <ele>31.09</ele>
        <time>2022-06-24T09:18:01.000Z</time>
      </trkpt>
      <trkpt lat="48.61476" lon="-3.86179">
        <ele>31.09</ele>
        <time>2022-06-24T09:18:12.551Z</time>
      </trkpt>
      <trkpt lat="48.61477" lon="-3.86184">
        <ele>32.03</ele>
        <time>2022-06-24T09:18:22.000Z</time>
      </trkpt>
      <trkpt lat="48.61475" lon="-3.86191">
        <ele>32.09</ele>
        <time>2022-06-24T09:18:31.834Z</time>
      </trkpt>
      <trkpt lat="48.61475" lon="-3.86198">
        <ele>30.09</ele>
        <time>2022-06-24T09:18:41.652Z</time>
      </trkpt>
      <trkpt lat="48.61473" lon="-3.86206">
        <ele>31.09</ele>
        <time>2022-06-24T09:18:51.494Z</time>
      </trkpt>
      <trkpt lat="48.61472" lon="-3.86211">
        <ele>32.09</ele>
        <time>2022-06-24T09:19:01.000Z</time>
      </trkpt>
      <trkpt lat="48.61475" lon="-3.86207">
        <ele>33.08</ele>
        <time>2022-06-24T09:19:10.932Z</time>
      </trkpt>
      <trkpt lat="48.61477" lon="-3.86203">
        <ele>36.08</ele>
        <time>2022-06-24T09:19:20.651Z</time>
      </trkpt>
      <trkpt lat="48.6148" lon="-3.86199">
        <ele>38.09</ele>
        <time>2022-06-24T09:19:29.976Z</time>
      </trkpt>
      <trkpt lat="48.61487" lon="-3.86194">
        <ele>39.09</ele>
        <time>2022-06-24T09:19:39.689Z</time>
      </trkpt>
      <trkpt lat="48.61491" lon="-3.86194">
        <ele>38.09</ele>
        <time>2022-06-24T09:19:48.814Z</time>
      </trkpt>
      <trkpt lat="48.61499" lon="-3.86194">
        <ele>37.09</ele>
        <time>2022-06-24T09:19:58.594Z</time>
      </trkpt>
      <trkpt lat="48.61503" lon="-3.86199">
        <ele>38.08</ele>
        <time>2022-06-24T09:20:08.412Z</time>
      </trkpt>
      <trkpt lat="48.61505" lon="-3.862">
        <ele>37.09</ele>
        <time>2022-06-24T09:20:17.433Z</time>
      </trkpt>
      <trkpt lat="48.61508" lon="-3.86204">
        <ele>37.03</ele>
        <time>2022-06-24T09:20:26.712Z</time>
      </trkpt>
      <trkpt lat="48.61511" lon="-3.86209">
        <ele>36.09</ele>
        <time>2022-06-24T09:20:35.973Z</time>
      </trkpt>
      <trkpt lat="48.61516" lon="-3.8621">
        <ele>36.09</ele>
        <time>2022-06-24T09:20:45.000Z</time>
      </trkpt>
      <trkpt lat="48.6152" lon="-3.86212">
        <ele>36.09</ele>
        <time>2022-06-24T09:20:54.449Z</time>
      </trkpt>
      <trkpt lat="48.61525" lon="-3.86217">
        <ele>37.09</ele>
        <time>2022-06-24T09:21:03.751Z</time>
      </trkpt>
      <trkpt lat="48.61529" lon="-3.86222">
        <ele>38.09</ele>
        <time>2022-06-24T09:21:12.911Z</time>
      </trkpt>
      <trkpt lat="48.61533" lon="-3.86227">
        <ele>38.09</ele>
        <time>2022-06-24T09:21:22.313Z</time>
      </trkpt>
      <trkpt lat="48.61536" lon="-3.86233">
        <ele>39.09</ele>
        <time>2022-06-24T09:21:32.772Z</time>
      </trkpt>
      <trkpt lat="48.61542" lon="-3.86242">
        <ele>39.84</ele>
        <time>2022-06-24T09:21:42.490Z</time>
      </trkpt>
      <trkpt lat="48.61548" lon="-3.86246">
        <ele>38.6</ele>
        <time>2022-06-24T09:21:52.000Z</time>
      </trkpt>
      <trkpt lat="48.6155" lon="-3.86243">
        <ele>37.09</ele>
        <time>2022-06-24T09:22:02.428Z</time>
      </trkpt>
      <trkpt lat="48.61554" lon="-3.8624">
        <ele>28.85</ele>
        <time>2022-06-24T09:22:12.000Z</time>
      </trkpt>
      <trkpt lat="48.61549" lon="-3.86236">
        <ele>32.09</ele>
        <time>2022-06-24T09:22:22.000Z</time>
      </trkpt>
      <trkpt lat="48.61552" lon="-3.86237">
        <ele>29.34</ele>
        <time>2022-06-24T09:22:32.000Z</time>
      </trkpt>
      <trkpt lat="48.61553" lon="-3.86238">
        <ele>29.09</ele>
        <time>2022-06-24T09:22:42.000Z</time>
      </trkpt>
      <trkpt lat="48.61554" lon="-3.86237">
        <ele>29.9</ele>
        <time>2022-06-24T09:22:53.000Z</time>
      </trkpt>
      <trkpt lat="48.61565" lon="-3.86234">
        <ele>33.08</ele>
        <time>2022-06-24T09:23:03.000Z</time>
      </trkpt>
      <trkpt lat="48.61567" lon="-3.86232">
        <ele>34.03</ele>
        <time>2022-06-24T09:23:13.000Z</time>
      </trkpt>
      <trkpt lat="48.6157" lon="-3.86229">
        <ele>36.09</ele>
        <time>2022-06-24T09:23:22.810Z</time>
      </trkpt>
      <trkpt lat="48.61578" lon="-3.86224">
        <ele>39.03</ele>
        <time>2022-06-24T09:23:31.956Z</time>
      </trkpt>
      <trkpt lat="48.61584" lon="-3.86222">
        <ele>40.84</ele>
        <time>2022-06-24T09:23:41.311Z</time>
      </trkpt>
      <trkpt lat="48.6159" lon="-3.86218">
        <ele>42.33</ele>
        <time>2022-06-24T09:23:50.434Z</time>
      </trkpt>
      <trkpt lat="48.61598" lon="-3.86211">
        <ele>44.09</ele>
        <time>2022-06-24T09:23:59.731Z</time>
      </trkpt>
      <trkpt lat="48.61604" lon="-3.86208">
        <ele>46.08</ele>
        <time>2022-06-24T09:24:08.828Z</time>
      </trkpt>
      <trkpt lat="48.6161" lon="-3.86205">
        <ele>49.03</ele>
        <time>2022-06-24T09:24:18.532Z</time>
      </trkpt>
      <trkpt lat="48.61615" lon="-3.862">
        <ele>50.09</ele>
        <time>2022-06-24T09:24:28.731Z</time>
      </trkpt>
      <trkpt lat="48.6162" lon="-3.86195">
        <ele>51.09</ele>
        <time>2022-06-24T09:24:38.748Z</time>
      </trkpt>
      <trkpt lat="48.61627" lon="-3.8619">
        <ele>49.09</ele>
        <time>2022-06-24T09:24:47.869Z</time>
      </trkpt>
      <trkpt lat="48.61635" lon="-3.86182">
        <ele>50.09</ele>
        <time>2022-06-24T09:24:58.732Z</time>
      </trkpt>
      <trkpt lat="48.61641" lon="-3.86178">
        <ele>50.09</ele>
        <time>2022-06-24T09:25:07.972Z</time>
      </trkpt>
      <trkpt lat="48.61647" lon="-3.86175">
        <ele>48.59</ele>
        <time>2022-06-24T09:25:17.892Z</time>
      </trkpt>
      <trkpt lat="48.61654" lon="-3.86174">
        <ele>48.09</ele>
        <time>2022-06-24T09:25:27.000Z</time>
      </trkpt>
      <trkpt lat="48.61656" lon="-3.86173">
        <ele>49.03</ele>
        <time>2022-06-24T09:25:36.755Z</time>
      </trkpt>
      <trkpt lat="48.61662" lon="-3.86162">
        <ele>49.09</ele>
        <time>2022-06-24T09:25:45.973Z</time>
      </trkpt>
      <trkpt lat="48.61664" lon="-3.86156">
        <ele>50.09</ele>
        <time>2022-06-24T09:25:55.454Z</time>
      </trkpt>
      <trkpt lat="48.61668" lon="-3.86147">
        <ele>49.1</ele>
        <time>2022-06-24T09:26:05.670Z</time>
      </trkpt>
      <trkpt lat="48.61668" lon="-3.86142">
        <ele>50.09</ele>
        <time>2022-06-24T09:26:14.993Z</time>
      </trkpt>
      <trkpt lat="48.61669" lon="-3.86136">
        <ele>49.11</ele>
        <time>2022-06-24T09:26:24.650Z</time>
      </trkpt>
      <trkpt lat="48.6167" lon="-3.8613">
        <ele>47.09</ele>
        <time>2022-06-24T09:26:33.868Z</time>
      </trkpt>
      <trkpt lat="48.62012" lon="-3.86112">
        <ele>24.28</ele>
        <time>2022-06-24T09:41:15.000Z</time>
      </trkpt>
      <trkpt lat="48.62013" lon="-3.86111">
        <ele>46.1</ele>
        <time>2022-06-24T09:41:30.540Z</time>
      </trkpt>
      <trkpt lat="48.62007" lon="-3.86075">
        <ele>24.2</ele>
        <time>2022-06-24T09:41:40.602Z</time>
      </trkpt>
      <trkpt lat="48.62006" lon="-3.86062">
        <ele>15.8</ele>
        <time>2022-06-24T09:41:49.899Z</time>
      </trkpt>
      <trkpt lat="48.62005" lon="-3.86049">
        <ele>52.75</ele>
        <time>2022-06-24T09:41:59.762Z</time>
      </trkpt>
      <trkpt lat="48.62007" lon="-3.86034">
        <ele>49.56</ele>
        <time>2022-06-24T09:42:09.762Z</time>
      </trkpt>
      <trkpt lat="48.62005" lon="-3.86024">
        <ele>49.05</ele>
        <time>2022-06-24T09:42:19.602Z</time>
      </trkpt>
      <trkpt lat="48.62006" lon="-3.86011">
        <ele>48.1</ele>
        <time>2022-06-24T09:42:28.740Z</time>
      </trkpt>
      <trkpt lat="48.62007" lon="-3.85999">
        <ele>48.1</ele>
        <time>2022-06-24T09:42:37.898Z</time>
      </trkpt>
      <trkpt lat="48.62007" lon="-3.85986">
        <ele>47.03</ele>
        <time>2022-06-24T09:42:46.941Z</time>
      </trkpt>
      <trkpt lat="48.62007" lon="-3.85969">
        <ele>46.1</ele>
        <time>2022-06-24T09:42:56.900Z</time>
      </trkpt>
      <trkpt lat="48.62006" lon="-3.85958">
        <ele>45.35</ele>
        <time>2022-06-24T09:43:06.340Z</time>
      </trkpt>
      <trkpt lat="48.62007" lon="-3.85945">
        <ele>46.1</ele>
        <time>2022-06-24T09:43:15.758Z</time>
      </trkpt>
      <trkpt lat="48.62004" lon="-3.85931">
        <ele>46.1</ele>
        <time>2022-06-24T09:43:24.841Z</time>
      </trkpt>
      <trkpt lat="48.61997" lon="-3.85928">
        <ele>47.09</ele>
        <time>2022-06-24T09:43:33.900Z</time>
      </trkpt>
      <trkpt lat="48.61995" lon="-3.8593">
        <ele>48.1</ele>
        <time>2022-06-24T09:43:43.262Z</time>
      </trkpt>
      <trkpt lat="48.61988" lon="-3.8593">
        <ele>47.1</ele>
        <time>2022-06-24T09:43:52.582Z</time>
      </trkpt>
      <trkpt lat="48.61979" lon="-3.85932">
        <ele>47.1</ele>
        <time>2022-06-24T09:44:01.861Z</time>
      </trkpt>
      <trkpt lat="48.61972" lon="-3.85924">
        <ele>45.1</ele>
        <time>2022-06-24T09:44:11.663Z</time>
      </trkpt>
      <trkpt lat="48.61971" lon="-3.85915">
        <ele>44.1</ele>
        <time>2022-06-24T09:44:21.005Z</time>
      </trkpt>
      <trkpt lat="48.61967" lon="-3.85905">
        <ele>48.5</ele>
        <time>2022-06-24T09:44:30.646Z</time>
      </trkpt>
      <trkpt lat="48.61963" lon="-3.85892">
        <ele>48.5</ele>
        <time>2022-06-24T09:44:39.964Z</time>
      </trkpt>
      <trkpt lat="48.61959" lon="-3.85878">
        <ele>48.5</ele>
        <time>2022-06-24T09:44:49.760Z</time>
      </trkpt>
      <trkpt lat="48.6196" lon="-3.85865">
        <ele>48.5</ele>
        <time>2022-06-24T09:44:58.881Z</time>
      </trkpt>
      <trkpt lat="48.61963" lon="-3.85856">
        <ele>48.5</ele>
        <time>2022-06-24T09:45:08.359Z</time>
      </trkpt>
      <trkpt lat="48.61965" lon="-3.8585">
        <ele>48.5</ele>
        <time>2022-06-24T09:45:17.825Z</time>
      </trkpt>
      <trkpt lat="48.6197" lon="-3.85834">
        <ele>48.5</ele>
        <time>2022-06-24T09:45:27.325Z</time>
      </trkpt>
      <trkpt lat="48.61974" lon="-3.85824">
        <ele>48.5</ele>
        <time>2022-06-24T09:45:36.858Z</time>
      </trkpt>
      <trkpt lat="48.6198" lon="-3.85817">
        <ele>48.5</ele>
        <time>2022-06-24T09:45:46.360Z</time>
      </trkpt>
      <trkpt lat="48.61987" lon="-3.8581">
        <ele>32.16</ele>
        <time>2022-06-24T09:45:55.883Z</time>
      </trkpt>
      <trkpt lat="48.61994" lon="-3.85801">
        <ele>29.35</ele>
        <time>2022-06-24T09:46:05.802Z</time>
      </trkpt>
      <trkpt lat="48.61995" lon="-3.85796">
        <ele>27.16</ele>
        <time>2022-06-24T09:46:15.801Z</time>
      </trkpt>
      <trkpt lat="48.62005" lon="-3.85788">
        <ele>26.1</ele>
        <time>2022-06-24T09:46:25.540Z</time>
      </trkpt>
      <trkpt lat="48.62008" lon="-3.85785">
        <ele>26.85</ele>
        <time>2022-06-24T09:46:35.000Z</time>
      </trkpt>
      <trkpt lat="48.6201" lon="-3.85784">
        <ele>27.1</ele>
        <time>2022-06-24T09:46:45.000Z</time>
      </trkpt>
      <trkpt lat="48.62011" lon="-3.85783">
        <ele>27.85</ele>
        <time>2022-06-24T09:48:03.000Z</time>
      </trkpt>
      <trkpt lat="48.62017" lon="-3.85781">
        <ele>27.1</ele>
        <time>2022-06-24T09:48:13.966Z</time>
      </trkpt>
      <trkpt lat="48.62025" lon="-3.85774">
        <ele>27.1</ele>
        <time>2022-06-24T09:48:23.158Z</time>
      </trkpt>
      <trkpt lat="48.62031" lon="-3.85768">
        <ele>27.16</ele>
        <time>2022-06-24T09:48:33.488Z</time>
      </trkpt>
      <trkpt lat="48.62039" lon="-3.85764">
        <ele>27.1</ele>
        <time>2022-06-24T09:48:42.804Z</time>
      </trkpt>
      <trkpt lat="48.62051" lon="-3.85762">
        <ele>26.09</ele>
        <time>2022-06-24T09:48:52.499Z</time>
      </trkpt>
      <trkpt lat="48.62052" lon="-3.85762">
        <ele>26.85</ele>
        <time>2022-06-24T09:49:02.000Z</time>
      </trkpt>
      <trkpt lat="48.62056" lon="-3.85759">
        <ele>27.1</ele>
        <time>2022-06-24T09:49:11.964Z</time>
      </trkpt>
      <trkpt lat="48.62068" lon="-3.8576">
        <ele>28.08</ele>
        <time>2022-06-24T09:49:21.725Z</time>
      </trkpt>
      <trkpt lat="48.62071" lon="-3.8576">
        <ele>29.1</ele>
        <time>2022-06-24T09:49:31.964Z</time>
      </trkpt>
      <trkpt lat="48.6208" lon="-3.85755">
        <ele>29.08</ele>
        <time>2022-06-24T09:49:41.645Z</time>
      </trkpt>
      <trkpt lat="48.62082" lon="-3.85755">
        <ele>28.1</ele>
        <time>2022-06-24T09:49:51.000Z</time>
      </trkpt>
      <trkpt lat="48.62083" lon="-3.85755">
        <ele>27.35</ele>
        <time>2022-06-24T09:50:00.397Z</time>
      </trkpt>
      <trkpt lat="48.62091" lon="-3.85752">
        <ele>27.1</ele>
        <time>2022-06-24T09:50:09.878Z</time>
      </trkpt>
      <trkpt lat="48.62097" lon="-3.85754">
        <ele>26.85</ele>
        <time>2022-06-24T09:50:19.398Z</time>
      </trkpt>
      <trkpt lat="48.62104" lon="-3.85754">
        <ele>27.1</ele>
        <time>2022-06-24T09:50:29.000Z</time>
      </trkpt>
      <trkpt lat="48.62107" lon="-3.85753">
        <ele>27.1</ele>
        <time>2022-06-24T09:50:38.282Z</time>
      </trkpt>
      <trkpt lat="48.62112" lon="-3.85753">
        <ele>26.29</ele>
        <time>2022-06-24T09:50:47.323Z</time>
      </trkpt>
      <trkpt lat="48.62123" lon="-3.85752">
        <ele>25.16</ele>
        <time>2022-06-24T09:50:56.701Z</time>
      </trkpt>
      <trkpt lat="48.62132" lon="-3.85756">
        <ele>26.09</ele>
        <time>2022-06-24T09:51:06.000Z</time>
      </trkpt>
      <trkpt lat="48.62131" lon="-3.85758">
        <ele>26.1</ele>
        <time>2022-06-24T09:51:15.544Z</time>
      </trkpt>
      <trkpt lat="48.62139" lon="-3.8576">
        <ele>24.1</ele>
        <time>2022-06-24T09:51:24.807Z</time>
      </trkpt>
      <trkpt lat="48.62148" lon="-3.85762">
        <ele>22.17</ele>
        <time>2022-06-24T09:51:33.942Z</time>
      </trkpt>
      <trkpt lat="48.62155" lon="-3.85766">
        <ele>19.1</ele>
        <time>2022-06-24T09:51:43.419Z</time>
      </trkpt>
      <trkpt lat="48.62159" lon="-3.85767">
        <ele>19.1</ele>
        <time>2022-06-24T09:51:53.000Z</time>
      </trkpt>
      <trkpt lat="48.62157" lon="-3.85767">
        <ele>5.26</ele>
        <time>2022-06-24T09:52:03.000Z</time>
      </trkpt>
      <trkpt lat="48.62157" lon="-3.85769">
        <ele>9.1</ele>
        <time>2022-06-24T09:52:13.000Z</time>
      </trkpt>
      <trkpt lat="48.62157" lon="-3.85771">
        <ele>9.1</ele>
        <time>2022-06-24T09:52:23.000Z</time>
      </trkpt>
      <trkpt lat="48.62156" lon="-3.85773">
        <ele>9.1</ele>
        <time>2022-06-24T09:52:47.000Z</time>
      </trkpt>
      <trkpt lat="48.62158" lon="-3.85772">
        <ele>13.78</ele>
        <time>2022-06-24T09:52:57.000Z</time>
      </trkpt>
      <trkpt lat="48.62159" lon="-3.85774">
        <ele>14.1</ele>
        <time>2022-06-24T09:53:17.000Z</time>
      </trkpt>
      <trkpt lat="48.62159" lon="-3.85775">
        <ele>13.1</ele>
        <time>2022-06-24T09:53:27.000Z</time>
      </trkpt>
      <trkpt lat="48.62161" lon="-3.85775">
        <ele>13.1</ele>
        <time>2022-06-24T09:53:37.000Z</time>
      </trkpt>
      <trkpt lat="48.62164" lon="-3.85778">
        <ele>13.1</ele>
        <time>2022-06-24T09:53:46.784Z</time>
      </trkpt>
      <trkpt lat="48.62173" lon="-3.85785">
        <ele>14.5</ele>
        <time>2022-06-24T09:53:55.823Z</time>
      </trkpt>
      <trkpt lat="48.62178" lon="-3.85791">
        <ele>14.1</ele>
        <time>2022-06-24T09:54:05.484Z</time>
      </trkpt>
      <trkpt lat="48.62181" lon="-3.85796">
        <ele>14.1</ele>
        <time>2022-06-24T09:54:15.441Z</time>
      </trkpt>
      <trkpt lat="48.62186" lon="-3.85795">
        <ele>15.1</ele>
        <time>2022-06-24T09:54:25.619Z</time>
      </trkpt>
      <trkpt lat="48.62191" lon="-3.85788">
        <ele>19.65</ele>
        <time>2022-06-24T09:54:34.662Z</time>
      </trkpt>
      <trkpt lat="48.62198" lon="-3.85789">
        <ele>18.53</ele>
        <time>2022-06-24T09:54:45.899Z</time>
      </trkpt>
      <trkpt lat="48.62209" lon="-3.85799">
        <ele>18.12</ele>
        <time>2022-06-24T09:54:55.841Z</time>
      </trkpt>
      <trkpt lat="48.62219" lon="-3.85805">
        <ele>18.1</ele>
        <time>2022-06-24T09:55:05.782Z</time>
      </trkpt>
      <trkpt lat="48.62227" lon="-3.85811">
        <ele>18.1</ele>
        <time>2022-06-24T09:55:15.000Z</time>
      </trkpt>
      <trkpt lat="48.62229" lon="-3.85813">
        <ele>18.1</ele>
        <time>2022-06-24T09:55:24.325Z</time>
      </trkpt>
      <trkpt lat="48.62238" lon="-3.85819">
        <ele>18.1</ele>
        <time>2022-06-24T09:55:33.601Z</time>
      </trkpt>
      <trkpt lat="48.62246" lon="-3.85827">
        <ele>18.1</ele>
        <time>2022-06-24T09:55:42.720Z</time>
      </trkpt>
      <trkpt lat="48.62248" lon="-3.85832">
        <ele>18.1</ele>
        <time>2022-06-24T09:55:53.565Z</time>
      </trkpt>
      <trkpt lat="48.62255" lon="-3.85836">
        <ele>18.1</ele>
        <time>2022-06-24T09:56:03.522Z</time>
      </trkpt>
      <trkpt lat="48.62262" lon="-3.85845">
        <ele>18.1</ele>
        <time>2022-06-24T09:56:12.799Z</time>
      </trkpt>
      <trkpt lat="48.62272" lon="-3.85852">
        <ele>18.1</ele>
        <time>2022-06-24T09:56:22.525Z</time>
      </trkpt>
      <trkpt lat="48.62281" lon="-3.85859">
        <ele>18.1</ele>
        <time>2022-06-24T09:56:31.798Z</time>
      </trkpt>
      <trkpt lat="48.6229" lon="-3.85869">
        <ele>19.1</ele>
        <time>2022-06-24T09:56:42.844Z</time>
      </trkpt>
      <trkpt lat="48.62296" lon="-3.85877">
        <ele>19.33</ele>
        <time>2022-06-24T09:56:52.183Z</time>
      </trkpt>
      <trkpt lat="48.623" lon="-3.85884">
        <ele>18.1</ele>
        <time>2022-06-24T09:57:02.000Z</time>
      </trkpt>
      <trkpt lat="48.623" lon="-3.85883">
        <ele>20.59</ele>
        <time>2022-06-24T09:57:12.000Z</time>
      </trkpt>
      <trkpt lat="48.62301" lon="-3.85885">
        <ele>20.6</ele>
        <time>2022-06-24T09:57:23.478Z</time>
      </trkpt>
      <trkpt lat="48.6231" lon="-3.85893">
        <ele>20.6</ele>
        <time>2022-06-24T09:57:32.641Z</time>
      </trkpt>
      <trkpt lat="48.62319" lon="-3.859">
        <ele>20.6</ele>
        <time>2022-06-24T09:57:41.942Z</time>
      </trkpt>
      <trkpt lat="48.62327" lon="-3.85907">
        <ele>21.1</ele>
        <time>2022-06-24T09:57:51.000Z</time>
      </trkpt>
      <trkpt lat="48.62325" lon="-3.85907">
        <ele>21.2</ele>
        <time>2022-06-24T09:58:02.000Z</time>
      </trkpt>
      <trkpt lat="48.62329" lon="-3.85912">
        <ele>21.2</ele>
        <time>2022-06-24T09:58:11.804Z</time>
      </trkpt>
      <trkpt lat="48.62337" lon="-3.85919">
        <ele>21.3</ele>
        <time>2022-06-24T09:58:20.986Z</time>
      </trkpt>
      <trkpt lat="48.62348" lon="-3.85919">
        <ele>21.2</ele>
        <time>2022-06-24T09:58:30.666Z</time>
      </trkpt>
      <trkpt lat="48.62354" lon="-3.85912">
        <ele>21.8</ele>
        <time>2022-06-24T09:58:40.264Z</time>
      </trkpt>
      <trkpt lat="48.62354" lon="-3.85903">
        <ele>21.8</ele>
        <time>2022-06-24T09:58:49.582Z</time>
      </trkpt>
      <trkpt lat="48.62354" lon="-3.85891">
        <ele>17.2</ele>
        <time>2022-06-24T09:58:58.704Z</time>
      </trkpt>
      <trkpt lat="48.6236" lon="-3.85877">
        <ele>17.2</ele>
        <time>2022-06-24T09:59:08.799Z</time>
      </trkpt>
      <trkpt lat="48.6237" lon="-3.85874">
        <ele>17.89</ele>
        <time>2022-06-24T09:59:18.800Z</time>
      </trkpt>
      <trkpt lat="48.6238" lon="-3.85873">
        <ele>15.91</ele>
        <time>2022-06-24T09:59:28.441Z</time>
      </trkpt>
      <trkpt lat="48.62386" lon="-3.85864">
        <ele>17.03</ele>
        <time>2022-06-24T09:59:37.700Z</time>
      </trkpt>
      <trkpt lat="48.62388" lon="-3.85854">
        <ele>15.89</ele>
        <time>2022-06-24T09:59:47.497Z</time>
      </trkpt>
      <trkpt lat="48.6239" lon="-3.85844">
        <ele>15.9</ele>
        <time>2022-06-24T09:59:57.464Z</time>
      </trkpt>
      <trkpt lat="48.62395" lon="-3.85832">
        <ele>15.9</ele>
        <time>2022-06-24T10:00:07.621Z</time>
      </trkpt>
      <trkpt lat="48.62398" lon="-3.85819">
        <ele>15.9</ele>
        <time>2022-06-24T10:00:17.645Z</time>
      </trkpt>
      <trkpt lat="48.62403" lon="-3.85808">
        <ele>15.9</ele>
        <time>2022-06-24T10:00:26.678Z</time>
      </trkpt>
      <trkpt lat="48.62402" lon="-3.85805">
        <ele>15.9</ele>
        <time>2022-06-24T10:00:37.979Z</time>
      </trkpt>
      <trkpt lat="48.62405" lon="-3.85794">
        <ele>15.9</ele>
        <time>2022-06-24T10:00:47.204Z</time>
      </trkpt>
      <trkpt lat="48.6241" lon="-3.85783">
        <ele>15.9</ele>
        <time>2022-06-24T10:00:56.779Z</time>
      </trkpt>
      <trkpt lat="48.62417" lon="-3.85769">
        <ele>15.9</ele>
        <time>2022-06-24T10:01:06.682Z</time>
      </trkpt>
      <trkpt lat="48.62421" lon="-3.85757">
        <ele>15.9</ele>
        <time>2022-06-24T10:01:16.543Z</time>
      </trkpt>
      <trkpt lat="48.62425" lon="-3.85753">
        <ele>6.12</ele>
        <time>2022-06-24T10:01:25.878Z</time>
      </trkpt>
      <trkpt lat="48.62435" lon="-3.85753">
        <ele>5.34</ele>
        <time>2022-06-24T10:01:35.423Z</time>
      </trkpt>
      <trkpt lat="48.62445" lon="-3.85755">
        <ele>4.1</ele>
        <time>2022-06-24T10:01:44.759Z</time>
      </trkpt>
      <trkpt lat="48.62452" lon="-3.85748">
        <ele>5.85</ele>
        <time>2022-06-24T10:01:53.958Z</time>
      </trkpt>
      <trkpt lat="48.62455" lon="-3.8574">
        <ele>6.1</ele>
        <time>2022-06-24T10:02:03.382Z</time>
      </trkpt>
      <trkpt lat="48.62457" lon="-3.85726">
        <ele>5.35</ele>
        <time>2022-06-24T10:02:12.947Z</time>
      </trkpt>
      <trkpt lat="48.62465" lon="-3.85717">
        <ele>5.1</ele>
        <time>2022-06-24T10:02:22.483Z</time>
      </trkpt>
      <trkpt lat="48.62475" lon="-3.85715">
        <ele>5.1</ele>
        <time>2022-06-24T10:02:33.845Z</time>
      </trkpt>
      <trkpt lat="48.62486" lon="-3.85711">
        <ele>5.04</ele>
        <time>2022-06-24T10:02:43.464Z</time>
      </trkpt>
      <trkpt lat="48.62496" lon="-3.85708">
        <ele>4.1</ele>
        <time>2022-06-24T10:02:54.600Z</time>
      </trkpt>
      <trkpt lat="48.62497" lon="-3.85707">
        <ele>4.1</ele>
        <time>2022-06-24T10:03:08.441Z</time>
      </trkpt>
      <trkpt lat="48.62508" lon="-3.85705">
        <ele>4.1</ele>
        <time>2022-06-24T10:03:17.918Z</time>
      </trkpt>
      <trkpt lat="48.62516" lon="-3.85704">
        <ele>3.35</ele>
        <time>2022-06-24T10:03:27.483Z</time>
      </trkpt>
      <trkpt lat="48.62526" lon="-3.85703">
        <ele>4.1</ele>
        <time>2022-06-24T10:03:36.781Z</time>
      </trkpt>
      <trkpt lat="48.62535" lon="-3.85708">
        <ele>4.1</ele>
        <time>2022-06-24T10:03:46.310Z</time>
      </trkpt>
      <trkpt lat="48.62544" lon="-3.8571">
        <ele>3.16</ele>
        <time>2022-06-24T10:03:55.702Z</time>
      </trkpt>
      <trkpt lat="48.62555" lon="-3.85709">
        <ele>3.1</ele>
        <time>2022-06-24T10:04:05.682Z</time>
      </trkpt>
      <trkpt lat="48.62563" lon="-3.85709">
        <ele>4.1</ele>
        <time>2022-06-24T10:04:14.902Z</time>
      </trkpt>
      <trkpt lat="48.62572" lon="-3.8571">
        <ele>3.1</ele>
        <time>2022-06-24T10:04:24.762Z</time>
      </trkpt>
      <trkpt lat="48.62576" lon="-3.8571">
        <ele>3.35</ele>
        <time>2022-06-24T10:04:34.000Z</time>
      </trkpt>
      <trkpt lat="48.62579" lon="-3.85712">
        <ele>3.1</ele>
        <time>2022-06-24T10:04:44.920Z</time>
      </trkpt>
      <trkpt lat="48.6258" lon="-3.85714">
        <ele>5.04</ele>
        <time>2022-06-24T10:04:53.923Z</time>
      </trkpt>
      <trkpt lat="48.6258" lon="-3.85716">
        <ele>3.6</ele>
        <time>2022-06-24T10:05:32.000Z</time>
      </trkpt>
      <trkpt lat="48.62576" lon="-3.8572">
        <ele>4.16</ele>
        <time>2022-06-24T10:05:41.662Z</time>
      </trkpt>
      <trkpt lat="48.62577" lon="-3.85734">
        <ele>5.15</ele>
        <time>2022-06-24T10:05:50.758Z</time>
      </trkpt>
      <trkpt lat="48.62578" lon="-3.85747">
        <ele>6.09</ele>
        <time>2022-06-24T10:06:00.624Z</time>
      </trkpt>
      <trkpt lat="48.62577" lon="-3.85763">
        <ele>8.1</ele>
        <time>2022-06-24T10:06:09.800Z</time>
      </trkpt>
      <trkpt lat="48.62577" lon="-3.85778">
        <ele>10.1</ele>
        <time>2022-06-24T10:06:20.600Z</time>
      </trkpt>
      <trkpt lat="48.62574" lon="-3.85794">
        <ele>9.1</ele>
        <time>2022-06-24T10:06:29.882Z</time>
      </trkpt>
      <trkpt lat="48.62567" lon="-3.85801">
        <ele>9.1</ele>
        <time>2022-06-24T10:06:38.967Z</time>
      </trkpt>
      <trkpt lat="48.62561" lon="-3.85808">
        <ele>7.11</ele>
        <time>2022-06-24T10:06:48.746Z</time>
      </trkpt>
      <trkpt lat="48.62553" lon="-3.85819">
        <ele>7.1</ele>
        <time>2022-06-24T10:06:58.224Z</time>
      </trkpt>
      <trkpt lat="48.6255" lon="-3.85831">
        <ele>5.17</ele>
        <time>2022-06-24T10:07:07.641Z</time>
      </trkpt>
      <trkpt lat="48.62547" lon="-3.85845">
        <ele>5.1</ele>
        <time>2022-06-24T10:07:16.699Z</time>
      </trkpt>
      <trkpt lat="48.62546" lon="-3.85861">
        <ele>4.12</ele>
        <time>2022-06-24T10:07:25.701Z</time>
      </trkpt>
      <trkpt lat="48.62547" lon="-3.85874">
        <ele>4.11</ele>
        <time>2022-06-24T10:07:35.505Z</time>
      </trkpt>
      <trkpt lat="48.62546" lon="-3.85887">
        <ele>5.1</ele>
        <time>2022-06-24T10:07:44.724Z</time>
      </trkpt>
      <trkpt lat="48.62544" lon="-3.85899">
        <ele>16.2</ele>
        <time>2022-06-24T10:07:53.742Z</time>
      </trkpt>
      <trkpt lat="48.62544" lon="-3.85914">
        <ele>5.1</ele>
        <time>2022-06-24T10:08:03.903Z</time>
      </trkpt>
      <trkpt lat="48.6254" lon="-3.85925">
        <ele>9</ele>
        <time>2022-06-24T10:08:13.463Z</time>
      </trkpt>
      <trkpt lat="48.62537" lon="-3.85938">
        <ele>12</ele>
        <time>2022-06-24T10:08:23.641Z</time>
      </trkpt>
      <trkpt lat="48.62534" lon="-3.85951">
        <ele>16.18</ele>
        <time>2022-06-24T10:08:32.819Z</time>
      </trkpt>
      <trkpt lat="48.62532" lon="-3.85963">
        <ele>12.07</ele>
        <time>2022-06-24T10:08:41.925Z</time>
      </trkpt>
      <trkpt lat="48.6253" lon="-3.85975">
        <ele>8.1</ele>
        <time>2022-06-24T10:08:51.863Z</time>
      </trkpt>
      <trkpt lat="48.62529" lon="-3.85986">
        <ele>15.76</ele>
        <time>2022-06-24T10:09:01.484Z</time>
      </trkpt>
      <trkpt lat="48.62529" lon="-3.85996">
        <ele>11.63</ele>
        <time>2022-06-24T10:09:10.727Z</time>
      </trkpt>
      <trkpt lat="48.6253" lon="-3.86003">
        <ele>14.25</ele>
        <time>2022-06-24T10:09:20.479Z</time>
      </trkpt>
      <trkpt lat="48.62532" lon="-3.86003">
        <ele>11</ele>
        <time>2022-06-24T10:09:39.760Z</time>
      </trkpt>
      <trkpt lat="48.62533" lon="-3.8601">
        <ele>14.25</ele>
        <time>2022-06-24T10:09:49.000Z</time>
      </trkpt>
      <trkpt lat="48.62532" lon="-3.86012">
        <ele>16.2</ele>
        <time>2022-06-24T10:10:00.707Z</time>
      </trkpt>
      <trkpt lat="48.62533" lon="-3.86011">
        <ele>13.8</ele>
        <time>2022-06-24T10:10:27.000Z</time>
      </trkpt>
      <trkpt lat="48.62533" lon="-3.86014">
        <ele>13.8</ele>
        <time>2022-06-24T10:10:37.743Z</time>
      </trkpt>
      <trkpt lat="48.62529" lon="-3.86029">
        <ele>15.6</ele>
        <time>2022-06-24T10:10:47.661Z</time>
      </trkpt>
      <trkpt lat="48.62519" lon="-3.86035">
        <ele>16.2</ele>
        <time>2022-06-24T10:10:57.604Z</time>
      </trkpt>
      <trkpt lat="48.6251" lon="-3.86039">
        <ele>16.2</ele>
        <time>2022-06-24T10:11:06.923Z</time>
      </trkpt>
      <trkpt lat="48.62505" lon="-3.86042">
        <ele>16.2</ele>
        <time>2022-06-24T10:11:16.264Z</time>
      </trkpt>
      <trkpt lat="48.62498" lon="-3.86053">
        <ele>16.21</ele>
        <time>2022-06-24T10:11:25.687Z</time>
      </trkpt>
      <trkpt lat="48.62495" lon="-3.86066">
        <ele>16.2</ele>
        <time>2022-06-24T10:11:35.000Z</time>
      </trkpt>
      <trkpt lat="48.62495" lon="-3.86067">
        <ele>17.98</ele>
        <time>2022-06-24T10:11:45.000Z</time>
      </trkpt>
      <trkpt lat="48.62495" lon="-3.86069">
        <ele>16.25</ele>
        <time>2022-06-24T10:11:59.754Z</time>
      </trkpt>
      <trkpt lat="48.62494" lon="-3.86068">
        <ele>16.93</ele>
        <time>2022-06-24T10:12:09.694Z</time>
      </trkpt>
      <trkpt lat="48.62491" lon="-3.86066">
        <ele>16.55</ele>
        <time>2022-06-24T10:12:20.000Z</time>
      </trkpt>
      <trkpt lat="48.6249" lon="-3.86063">
        <ele>16.2</ele>
        <time>2022-06-24T10:12:29.222Z</time>
      </trkpt>
      <trkpt lat="48.62488" lon="-3.86062">
        <ele>16.2</ele>
        <time>2022-06-24T10:12:38.660Z</time>
      </trkpt>
      <trkpt lat="48.62487" lon="-3.86066">
        <ele>16.2</ele>
        <time>2022-06-24T10:12:48.000Z</time>
      </trkpt>
      <trkpt lat="48.62484" lon="-3.86066">
        <ele>16.2</ele>
        <time>2022-06-24T10:12:57.772Z</time>
      </trkpt>
      <trkpt lat="48.62484" lon="-3.86065">
        <ele>16.2</ele>
        <time>2022-06-24T10:13:07.000Z</time>
      </trkpt>
      <trkpt lat="48.62485" lon="-3.86064">
        <ele>16.2</ele>
        <time>2022-06-24T10:13:16.581Z</time>
      </trkpt>
      <trkpt lat="48.62484" lon="-3.86057">
        <ele>16.2</ele>
        <time>2022-06-24T10:13:25.867Z</time>
      </trkpt>
      <trkpt lat="48.62473" lon="-3.86054">
        <ele>17.2</ele>
        <time>2022-06-24T10:13:35.781Z</time>
      </trkpt>
      <trkpt lat="48.62468" lon="-3.86051">
        <ele>18</ele>
        <time>2022-06-24T10:13:44.840Z</time>
      </trkpt>
      <trkpt lat="48.62463" lon="-3.86044">
        <ele>18</ele>
        <time>2022-06-24T10:13:54.481Z</time>
      </trkpt>
      <trkpt lat="48.62464" lon="-3.86041">
        <ele>17.8</ele>
        <time>2022-06-24T10:14:04.000Z</time>
      </trkpt>
      <trkpt lat="48.62463" lon="-3.8604">
        <ele>18</ele>
        <time>2022-06-24T10:14:33.358Z</time>
      </trkpt>
      <trkpt lat="48.62465" lon="-3.86037">
        <ele>17.8</ele>
        <time>2022-06-24T10:14:43.000Z</time>
      </trkpt>
      <trkpt lat="48.62464" lon="-3.8604">
        <ele>17.8</ele>
        <time>2022-06-24T10:14:53.611Z</time>
      </trkpt>
      <trkpt lat="48.62464" lon="-3.86038">
        <ele>17.8</ele>
        <time>2022-06-24T10:15:04.922Z</time>
      </trkpt>
      <trkpt lat="48.62461" lon="-3.86041">
        <ele>17.8</ele>
        <time>2022-06-24T10:15:14.000Z</time>
      </trkpt>
      <trkpt lat="48.62459" lon="-3.8604">
        <ele>17.8</ele>
        <time>2022-06-24T10:15:33.000Z</time>
      </trkpt>
      <trkpt lat="48.62459" lon="-3.86039">
        <ele>17.85</ele>
        <time>2022-06-24T10:15:45.000Z</time>
      </trkpt>
      <trkpt lat="48.62459" lon="-3.86038">
        <ele>17.8</ele>
        <time>2022-06-24T10:16:32.000Z</time>
      </trkpt>
      <trkpt lat="48.62459" lon="-3.86036">
        <ele>17.8</ele>
        <time>2022-06-24T10:16:33.000Z</time>
      </trkpt>
      <trkpt lat="48.62456" lon="-3.86039">
        <ele>17.95</ele>
        <time>2022-06-24T11:23:44.459Z</time>
      </trkpt>
      <trkpt lat="48.62458" lon="-3.86037">
        <ele>17.95</ele>
        <time>2022-06-24T11:23:54.477Z</time>
      </trkpt>
      <trkpt lat="48.62459" lon="-3.86039">
        <ele>17.8</ele>
        <time>2022-06-24T11:24:04.682Z</time>
      </trkpt>
      <trkpt lat="48.6246" lon="-3.86038">
        <ele>18</ele>
        <time>2022-06-24T11:24:14.000Z</time>
      </trkpt>
      <trkpt lat="48.62461" lon="-3.86038">
        <ele>17.8</ele>
        <time>2022-06-24T11:24:25.760Z</time>
      </trkpt>
      <trkpt lat="48.6246" lon="-3.86039">
        <ele>17.8</ele>
        <time>2022-06-24T11:24:51.000Z</time>
      </trkpt>
      <trkpt lat="48.62459" lon="-3.86039">
        <ele>17.8</ele>
        <time>2022-06-24T11:25:02.000Z</time>
      </trkpt>
      <trkpt lat="48.6246" lon="-3.86037">
        <ele>17.8</ele>
        <time>2022-06-24T11:25:40.626Z</time>
      </trkpt>
      <trkpt lat="48.62459" lon="-3.86039">
        <ele>17.8</ele>
        <time>2022-06-24T11:25:52.000Z</time>
      </trkpt>
      <trkpt lat="48.6246" lon="-3.8604">
        <ele>17.7</ele>
        <time>2022-06-24T11:26:02.000Z</time>
      </trkpt>
      <trkpt lat="48.62461" lon="-3.86042">
        <ele>17.8</ele>
        <time>2022-06-24T11:26:16.000Z</time>
      </trkpt>
      <trkpt lat="48.62461" lon="-3.86045">
        <ele>18</ele>
        <time>2022-06-24T11:26:25.564Z</time>
      </trkpt>
      <trkpt lat="48.62465" lon="-3.86048">
        <ele>17.78</ele>
        <time>2022-06-24T11:26:35.831Z</time>
      </trkpt>
      <trkpt lat="48.62468" lon="-3.86053">
        <ele>16.2</ele>
        <time>2022-06-24T11:26:45.711Z</time>
      </trkpt>
      <trkpt lat="48.62465" lon="-3.86064">
        <ele>16.2</ele>
        <time>2022-06-24T11:26:54.924Z</time>
      </trkpt>
      <trkpt lat="48.62462" lon="-3.86077">
        <ele>16.2</ele>
        <time>2022-06-24T11:27:04.805Z</time>
      </trkpt>
      <trkpt lat="48.62459" lon="-3.8609">
        <ele>16.39</ele>
        <time>2022-06-24T11:27:13.823Z</time>
      </trkpt>
      <trkpt lat="48.62454" lon="-3.861">
        <ele>16.6</ele>
        <time>2022-06-24T11:27:23.000Z</time>
      </trkpt>
      <trkpt lat="48.62453" lon="-3.86103">
        <ele>16.5</ele>
        <time>2022-06-24T11:27:32.801Z</time>
      </trkpt>
      <trkpt lat="48.62447" lon="-3.86114">
        <ele>10.92</ele>
        <time>2022-06-24T11:27:41.825Z</time>
      </trkpt>
      <trkpt lat="48.62448" lon="-3.86126">
        <ele>20.91</ele>
        <time>2022-06-24T11:27:52.558Z</time>
      </trkpt>
      <trkpt lat="48.62453" lon="-3.86138">
        <ele>20.07</ele>
        <time>2022-06-24T11:28:01.885Z</time>
      </trkpt>
      <trkpt lat="48.62454" lon="-3.86146">
        <ele>22.8</ele>
        <time>2022-06-24T11:28:10.965Z</time>
      </trkpt>
      <trkpt lat="48.62453" lon="-3.86159">
        <ele>24.5</ele>
        <time>2022-06-24T11:28:20.957Z</time>
      </trkpt>
      <trkpt lat="48.62451" lon="-3.8617">
        <ele>16</ele>
        <time>2022-06-24T11:28:30.264Z</time>
      </trkpt>
      <trkpt lat="48.62445" lon="-3.86179">
        <ele>27.69</ele>
        <time>2022-06-24T11:28:39.720Z</time>
      </trkpt>
      <trkpt lat="48.62443" lon="-3.86193">
        <ele>24.5</ele>
        <time>2022-06-24T11:28:49.764Z</time>
      </trkpt>
      <trkpt lat="48.62444" lon="-3.86206">
        <ele>19.1</ele>
        <time>2022-06-24T11:28:59.722Z</time>
      </trkpt>
      <trkpt lat="48.62444" lon="-3.8622">
        <ele>27.7</ele>
        <time>2022-06-24T11:29:09.739Z</time>
      </trkpt>
      <trkpt lat="48.62448" lon="-3.86231">
        <ele>29.1</ele>
        <time>2022-06-24T11:29:20.681Z</time>
      </trkpt>
      <trkpt lat="48.62444" lon="-3.86244">
        <ele>27.7</ele>
        <time>2022-06-24T11:29:29.945Z</time>
      </trkpt>
      <trkpt lat="48.62444" lon="-3.86254">
        <ele>27.7</ele>
        <time>2022-06-24T11:29:39.202Z</time>
      </trkpt>
      <trkpt lat="48.62446" lon="-3.86263">
        <ele>29.1</ele>
        <time>2022-06-24T11:29:50.941Z</time>
      </trkpt>
      <trkpt lat="48.62447" lon="-3.86271">
        <ele>29.1</ele>
        <time>2022-06-24T11:30:00.000Z</time>
      </trkpt>
      <trkpt lat="48.62449" lon="-3.86271">
        <ele>29.1</ele>
        <time>2022-06-24T11:30:10.000Z</time>
      </trkpt>
      <trkpt lat="48.6245" lon="-3.86272">
        <ele>27.7</ele>
        <time>2022-06-24T11:30:50.483Z</time>
      </trkpt>
      <trkpt lat="48.62451" lon="-3.86273">
        <ele>27.7</ele>
        <time>2022-06-24T11:31:00.000Z</time>
      </trkpt>
      <trkpt lat="48.62449" lon="-3.86274">
        <ele>27.7</ele>
        <time>2022-06-24T11:31:10.000Z</time>
      </trkpt>
      <trkpt lat="48.6245" lon="-3.86273">
        <ele>27.7</ele>
        <time>2022-06-24T11:31:20.000Z</time>
      </trkpt>
      <trkpt lat="48.62452" lon="-3.86272">
        <ele>27.7</ele>
        <time>2022-06-24T11:37:11.000Z</time>
      </trkpt>
      <trkpt lat="48.62453" lon="-3.86272">
        <ele>27.7</ele>
        <time>2022-06-24T11:38:12.000Z</time>
      </trkpt>
      <trkpt lat="48.62452" lon="-3.86274">
        <ele>27.7</ele>
        <time>2022-06-24T11:38:27.399Z</time>
      </trkpt>
      <trkpt lat="48.62455" lon="-3.86285">
        <ele>26.04</ele>
        <time>2022-06-24T11:38:36.978Z</time>
      </trkpt>
      <trkpt lat="48.62458" lon="-3.86293">
        <ele>27.1</ele>
        <time>2022-06-24T11:38:46.405Z</time>
      </trkpt>
      <trkpt lat="48.62463" lon="-3.863">
        <ele>27.1</ele>
        <time>2022-06-24T11:38:57.697Z</time>
      </trkpt>
      <trkpt lat="48.62468" lon="-3.86305">
        <ele>28.1</ele>
        <time>2022-06-24T11:39:06.723Z</time>
      </trkpt>
      <trkpt lat="48.62475" lon="-3.86306">
        <ele>31.1</ele>
        <time>2022-06-24T11:39:16.580Z</time>
      </trkpt>
      <trkpt lat="48.62478" lon="-3.86314">
        <ele>30.5</ele>
        <time>2022-06-24T11:39:25.861Z</time>
      </trkpt>
      <trkpt lat="48.62477" lon="-3.86327">
        <ele>32.1</ele>
        <time>2022-06-24T11:39:36.662Z</time>
      </trkpt>
      <trkpt lat="48.62473" lon="-3.8634">
        <ele>32.1</ele>
        <time>2022-06-24T11:39:46.822Z</time>
      </trkpt>
      <trkpt lat="48.62473" lon="-3.86354">
        <ele>45.5</ele>
        <time>2022-06-24T11:39:56.799Z</time>
      </trkpt>
      <trkpt lat="48.62479" lon="-3.86366">
        <ele>41.4</ele>
        <time>2022-06-24T11:40:05.945Z</time>
      </trkpt>
      <trkpt lat="48.62483" lon="-3.86364">
        <ele>41.4</ele>
        <time>2022-06-24T11:40:15.000Z</time>
      </trkpt>
      <trkpt lat="48.62486" lon="-3.86366">
        <ele>41.4</ele>
        <time>2022-06-24T11:40:24.563Z</time>
      </trkpt>
      <trkpt lat="48.62495" lon="-3.86372">
        <ele>40.46</ele>
        <time>2022-06-24T11:40:33.668Z</time>
      </trkpt>
      <trkpt lat="48.62505" lon="-3.8637">
        <ele>40.41</ele>
        <time>2022-06-24T11:40:43.642Z</time>
      </trkpt>
      <trkpt lat="48.62514" lon="-3.86365">
        <ele>41.4</ele>
        <time>2022-06-24T11:40:53.540Z</time>
      </trkpt>
      <trkpt lat="48.62525" lon="-3.86363">
        <ele>40.4</ele>
        <time>2022-06-24T11:41:03.801Z</time>
      </trkpt>
      <trkpt lat="48.62537" lon="-3.86361">
        <ele>40.4</ele>
        <time>2022-06-24T11:41:13.521Z</time>
      </trkpt>
      <trkpt lat="48.62544" lon="-3.8637">
        <ele>35.1</ele>
        <time>2022-06-24T11:41:22.705Z</time>
      </trkpt>
      <trkpt lat="48.62549" lon="-3.86378">
        <ele>40.3</ele>
        <time>2022-06-24T11:41:32.641Z</time>
      </trkpt>
      <trkpt lat="48.62542" lon="-3.86388">
        <ele>44</ele>
        <time>2022-06-24T11:41:42.582Z</time>
      </trkpt>
      <trkpt lat="48.62538" lon="-3.86398">
        <ele>44</ele>
        <time>2022-06-24T11:41:51.726Z</time>
      </trkpt>
      <trkpt lat="48.62533" lon="-3.8641">
        <ele>44</ele>
        <time>2022-06-24T11:42:01.744Z</time>
      </trkpt>
      <trkpt lat="48.62529" lon="-3.8642">
        <ele>45.3</ele>
        <time>2022-06-24T11:42:10.761Z</time>
      </trkpt>
      <trkpt lat="48.62525" lon="-3.86433">
        <ele>37.85</ele>
        <time>2022-06-24T11:42:19.866Z</time>
      </trkpt>
      <trkpt lat="48.62528" lon="-3.86443">
        <ele>38.1</ele>
        <time>2022-06-24T11:42:29.219Z</time>
      </trkpt>
      <trkpt lat="48.62528" lon="-3.86454">
        <ele>40.04</ele>
        <time>2022-06-24T11:42:38.781Z</time>
      </trkpt>
      <trkpt lat="48.62526" lon="-3.86465">
        <ele>40.1</ele>
        <time>2022-06-24T11:42:47.844Z</time>
      </trkpt>
      <trkpt lat="48.62524" lon="-3.86473">
        <ele>42.1</ele>
        <time>2022-06-24T11:42:57.803Z</time>
      </trkpt>
      <trkpt lat="48.62529" lon="-3.86483">
        <ele>45.08</ele>
        <time>2022-06-24T11:43:06.906Z</time>
      </trkpt>
      <trkpt lat="48.62537" lon="-3.86489">
        <ele>46.04</ele>
        <time>2022-06-24T11:43:16.545Z</time>
      </trkpt>
      <trkpt lat="48.62545" lon="-3.86494">
        <ele>57.01</ele>
        <time>2022-06-24T11:43:25.562Z</time>
      </trkpt>
      <trkpt lat="48.62553" lon="-3.86498">
        <ele>46.27</ele>
        <time>2022-06-24T11:43:34.922Z</time>
      </trkpt>
      <trkpt lat="48.62564" lon="-3.86502">
        <ele>56.75</ele>
        <time>2022-06-24T11:43:44.763Z</time>
      </trkpt>
      <trkpt lat="48.62574" lon="-3.86504">
        <ele>56</ele>
        <time>2022-06-24T11:43:54.643Z</time>
      </trkpt>
      <trkpt lat="48.62583" lon="-3.8651">
        <ele>56</ele>
        <time>2022-06-24T11:44:03.782Z</time>
      </trkpt>
      <trkpt lat="48.62593" lon="-3.86516">
        <ele>55.5</ele>
        <time>2022-06-24T11:44:12.922Z</time>
      </trkpt>
      <trkpt lat="48.62602" lon="-3.86519">
        <ele>55.5</ele>
        <time>2022-06-24T11:44:21.924Z</time>
      </trkpt>
      <trkpt lat="48.62612" lon="-3.86521">
        <ele>55.5</ele>
        <time>2022-06-24T11:44:31.422Z</time>
      </trkpt>
      <trkpt lat="48.62623" lon="-3.86523">
        <ele>55.5</ele>
        <time>2022-06-24T11:44:40.863Z</time>
      </trkpt>
      <trkpt lat="48.62634" lon="-3.86527">
        <ele>55.2</ele>
        <time>2022-06-24T11:44:50.363Z</time>
      </trkpt>
      <trkpt lat="48.62646" lon="-3.86529">
        <ele>55.2</ele>
        <time>2022-06-24T11:44:59.780Z</time>
      </trkpt>
      <trkpt lat="48.62654" lon="-3.86534">
        <ele>55.2</ele>
        <time>2022-06-24T11:45:08.801Z</time>
      </trkpt>
      <trkpt lat="48.62655" lon="-3.86535">
        <ele>55.2</ele>
        <time>2022-06-24T11:45:19.826Z</time>
      </trkpt>
      <trkpt lat="48.62663" lon="-3.86537">
        <ele>57.6</ele>
        <time>2022-06-24T11:45:29.455Z</time>
      </trkpt>
      <trkpt lat="48.62671" lon="-3.86541">
        <ele>58.4</ele>
        <time>2022-06-24T11:45:38.620Z</time>
      </trkpt>
      <trkpt lat="48.62675" lon="-3.86546">
        <ele>48.26</ele>
        <time>2022-06-24T11:45:47.648Z</time>
      </trkpt>
      <trkpt lat="48.62686" lon="-3.86552">
        <ele>49.1</ele>
        <time>2022-06-24T11:45:57.846Z</time>
      </trkpt>
      <trkpt lat="48.62696" lon="-3.86558">
        <ele>50.12</ele>
        <time>2022-06-24T11:46:07.327Z</time>
      </trkpt>
      <trkpt lat="48.62707" lon="-3.86562">
        <ele>51.1</ele>
        <time>2022-06-24T11:46:16.964Z</time>
      </trkpt>
      <trkpt lat="48.62718" lon="-3.86568">
        <ele>50.1</ele>
        <time>2022-06-24T11:46:26.462Z</time>
      </trkpt>
      <trkpt lat="48.62729" lon="-3.86577">
        <ele>50.1</ele>
        <time>2022-06-24T11:46:36.502Z</time>
      </trkpt>
      <trkpt lat="48.62739" lon="-3.86584">
        <ele>50.1</ele>
        <time>2022-06-24T11:46:45.940Z</time>
      </trkpt>
      <trkpt lat="48.62749" lon="-3.86587">
        <ele>55.2</ele>
        <time>2022-06-24T11:46:55.362Z</time>
      </trkpt>
      <trkpt lat="48.62759" lon="-3.86591">
        <ele>57.3</ele>
        <time>2022-06-24T11:47:04.819Z</time>
      </trkpt>
      <trkpt lat="48.62769" lon="-3.86597">
        <ele>56.2</ele>
        <time>2022-06-24T11:47:14.660Z</time>
      </trkpt>
      <trkpt lat="48.62779" lon="-3.86604">
        <ele>56.9</ele>
        <time>2022-06-24T11:47:24.180Z</time>
      </trkpt>
      <trkpt lat="48.62789" lon="-3.8661">
        <ele>57.3</ele>
        <time>2022-06-24T11:47:33.684Z</time>
      </trkpt>
      <trkpt lat="48.62798" lon="-3.86616">
        <ele>57.3</ele>
        <time>2022-06-24T11:47:42.765Z</time>
      </trkpt>
      <trkpt lat="48.62807" lon="-3.86619">
        <ele>57.3</ele>
        <time>2022-06-24T11:47:51.864Z</time>
      </trkpt>
      <trkpt lat="48.62818" lon="-3.86626">
        <ele>53.93</ele>
        <time>2022-06-24T11:48:01.941Z</time>
      </trkpt>
      <trkpt lat="48.62824" lon="-3.86636">
        <ele>53.7</ele>
        <time>2022-06-24T11:48:11.384Z</time>
      </trkpt>
      <trkpt lat="48.62826" lon="-3.86649">
        <ele>53.7</ele>
        <time>2022-06-24T11:48:20.624Z</time>
      </trkpt>
      <trkpt lat="48.62825" lon="-3.86652">
        <ele>53.7</ele>
        <time>2022-06-24T11:48:30.721Z</time>
      </trkpt>
      <trkpt lat="48.62816" lon="-3.86655">
        <ele>54.1</ele>
        <time>2022-06-24T11:48:40.619Z</time>
      </trkpt>
      <trkpt lat="48.62811" lon="-3.86667">
        <ele>54.1</ele>
        <time>2022-06-24T11:48:50.642Z</time>
      </trkpt>
      <trkpt lat="48.62805" lon="-3.86678">
        <ele>54.1</ele>
        <time>2022-06-24T11:49:00.544Z</time>
      </trkpt>
      <trkpt lat="48.62801" lon="-3.86689">
        <ele>59</ele>
        <time>2022-06-24T11:49:10.623Z</time>
      </trkpt>
      <trkpt lat="48.62796" lon="-3.86698">
        <ele>59.1</ele>
        <time>2022-06-24T11:49:19.880Z</time>
      </trkpt>
      <trkpt lat="48.62789" lon="-3.86705">
        <ele>59.1</ele>
        <time>2022-06-24T11:49:29.805Z</time>
      </trkpt>
      <trkpt lat="48.62783" lon="-3.86713">
        <ele>59.1</ele>
        <time>2022-06-24T11:49:39.763Z</time>
      </trkpt>
      <trkpt lat="48.6278" lon="-3.86718">
        <ele>59.8</ele>
        <time>2022-06-24T11:49:49.864Z</time>
      </trkpt>
      <trkpt lat="48.62776" lon="-3.86727">
        <ele>59.8</ele>
        <time>2022-06-24T11:49:59.224Z</time>
      </trkpt>
      <trkpt lat="48.62771" lon="-3.86733">
        <ele>59.8</ele>
        <time>2022-06-24T11:50:08.799Z</time>
      </trkpt>
      <trkpt lat="48.62763" lon="-3.86739">
        <ele>59.8</ele>
        <time>2022-06-24T11:50:17.984Z</time>
      </trkpt>
      <trkpt lat="48.62754" lon="-3.86748">
        <ele>51.77</ele>
        <time>2022-06-24T11:50:27.724Z</time>
      </trkpt>
      <trkpt lat="48.6275" lon="-3.86756">
        <ele>48.1</ele>
        <time>2022-06-24T11:50:37.246Z</time>
      </trkpt>
      <trkpt lat="48.62746" lon="-3.86766">
        <ele>48.1</ele>
        <time>2022-06-24T11:50:46.660Z</time>
      </trkpt>
      <trkpt lat="48.62741" lon="-3.86775">
        <ele>67</ele>
        <time>2022-06-24T11:50:55.942Z</time>
      </trkpt>
      <trkpt lat="48.62738" lon="-3.86785">
        <ele>67</ele>
        <time>2022-06-24T11:51:05.606Z</time>
      </trkpt>
      <trkpt lat="48.62734" lon="-3.86799">
        <ele>67</ele>
        <time>2022-06-24T11:51:15.722Z</time>
      </trkpt>
      <trkpt lat="48.62728" lon="-3.86812">
        <ele>67</ele>
        <time>2022-06-24T11:51:25.681Z</time>
      </trkpt>
      <trkpt lat="48.6272" lon="-3.86825">
        <ele>67</ele>
        <time>2022-06-24T11:51:36.924Z</time>
      </trkpt>
      <trkpt lat="48.62716" lon="-3.86833">
        <ele>67</ele>
        <time>2022-06-24T11:51:46.322Z</time>
      </trkpt>
      <trkpt lat="48.62712" lon="-3.86843">
        <ele>70.89</ele>
        <time>2022-06-24T11:51:55.704Z</time>
      </trkpt>
      <trkpt lat="48.62709" lon="-3.86854">
        <ele>67</ele>
        <time>2022-06-24T11:52:05.679Z</time>
      </trkpt>
      <trkpt lat="48.62706" lon="-3.86869">
        <ele>67</ele>
        <time>2022-06-24T11:52:14.982Z</time>
      </trkpt>
      <trkpt lat="48.62704" lon="-3.86884">
        <ele>67</ele>
        <time>2022-06-24T11:52:24.327Z</time>
      </trkpt>
      <trkpt lat="48.62703" lon="-3.86896">
        <ele>67</ele>
        <time>2022-06-24T11:52:33.663Z</time>
      </trkpt>
      <trkpt lat="48.62699" lon="-3.8691">
        <ele>67</ele>
        <time>2022-06-24T11:52:43.805Z</time>
      </trkpt>
      <trkpt lat="48.62698" lon="-3.86922">
        <ele>67</ele>
        <time>2022-06-24T11:52:53.900Z</time>
      </trkpt>
      <trkpt lat="48.62699" lon="-3.86937">
        <ele>67</ele>
        <time>2022-06-24T11:53:03.819Z</time>
      </trkpt>
      <trkpt lat="48.62698" lon="-3.86949">
        <ele>67</ele>
        <time>2022-06-24T11:53:13.644Z</time>
      </trkpt>
      <trkpt lat="48.62695" lon="-3.86963">
        <ele>67</ele>
        <time>2022-06-24T11:53:22.845Z</time>
      </trkpt>
      <trkpt lat="48.62692" lon="-3.86977">
        <ele>67</ele>
        <time>2022-06-24T11:53:32.621Z</time>
      </trkpt>
      <trkpt lat="48.62688" lon="-3.8699">
        <ele>75.09</ele>
        <time>2022-06-24T11:53:41.781Z</time>
      </trkpt>
      <trkpt lat="48.62686" lon="-3.87001">
        <ele>75.1</ele>
        <time>2022-06-24T11:53:51.625Z</time>
      </trkpt>
      <trkpt lat="48.62682" lon="-3.87018">
        <ele>64.1</ele>
        <time>2022-06-24T11:54:00.683Z</time>
      </trkpt>
      <trkpt lat="48.62677" lon="-3.87031">
        <ele>66.1</ele>
        <time>2022-06-24T11:54:09.740Z</time>
      </trkpt>
      <trkpt lat="48.62673" lon="-3.87043">
        <ele>67.1</ele>
        <time>2022-06-24T11:54:20.459Z</time>
      </trkpt>
      <trkpt lat="48.6267" lon="-3.87051">
        <ele>79.8</ele>
        <time>2022-06-24T11:54:29.821Z</time>
      </trkpt>
      <trkpt lat="48.62662" lon="-3.87065">
        <ele>79.8</ele>
        <time>2022-06-24T11:54:39.542Z</time>
      </trkpt>
      <trkpt lat="48.62657" lon="-3.87079">
        <ele>79.8</ele>
        <time>2022-06-24T11:54:48.663Z</time>
      </trkpt>
      <trkpt lat="48.62651" lon="-3.87093">
        <ele>79.8</ele>
        <time>2022-06-24T11:54:58.583Z</time>
      </trkpt>
      <trkpt lat="48.62641" lon="-3.871">
        <ele>79.8</ele>
        <time>2022-06-24T11:55:07.725Z</time>
      </trkpt>
      <trkpt lat="48.62631" lon="-3.87103">
        <ele>80.2</ele>
        <time>2022-06-24T11:55:17.542Z</time>
      </trkpt>
      <trkpt lat="48.62623" lon="-3.87106">
        <ele>79.9</ele>
        <time>2022-06-24T11:55:26.742Z</time>
      </trkpt>
      <trkpt lat="48.62613" lon="-3.8711">
        <ele>80.2</ele>
        <time>2022-06-24T11:55:36.765Z</time>
      </trkpt>
      <trkpt lat="48.62609" lon="-3.87115">
        <ele>79.9</ele>
        <time>2022-06-24T11:55:46.000Z</time>
      </trkpt>
      <trkpt lat="48.62606" lon="-3.87115">
        <ele>79.9</ele>
        <time>2022-06-24T11:55:56.000Z</time>
      </trkpt>
      <trkpt lat="48.626" lon="-3.87114">
        <ele>79.94</ele>
        <time>2022-06-24T11:56:05.280Z</time>
      </trkpt>
      <trkpt lat="48.62588" lon="-3.87111">
        <ele>76.08</ele>
        <time>2022-06-24T11:56:14.481Z</time>
      </trkpt>
      <trkpt lat="48.62579" lon="-3.87109">
        <ele>80.2</ele>
        <time>2022-06-24T11:56:23.561Z</time>
      </trkpt>
      <trkpt lat="48.62571" lon="-3.87108">
        <ele>80.2</ele>
        <time>2022-06-24T11:56:32.943Z</time>
      </trkpt>
      <trkpt lat="48.6256" lon="-3.87108">
        <ele>76.1</ele>
        <time>2022-06-24T11:56:42.565Z</time>
      </trkpt>
      <trkpt lat="48.62551" lon="-3.87109">
        <ele>77.05</ele>
        <time>2022-06-24T11:56:51.662Z</time>
      </trkpt>
      <trkpt lat="48.62542" lon="-3.87108">
        <ele>77.11</ele>
        <time>2022-06-24T11:57:01.667Z</time>
      </trkpt>
      <trkpt lat="48.62532" lon="-3.87106">
        <ele>77.12</ele>
        <time>2022-06-24T11:57:11.600Z</time>
      </trkpt>
      <trkpt lat="48.62521" lon="-3.87105">
        <ele>80.9</ele>
        <time>2022-06-24T11:57:20.901Z</time>
      </trkpt>
      <trkpt lat="48.62511" lon="-3.87106">
        <ele>79.4</ele>
        <time>2022-06-24T11:57:30.659Z</time>
      </trkpt>
      <trkpt lat="48.62507" lon="-3.87118">
        <ele>78.9</ele>
        <time>2022-06-24T11:57:39.944Z</time>
      </trkpt>
      <trkpt lat="48.62509" lon="-3.87136">
        <ele>78.9</ele>
        <time>2022-06-24T11:57:50.802Z</time>
      </trkpt>
      <trkpt lat="48.6251" lon="-3.87148">
        <ele>78.9</ele>
        <time>2022-06-24T11:58:00.825Z</time>
      </trkpt>
      <trkpt lat="48.6251" lon="-3.87163">
        <ele>78.9</ele>
        <time>2022-06-24T11:58:10.642Z</time>
      </trkpt>
      <trkpt lat="48.6251" lon="-3.87178">
        <ele>78.9</ele>
        <time>2022-06-24T11:58:19.959Z</time>
      </trkpt>
      <trkpt lat="48.6251" lon="-3.87196">
        <ele>78.9</ele>
        <time>2022-06-24T11:58:29.704Z</time>
      </trkpt>
      <trkpt lat="48.62511" lon="-3.87214">
        <ele>80.1</ele>
        <time>2022-06-24T11:58:39.426Z</time>
      </trkpt>
      <trkpt lat="48.62512" lon="-3.8723">
        <ele>80.1</ele>
        <time>2022-06-24T11:58:48.665Z</time>
      </trkpt>
      <trkpt lat="48.62514" lon="-3.87244">
        <ele>82.4</ele>
        <time>2022-06-24T11:58:57.779Z</time>
      </trkpt>
      <trkpt lat="48.6252" lon="-3.87258">
        <ele>82.4</ele>
        <time>2022-06-24T11:59:07.561Z</time>
      </trkpt>
      <trkpt lat="48.62524" lon="-3.87273">
        <ele>82.4</ele>
        <time>2022-06-24T11:59:18.446Z</time>
      </trkpt>
      <trkpt lat="48.62527" lon="-3.87291">
        <ele>82.4</ele>
        <time>2022-06-24T11:59:27.478Z</time>
      </trkpt>
      <trkpt lat="48.62533" lon="-3.87306">
        <ele>82.4</ele>
        <time>2022-06-24T11:59:36.800Z</time>
      </trkpt>
      <trkpt lat="48.62538" lon="-3.8732">
        <ele>82.4</ele>
        <time>2022-06-24T11:59:45.919Z</time>
      </trkpt>
      <trkpt lat="48.62543" lon="-3.87333">
        <ele>82.4</ele>
        <time>2022-06-24T11:59:55.647Z</time>
      </trkpt>
      <trkpt lat="48.62548" lon="-3.87344">
        <ele>82.4</ele>
        <time>2022-06-24T12:00:04.764Z</time>
      </trkpt>
      <trkpt lat="48.62553" lon="-3.87357">
        <ele>82.4</ele>
        <time>2022-06-24T12:00:14.084Z</time>
      </trkpt>
      <trkpt lat="48.62554" lon="-3.87348">
        <ele>82.4</ele>
        <time>2022-06-24T12:00:23.426Z</time>
      </trkpt>
      <trkpt lat="48.62567" lon="-3.87363">
        <ele>68.09</ele>
        <time>2022-06-24T12:00:32.801Z</time>
      </trkpt>
      <trkpt lat="48.62581" lon="-3.87383">
        <ele>71.08</ele>
        <time>2022-06-24T12:00:41.819Z</time>
      </trkpt>
      <trkpt lat="48.6259" lon="-3.87395">
        <ele>72.03</ele>
        <time>2022-06-24T12:00:51.722Z</time>
      </trkpt>
      <trkpt lat="48.62597" lon="-3.87403">
        <ele>73.85</ele>
        <time>2022-06-24T12:01:00.861Z</time>
      </trkpt>
      <trkpt lat="48.62608" lon="-3.87411">
        <ele>75.1</ele>
        <time>2022-06-24T12:01:10.620Z</time>
      </trkpt>
      <trkpt lat="48.62619" lon="-3.87419">
        <ele>76.1</ele>
        <time>2022-06-24T12:01:20.780Z</time>
      </trkpt>
      <trkpt lat="48.62624" lon="-3.87424">
        <ele>76.1</ele>
        <time>2022-06-24T12:01:30.642Z</time>
      </trkpt>
      <trkpt lat="48.62632" lon="-3.87435">
        <ele>75.1</ele>
        <time>2022-06-24T12:01:39.802Z</time>
      </trkpt>
      <trkpt lat="48.6264" lon="-3.87443">
        <ele>77.03</ele>
        <time>2022-06-24T12:01:48.961Z</time>
      </trkpt>
      <trkpt lat="48.62646" lon="-3.87452">
        <ele>76.1</ele>
        <time>2022-06-24T12:01:58.083Z</time>
      </trkpt>
      <trkpt lat="48.62655" lon="-3.87465">
        <ele>75.11</ele>
        <time>2022-06-24T12:02:07.723Z</time>
      </trkpt>
      <trkpt lat="48.62663" lon="-3.87474">
        <ele>76.1</ele>
        <time>2022-06-24T12:02:16.885Z</time>
      </trkpt>
      <trkpt lat="48.62672" lon="-3.87485">
        <ele>77.1</ele>
        <time>2022-06-24T12:02:26.399Z</time>
      </trkpt>
      <trkpt lat="48.62679" lon="-3.87499">
        <ele>77.1</ele>
        <time>2022-06-24T12:02:35.504Z</time>
      </trkpt>
      <trkpt lat="48.62685" lon="-3.87512">
        <ele>77.1</ele>
        <time>2022-06-24T12:02:45.566Z</time>
      </trkpt>
      <trkpt lat="48.6269" lon="-3.8752">
        <ele>76.1</ele>
        <time>2022-06-24T12:02:54.701Z</time>
      </trkpt>
      <trkpt lat="48.62699" lon="-3.87525">
        <ele>76.1</ele>
        <time>2022-06-24T12:03:03.883Z</time>
      </trkpt>
      <trkpt lat="48.6271" lon="-3.87526">
        <ele>76.1</ele>
        <time>2022-06-24T12:03:12.947Z</time>
      </trkpt>
      <trkpt lat="48.62722" lon="-3.87531">
        <ele>76.1</ele>
        <time>2022-06-24T12:03:22.605Z</time>
      </trkpt>
      <trkpt lat="48.62732" lon="-3.87541">
        <ele>76.1</ele>
        <time>2022-06-24T12:03:32.722Z</time>
      </trkpt>
      <trkpt lat="48.62742" lon="-3.87547">
        <ele>76.1</ele>
        <time>2022-06-24T12:03:41.778Z</time>
      </trkpt>
      <trkpt lat="48.62754" lon="-3.87554">
        <ele>76.1</ele>
        <time>2022-06-24T12:03:51.483Z</time>
      </trkpt>
      <trkpt lat="48.62764" lon="-3.87559">
        <ele>77.16</ele>
        <time>2022-06-24T12:04:00.761Z</time>
      </trkpt>
      <trkpt lat="48.62774" lon="-3.87562">
        <ele>77.1</ele>
        <time>2022-06-24T12:04:10.202Z</time>
      </trkpt>
      <trkpt lat="48.62783" lon="-3.87566">
        <ele>77.1</ele>
        <time>2022-06-24T12:04:19.426Z</time>
      </trkpt>
      <trkpt lat="48.62791" lon="-3.87571">
        <ele>77.11</ele>
        <time>2022-06-24T12:04:28.600Z</time>
      </trkpt>
      <trkpt lat="48.62802" lon="-3.87578">
        <ele>76.1</ele>
        <time>2022-06-24T12:04:38.420Z</time>
      </trkpt>
      <trkpt lat="48.6281" lon="-3.87581">
        <ele>78.08</ele>
        <time>2022-06-24T12:04:47.742Z</time>
      </trkpt>
      <trkpt lat="48.62816" lon="-3.87582">
        <ele>76.1</ele>
        <time>2022-06-24T12:04:57.241Z</time>
      </trkpt>
      <trkpt lat="48.62827" lon="-3.87585">
        <ele>76.1</ele>
        <time>2022-06-24T12:05:06.460Z</time>
      </trkpt>
      <trkpt lat="48.62837" lon="-3.87589">
        <ele>75.1</ele>
        <time>2022-06-24T12:05:15.884Z</time>
      </trkpt>
      <trkpt lat="48.62845" lon="-3.87592">
        <ele>75.1</ele>
        <time>2022-06-24T12:05:25.143Z</time>
      </trkpt>
      <trkpt lat="48.62857" lon="-3.87596">
        <ele>75.85</ele>
        <time>2022-06-24T12:05:34.544Z</time>
      </trkpt>
      <trkpt lat="48.62869" lon="-3.87602">
        <ele>76.1</ele>
        <time>2022-06-24T12:05:43.764Z</time>
      </trkpt>
      <trkpt lat="48.62879" lon="-3.87605">
        <ele>75.16</ele>
        <time>2022-06-24T12:05:53.565Z</time>
      </trkpt>
      <trkpt lat="48.62886" lon="-3.87609">
        <ele>76.03</ele>
        <time>2022-06-24T12:06:02.743Z</time>
      </trkpt>
      <trkpt lat="48.62896" lon="-3.87612">
        <ele>76.1</ele>
        <time>2022-06-24T12:06:11.879Z</time>
      </trkpt>
      <trkpt lat="48.62905" lon="-3.87615">
        <ele>76.1</ele>
        <time>2022-06-24T12:06:22.538Z</time>
      </trkpt>
      <trkpt lat="48.62914" lon="-3.87617">
        <ele>75.1</ele>
        <time>2022-06-24T12:06:32.778Z</time>
      </trkpt>
      <trkpt lat="48.62925" lon="-3.87615">
        <ele>76.4</ele>
        <time>2022-06-24T12:06:42.762Z</time>
      </trkpt>
      <trkpt lat="48.62939" lon="-3.87613">
        <ele>76.4</ele>
        <time>2022-06-24T12:06:51.907Z</time>
      </trkpt>
      <trkpt lat="48.62952" lon="-3.87607">
        <ele>76.4</ele>
        <time>2022-06-24T12:07:01.491Z</time>
      </trkpt>
      <trkpt lat="48.62962" lon="-3.87597">
        <ele>73.1</ele>
        <time>2022-06-24T12:07:10.565Z</time>
      </trkpt>
      <trkpt lat="48.62971" lon="-3.87584">
        <ele>73.35</ele>
        <time>2022-06-24T12:07:19.763Z</time>
      </trkpt>
      <trkpt lat="48.62981" lon="-3.87572">
        <ele>74.11</ele>
        <time>2022-06-24T12:07:28.780Z</time>
      </trkpt>
      <trkpt lat="48.62989" lon="-3.8756">
        <ele>73.1</ele>
        <time>2022-06-24T12:07:37.802Z</time>
      </trkpt>
      <trkpt lat="48.62998" lon="-3.87546">
        <ele>73.1</ele>
        <time>2022-06-24T12:07:47.424Z</time>
      </trkpt>
      <trkpt lat="48.63005" lon="-3.87534">
        <ele>75.1</ele>
        <time>2022-06-24T12:07:56.840Z</time>
      </trkpt>
      <trkpt lat="48.63012" lon="-3.87523">
        <ele>74.1</ele>
        <time>2022-06-24T12:08:05.862Z</time>
      </trkpt>
      <trkpt lat="48.6302" lon="-3.8751">
        <ele>74.1</ele>
        <time>2022-06-24T12:08:16.969Z</time>
      </trkpt>
      <trkpt lat="48.6303" lon="-3.875">
        <ele>75.1</ele>
        <time>2022-06-24T12:08:26.580Z</time>
      </trkpt>
      <trkpt lat="48.6304" lon="-3.87494">
        <ele>73.11</ele>
        <time>2022-06-24T12:08:35.682Z</time>
      </trkpt>
      <trkpt lat="48.6305" lon="-3.87491">
        <ele>72.1</ele>
        <time>2022-06-24T12:08:45.142Z</time>
      </trkpt>
      <trkpt lat="48.6306" lon="-3.87492">
        <ele>73.04</ele>
        <time>2022-06-24T12:08:54.765Z</time>
      </trkpt>
      <trkpt lat="48.6307" lon="-3.87492">
        <ele>73.1</ele>
        <time>2022-06-24T12:09:03.899Z</time>
      </trkpt>
      <trkpt lat="48.63082" lon="-3.87487">
        <ele>70.16</ele>
        <time>2022-06-24T12:09:13.625Z</time>
      </trkpt>
      <trkpt lat="48.63094" lon="-3.87484">
        <ele>50.6</ele>
        <time>2022-06-24T12:09:22.722Z</time>
      </trkpt>
      <trkpt lat="48.63104" lon="-3.87479">
        <ele>50.6</ele>
        <time>2022-06-24T12:09:31.882Z</time>
      </trkpt>
      <trkpt lat="48.63116" lon="-3.87477">
        <ele>50.6</ele>
        <time>2022-06-24T12:09:41.664Z</time>
      </trkpt>
      <trkpt lat="48.63126" lon="-3.87477">
        <ele>67.8</ele>
        <time>2022-06-24T12:09:50.760Z</time>
      </trkpt>
      <trkpt lat="48.63139" lon="-3.87476">
        <ele>67.8</ele>
        <time>2022-06-24T12:10:00.579Z</time>
      </trkpt>
      <trkpt lat="48.63147" lon="-3.87486">
        <ele>67.8</ele>
        <time>2022-06-24T12:10:09.766Z</time>
      </trkpt>
      <trkpt lat="48.63152" lon="-3.87501">
        <ele>67.8</ele>
        <time>2022-06-24T12:10:19.480Z</time>
      </trkpt>
      <trkpt lat="48.63157" lon="-3.87512">
        <ele>67.8</ele>
        <time>2022-06-24T12:10:28.959Z</time>
      </trkpt>
      <trkpt lat="48.63162" lon="-3.87514">
        <ele>67.8</ele>
        <time>2022-06-24T12:10:38.439Z</time>
      </trkpt>
      <trkpt lat="48.63163" lon="-3.87512">
        <ele>67.8</ele>
        <time>2022-06-24T12:10:48.000Z</time>
      </trkpt>
      <trkpt lat="48.63164" lon="-3.87512">
        <ele>67.8</ele>
        <time>2022-06-24T12:11:09.000Z</time>
      </trkpt>
      <trkpt lat="48.63168" lon="-3.8752">
        <ele>67.8</ele>
        <time>2022-06-24T12:11:18.400Z</time>
      </trkpt>
      <trkpt lat="48.63172" lon="-3.87533">
        <ele>66.1</ele>
        <time>2022-06-24T12:11:27.599Z</time>
      </trkpt>
      <trkpt lat="48.63173" lon="-3.87534">
        <ele>63.1</ele>
        <time>2022-06-24T12:11:37.000Z</time>
      </trkpt>
      <trkpt lat="48.63174" lon="-3.87536">
        <ele>63.1</ele>
        <time>2022-06-24T12:11:53.822Z</time>
      </trkpt>
      <trkpt lat="48.63179" lon="-3.87555">
        <ele>66.1</ele>
        <time>2022-06-24T12:12:03.598Z</time>
      </trkpt>
      <trkpt lat="48.63184" lon="-3.87576">
        <ele>67.16</ele>
        <time>2022-06-24T12:12:13.805Z</time>
      </trkpt>
      <trkpt lat="48.6319" lon="-3.87591">
        <ele>68.1</ele>
        <time>2022-06-24T12:12:22.886Z</time>
      </trkpt>
      <trkpt lat="48.63195" lon="-3.87606">
        <ele>69.1</ele>
        <time>2022-06-24T12:12:31.980Z</time>
      </trkpt>
      <trkpt lat="48.63197" lon="-3.87621">
        <ele>69.1</ele>
        <time>2022-06-24T12:12:42.221Z</time>
      </trkpt>
      <trkpt lat="48.63201" lon="-3.87636">
        <ele>71.8</ele>
        <time>2022-06-24T12:12:51.669Z</time>
      </trkpt>
      <trkpt lat="48.63208" lon="-3.87652">
        <ele>71.8</ele>
        <time>2022-06-24T12:13:01.564Z</time>
      </trkpt>
      <trkpt lat="48.63212" lon="-3.87664">
        <ele>71.8</ele>
        <time>2022-06-24T12:13:10.565Z</time>
      </trkpt>
      <trkpt lat="48.63215" lon="-3.87681">
        <ele>71.8</ele>
        <time>2022-06-24T12:13:19.963Z</time>
      </trkpt>
      <trkpt lat="48.6322" lon="-3.87695">
        <ele>71.8</ele>
        <time>2022-06-24T12:13:29.242Z</time>
      </trkpt>
      <trkpt lat="48.63227" lon="-3.87709">
        <ele>71.8</ele>
        <time>2022-06-24T12:13:38.682Z</time>
      </trkpt>
      <trkpt lat="48.63233" lon="-3.87723">
        <ele>71.14</ele>
        <time>2022-06-24T12:13:48.505Z</time>
      </trkpt>
      <trkpt lat="48.63238" lon="-3.8774">
        <ele>71.1</ele>
        <time>2022-06-24T12:13:57.760Z</time>
      </trkpt>
      <trkpt lat="48.63245" lon="-3.87757">
        <ele>71.11</ele>
        <time>2022-06-24T12:14:08.622Z</time>
      </trkpt>
      <trkpt lat="48.6325" lon="-3.87771">
        <ele>72.08</ele>
        <time>2022-06-24T12:14:17.926Z</time>
      </trkpt>
      <trkpt lat="48.63256" lon="-3.87784">
        <ele>72.1</ele>
        <time>2022-06-24T12:14:27.779Z</time>
      </trkpt>
      <trkpt lat="48.63262" lon="-3.878">
        <ele>72.1</ele>
        <time>2022-06-24T12:14:37.787Z</time>
      </trkpt>
      <trkpt lat="48.63268" lon="-3.87813">
        <ele>72.1</ele>
        <time>2022-06-24T12:14:46.924Z</time>
      </trkpt>
      <trkpt lat="48.63276" lon="-3.87826">
        <ele>71.16</ele>
        <time>2022-06-24T12:14:56.700Z</time>
      </trkpt>
      <trkpt lat="48.63282" lon="-3.87838">
        <ele>72.1</ele>
        <time>2022-06-24T12:15:05.925Z</time>
      </trkpt>
      <trkpt lat="48.63292" lon="-3.87848">
        <ele>72.11</ele>
        <time>2022-06-24T12:15:16.703Z</time>
      </trkpt>
      <trkpt lat="48.633" lon="-3.87857">
        <ele>71.1</ele>
        <time>2022-06-24T12:15:26.702Z</time>
      </trkpt>
      <trkpt lat="48.63312" lon="-3.87867">
        <ele>70.35</ele>
        <time>2022-06-24T12:15:36.804Z</time>
      </trkpt>
      <trkpt lat="48.6332" lon="-3.87881">
        <ele>68</ele>
        <time>2022-06-24T12:15:46.819Z</time>
      </trkpt>
      <trkpt lat="48.63327" lon="-3.87892">
        <ele>68.3</ele>
        <time>2022-06-24T12:15:56.047Z</time>
      </trkpt>
      <trkpt lat="48.63332" lon="-3.87905">
        <ele>69.85</ele>
        <time>2022-06-24T12:16:05.364Z</time>
      </trkpt>
      <trkpt lat="48.63338" lon="-3.8792">
        <ele>68.11</ele>
        <time>2022-06-24T12:16:15.000Z</time>
      </trkpt>
      <trkpt lat="48.63343" lon="-3.87932">
        <ele>69.1</ele>
        <time>2022-06-24T12:16:24.481Z</time>
      </trkpt>
      <trkpt lat="48.6335" lon="-3.87947">
        <ele>71.08</ele>
        <time>2022-06-24T12:16:34.505Z</time>
      </trkpt>
      <trkpt lat="48.63356" lon="-3.8796">
        <ele>72.1</ele>
        <time>2022-06-24T12:16:44.464Z</time>
      </trkpt>
      <trkpt lat="48.63366" lon="-3.87972">
        <ele>73.1</ele>
        <time>2022-06-24T12:16:53.981Z</time>
      </trkpt>
      <trkpt lat="48.63372" lon="-3.87987">
        <ele>73.1</ele>
        <time>2022-06-24T12:17:03.766Z</time>
      </trkpt>
      <trkpt lat="48.63378" lon="-3.88">
        <ele>74.04</ele>
        <time>2022-06-24T12:17:12.781Z</time>
      </trkpt>
      <trkpt lat="48.63384" lon="-3.88013">
        <ele>73.11</ele>
        <time>2022-06-24T12:17:22.700Z</time>
      </trkpt>
      <trkpt lat="48.63389" lon="-3.88028">
        <ele>72.1</ele>
        <time>2022-06-24T12:17:32.643Z</time>
      </trkpt>
      <trkpt lat="48.63389" lon="-3.88034">
        <ele>72.1</ele>
        <time>2022-06-24T12:17:42.000Z</time>
      </trkpt>
      <trkpt lat="48.6339" lon="-3.88035">
        <ele>70.51</ele>
        <time>2022-06-24T12:17:52.906Z</time>
      </trkpt>
      <trkpt lat="48.63396" lon="-3.88047">
        <ele>70.3</ele>
        <time>2022-06-24T12:18:02.403Z</time>
      </trkpt>
      <trkpt lat="48.63402" lon="-3.88063">
        <ele>70.1</ele>
        <time>2022-06-24T12:18:11.682Z</time>
      </trkpt>
      <trkpt lat="48.63407" lon="-3.88077">
        <ele>70.84</ele>
        <time>2022-06-24T12:18:21.765Z</time>
      </trkpt>
      <trkpt lat="48.63414" lon="-3.88091">
        <ele>73.08</ele>
        <time>2022-06-24T12:18:31.820Z</time>
      </trkpt>
      <trkpt lat="48.63418" lon="-3.881">
        <ele>73.1</ele>
        <time>2022-06-24T12:18:41.000Z</time>
      </trkpt>
      <trkpt lat="48.63419" lon="-3.88102">
        <ele>73.1</ele>
        <time>2022-06-24T12:18:58.602Z</time>
      </trkpt>
      <trkpt lat="48.63424" lon="-3.88115">
        <ele>71.1</ele>
        <time>2022-06-24T12:19:08.000Z</time>
      </trkpt>
      <trkpt lat="48.63425" lon="-3.88115">
        <ele>70.11</ele>
        <time>2022-06-24T12:19:25.324Z</time>
      </trkpt>
      <trkpt lat="48.63431" lon="-3.88133">
        <ele>70.1</ele>
        <time>2022-06-24T12:19:35.884Z</time>
      </trkpt>
      <trkpt lat="48.63435" lon="-3.88148">
        <ele>72.1</ele>
        <time>2022-06-24T12:19:45.219Z</time>
      </trkpt>
      <trkpt lat="48.63439" lon="-3.88161">
        <ele>71.05</ele>
        <time>2022-06-24T12:19:54.543Z</time>
      </trkpt>
      <trkpt lat="48.63444" lon="-3.88176">
        <ele>71.04</ele>
        <time>2022-06-24T12:20:03.799Z</time>
      </trkpt>
      <trkpt lat="48.63449" lon="-3.88192">
        <ele>71.04</ele>
        <time>2022-06-24T12:20:13.598Z</time>
      </trkpt>
      <trkpt lat="48.63451" lon="-3.88206">
        <ele>71.1</ele>
        <time>2022-06-24T12:20:22.608Z</time>
      </trkpt>
      <trkpt lat="48.63456" lon="-3.88219">
        <ele>71.1</ele>
        <time>2022-06-24T12:20:31.622Z</time>
      </trkpt>
      <trkpt lat="48.63463" lon="-3.88231">
        <ele>70.1</ele>
        <time>2022-06-24T12:20:41.262Z</time>
      </trkpt>
      <trkpt lat="48.63469" lon="-3.88244">
        <ele>69.1</ele>
        <time>2022-06-24T12:20:50.479Z</time>
      </trkpt>
      <trkpt lat="48.63473" lon="-3.8826">
        <ele>70.1</ele>
        <time>2022-06-24T12:20:59.862Z</time>
      </trkpt>
      <trkpt lat="48.63481" lon="-3.88279">
        <ele>72.1</ele>
        <time>2022-06-24T12:21:09.780Z</time>
      </trkpt>
      <trkpt lat="48.63488" lon="-3.8829">
        <ele>73.1</ele>
        <time>2022-06-24T12:21:19.622Z</time>
      </trkpt>
      <trkpt lat="48.63493" lon="-3.88307">
        <ele>73.1</ele>
        <time>2022-06-24T12:21:29.406Z</time>
      </trkpt>
      <trkpt lat="48.63496" lon="-3.88326">
        <ele>73.1</ele>
        <time>2022-06-24T12:21:39.721Z</time>
      </trkpt>
      <trkpt lat="48.63502" lon="-3.8834">
        <ele>72.1</ele>
        <time>2022-06-24T12:21:49.102Z</time>
      </trkpt>
      <trkpt lat="48.63507" lon="-3.88353">
        <ele>72.35</ele>
        <time>2022-06-24T12:21:58.406Z</time>
      </trkpt>
      <trkpt lat="48.63513" lon="-3.88369">
        <ele>73.1</ele>
        <time>2022-06-24T12:22:07.723Z</time>
      </trkpt>
      <trkpt lat="48.63521" lon="-3.88379">
        <ele>73.1</ele>
        <time>2022-06-24T12:22:17.125Z</time>
      </trkpt>
      <trkpt lat="48.63533" lon="-3.88385">
        <ele>73.1</ele>
        <time>2022-06-24T12:22:26.243Z</time>
      </trkpt>
      <trkpt lat="48.63539" lon="-3.88392">
        <ele>71.1</ele>
        <time>2022-06-24T12:22:35.842Z</time>
      </trkpt>
      <trkpt lat="48.6355" lon="-3.884">
        <ele>72.1</ele>
        <time>2022-06-24T12:22:45.422Z</time>
      </trkpt>
      <trkpt lat="48.6356" lon="-3.88407">
        <ele>72.1</ele>
        <time>2022-06-24T12:22:54.500Z</time>
      </trkpt>
      <trkpt lat="48.63569" lon="-3.88416">
        <ele>72.04</ele>
        <time>2022-06-24T12:23:03.702Z</time>
      </trkpt>
      <trkpt lat="48.6358" lon="-3.88422">
        <ele>71.1</ele>
        <time>2022-06-24T12:23:13.220Z</time>
      </trkpt>
      <trkpt lat="48.63589" lon="-3.8843">
        <ele>71.1</ele>
        <time>2022-06-24T12:23:22.484Z</time>
      </trkpt>
      <trkpt lat="48.63598" lon="-3.88439">
        <ele>70.35</ele>
        <time>2022-06-24T12:23:31.858Z</time>
      </trkpt>
      <trkpt lat="48.63601" lon="-3.8844">
        <ele>70.1</ele>
        <time>2022-06-24T12:23:41.378Z</time>
      </trkpt>
      <trkpt lat="48.63603" lon="-3.8844">
        <ele>70.1</ele>
        <time>2022-06-24T12:23:50.780Z</time>
      </trkpt>
      <trkpt lat="48.63604" lon="-3.88452">
        <ele>70.08</ele>
        <time>2022-06-24T12:24:00.181Z</time>
      </trkpt>
      <trkpt lat="48.63611" lon="-3.88462">
        <ele>70.1</ele>
        <time>2022-06-24T12:24:09.500Z</time>
      </trkpt>
      <trkpt lat="48.6362" lon="-3.88473">
        <ele>71.1</ele>
        <time>2022-06-24T12:24:18.765Z</time>
      </trkpt>
      <trkpt lat="48.6363" lon="-3.88486">
        <ele>71.1</ele>
        <time>2022-06-24T12:24:28.606Z</time>
      </trkpt>
      <trkpt lat="48.63638" lon="-3.885">
        <ele>71.1</ele>
        <time>2022-06-24T12:24:37.719Z</time>
      </trkpt>
      <trkpt lat="48.63644" lon="-3.88509">
        <ele>71.1</ele>
        <time>2022-06-24T12:24:47.063Z</time>
      </trkpt>
      <trkpt lat="48.63647" lon="-3.88518">
        <ele>71.1</ele>
        <time>2022-06-24T12:24:56.902Z</time>
      </trkpt>
      <trkpt lat="48.63653" lon="-3.88533">
        <ele>70.1</ele>
        <time>2022-06-24T12:25:06.681Z</time>
      </trkpt>
      <trkpt lat="48.63663" lon="-3.88541">
        <ele>70.1</ele>
        <time>2022-06-24T12:25:16.000Z</time>
      </trkpt>
      <trkpt lat="48.63665" lon="-3.88542">
        <ele>69.1</ele>
        <time>2022-06-24T12:25:26.000Z</time>
      </trkpt>
      <trkpt lat="48.63666" lon="-3.88541">
        <ele>69.1</ele>
        <time>2022-06-24T12:25:38.000Z</time>
      </trkpt>
      <trkpt lat="48.6367" lon="-3.8855">
        <ele>70.1</ele>
        <time>2022-06-24T12:25:47.722Z</time>
      </trkpt>
      <trkpt lat="48.63678" lon="-3.88558">
        <ele>70.85</ele>
        <time>2022-06-24T12:25:57.000Z</time>
      </trkpt>
      <trkpt lat="48.63682" lon="-3.88563">
        <ele>71.1</ele>
        <time>2022-06-24T12:26:06.278Z</time>
      </trkpt>
      <trkpt lat="48.6369" lon="-3.88573">
        <ele>71.1</ele>
        <time>2022-06-24T12:26:15.504Z</time>
      </trkpt>
      <trkpt lat="48.63698" lon="-3.88586">
        <ele>71.1</ele>
        <time>2022-06-24T12:26:25.601Z</time>
      </trkpt>
      <trkpt lat="48.63707" lon="-3.88599">
        <ele>71.1</ele>
        <time>2022-06-24T12:26:36.940Z</time>
      </trkpt>
      <trkpt lat="48.63708" lon="-3.886">
        <ele>71.1</ele>
        <time>2022-06-24T12:26:46.000Z</time>
      </trkpt>
      <trkpt lat="48.63709" lon="-3.88598">
        <ele>71.1</ele>
        <time>2022-06-24T12:26:56.000Z</time>
      </trkpt>
      <trkpt lat="48.63711" lon="-3.88601">
        <ele>49.4</ele>
        <time>2022-06-24T12:27:07.683Z</time>
      </trkpt>
      <trkpt lat="48.63721" lon="-3.8861">
        <ele>49.4</ele>
        <time>2022-06-24T12:27:16.940Z</time>
      </trkpt>
      <trkpt lat="48.63727" lon="-3.88618">
        <ele>49.4</ele>
        <time>2022-06-24T12:27:26.529Z</time>
      </trkpt>
      <trkpt lat="48.63733" lon="-3.88628">
        <ele>49.4</ele>
        <time>2022-06-24T12:27:35.664Z</time>
      </trkpt>
      <trkpt lat="48.63738" lon="-3.88639">
        <ele>49.4</ele>
        <time>2022-06-24T12:27:44.980Z</time>
      </trkpt>
      <trkpt lat="48.63746" lon="-3.88649">
        <ele>49.4</ele>
        <time>2022-06-24T12:27:54.646Z</time>
      </trkpt>
      <trkpt lat="48.63754" lon="-3.88657">
        <ele>49.4</ele>
        <time>2022-06-24T12:28:03.722Z</time>
      </trkpt>
      <trkpt lat="48.63761" lon="-3.88667">
        <ele>49.4</ele>
        <time>2022-06-24T12:28:12.860Z</time>
      </trkpt>
      <trkpt lat="48.63772" lon="-3.88676">
        <ele>49.4</ele>
        <time>2022-06-24T12:28:22.699Z</time>
      </trkpt>
      <trkpt lat="48.6378" lon="-3.88684">
        <ele>66.8</ele>
        <time>2022-06-24T12:28:31.781Z</time>
      </trkpt>
      <trkpt lat="48.63791" lon="-3.88691">
        <ele>66.1</ele>
        <time>2022-06-24T12:28:41.341Z</time>
      </trkpt>
      <trkpt lat="48.638" lon="-3.88695">
        <ele>66.1</ele>
        <time>2022-06-24T12:28:50.743Z</time>
      </trkpt>
      <trkpt lat="48.63809" lon="-3.88702">
        <ele>64.16</ele>
        <time>2022-06-24T12:29:00.321Z</time>
      </trkpt>
      <trkpt lat="48.63819" lon="-3.88708">
        <ele>63.85</ele>
        <time>2022-06-24T12:29:09.341Z</time>
      </trkpt>
      <trkpt lat="48.63822" lon="-3.88708">
        <ele>64.1</ele>
        <time>2022-06-24T12:29:18.921Z</time>
      </trkpt>
      <trkpt lat="48.6383" lon="-3.88711">
        <ele>64.1</ele>
        <time>2022-06-24T12:29:28.600Z</time>
      </trkpt>
      <trkpt lat="48.63837" lon="-3.88716">
        <ele>63.1</ele>
        <time>2022-06-24T12:29:37.777Z</time>
      </trkpt>
      <trkpt lat="48.63841" lon="-3.88722">
        <ele>61.1</ele>
        <time>2022-06-24T12:29:47.660Z</time>
      </trkpt>
      <trkpt lat="48.63849" lon="-3.8873">
        <ele>60.37</ele>
        <time>2022-06-24T12:29:56.726Z</time>
      </trkpt>
      <trkpt lat="48.63859" lon="-3.88736">
        <ele>60.1</ele>
        <time>2022-06-24T12:30:05.919Z</time>
      </trkpt>
      <trkpt lat="48.63863" lon="-3.88737">
        <ele>60.1</ele>
        <time>2022-06-24T12:30:15.521Z</time>
      </trkpt>
      <trkpt lat="48.63871" lon="-3.88744">
        <ele>60.04</ele>
        <time>2022-06-24T12:30:25.602Z</time>
      </trkpt>
      <trkpt lat="48.63876" lon="-3.8875">
        <ele>58.1</ele>
        <time>2022-06-24T12:30:35.745Z</time>
      </trkpt>
      <trkpt lat="48.63883" lon="-3.88757">
        <ele>57.1</ele>
        <time>2022-06-24T12:30:45.259Z</time>
      </trkpt>
      <trkpt lat="48.63891" lon="-3.88763">
        <ele>56.08</ele>
        <time>2022-06-24T12:30:54.381Z</time>
      </trkpt>
      <trkpt lat="48.63902" lon="-3.88771">
        <ele>55.1</ele>
        <time>2022-06-24T12:31:03.580Z</time>
      </trkpt>
      <trkpt lat="48.63913" lon="-3.88777">
        <ele>52.1</ele>
        <time>2022-06-24T12:31:12.969Z</time>
      </trkpt>
      <trkpt lat="48.63918" lon="-3.88787">
        <ele>50.1</ele>
        <time>2022-06-24T12:31:22.780Z</time>
      </trkpt>
      <trkpt lat="48.63925" lon="-3.88794">
        <ele>49.1</ele>
        <time>2022-06-24T12:31:31.967Z</time>
      </trkpt>
      <trkpt lat="48.63933" lon="-3.88805">
        <ele>47.1</ele>
        <time>2022-06-24T12:31:42.885Z</time>
      </trkpt>
      <trkpt lat="48.63938" lon="-3.88824">
        <ele>45.1</ele>
        <time>2022-06-24T12:31:53.746Z</time>
      </trkpt>
      <trkpt lat="48.63941" lon="-3.88841">
        <ele>42.1</ele>
        <time>2022-06-24T12:32:03.625Z</time>
      </trkpt>
      <trkpt lat="48.63946" lon="-3.88854">
        <ele>42.1</ele>
        <time>2022-06-24T12:32:12.884Z</time>
      </trkpt>
      <trkpt lat="48.6395" lon="-3.88869">
        <ele>40.16</ele>
        <time>2022-06-24T12:32:22.182Z</time>
      </trkpt>
      <trkpt lat="48.63954" lon="-3.88881">
        <ele>40.1</ele>
        <time>2022-06-24T12:32:31.382Z</time>
      </trkpt>
      <trkpt lat="48.6396" lon="-3.88892">
        <ele>40.1</ele>
        <time>2022-06-24T12:32:40.504Z</time>
      </trkpt>
      <trkpt lat="48.63967" lon="-3.889">
        <ele>39.1</ele>
        <time>2022-06-24T12:32:49.820Z</time>
      </trkpt>
      <trkpt lat="48.63977" lon="-3.88905">
        <ele>39.1</ele>
        <time>2022-06-24T12:32:59.664Z</time>
      </trkpt>
      <trkpt lat="48.63986" lon="-3.88908">
        <ele>38.16</ele>
        <time>2022-06-24T12:33:08.978Z</time>
      </trkpt>
      <trkpt lat="48.63994" lon="-3.88912">
        <ele>38.1</ele>
        <time>2022-06-24T12:33:18.283Z</time>
      </trkpt>
      <trkpt lat="48.64004" lon="-3.88914">
        <ele>36.1</ele>
        <time>2022-06-24T12:33:27.604Z</time>
      </trkpt>
      <trkpt lat="48.64013" lon="-3.88915">
        <ele>35.1</ele>
        <time>2022-06-24T12:33:36.900Z</time>
      </trkpt>
      <trkpt lat="48.64022" lon="-3.88921">
        <ele>34.1</ele>
        <time>2022-06-24T12:33:47.283Z</time>
      </trkpt>
      <trkpt lat="48.64028" lon="-3.88922">
        <ele>34.1</ele>
        <time>2022-06-24T12:33:56.526Z</time>
      </trkpt>
      <trkpt lat="48.64038" lon="-3.88924">
        <ele>32.1</ele>
        <time>2022-06-24T12:34:05.768Z</time>
      </trkpt>
      <trkpt lat="48.64044" lon="-3.8893">
        <ele>30.12</ele>
        <time>2022-06-24T12:34:14.980Z</time>
      </trkpt>
      <trkpt lat="48.64052" lon="-3.88933">
        <ele>29.1</ele>
        <time>2022-06-24T12:34:24.000Z</time>
      </trkpt>
      <trkpt lat="48.64051" lon="-3.88935">
        <ele>25.1</ele>
        <time>2022-06-24T12:34:34.000Z</time>
      </trkpt>
      <trkpt lat="48.64049" lon="-3.88935">
        <ele>23.1</ele>
        <time>2022-06-24T12:34:44.000Z</time>
      </trkpt>
      <trkpt lat="48.64048" lon="-3.88934">
        <ele>21.35</ele>
        <time>2022-06-24T12:35:31.000Z</time>
      </trkpt>
      <trkpt lat="48.6405" lon="-3.8894">
        <ele>20.1</ele>
        <time>2022-06-24T12:35:40.707Z</time>
      </trkpt>
      <trkpt lat="48.64065" lon="-3.88946">
        <ele>21.1</ele>
        <time>2022-06-24T12:35:50.701Z</time>
      </trkpt>
      <trkpt lat="48.64072" lon="-3.88953">
        <ele>22.04</ele>
        <time>2022-06-24T12:36:00.766Z</time>
      </trkpt>
      <trkpt lat="48.64077" lon="-3.88959">
        <ele>20.12</ele>
        <time>2022-06-24T12:36:10.898Z</time>
      </trkpt>
      <trkpt lat="48.6408" lon="-3.88977">
        <ele>20.1</ele>
        <time>2022-06-24T12:36:21.521Z</time>
      </trkpt>
      <trkpt lat="48.64086" lon="-3.8899">
        <ele>20.34</ele>
        <time>2022-06-24T12:36:31.603Z</time>
      </trkpt>
      <trkpt lat="48.64092" lon="-3.89005">
        <ele>20.1</ele>
        <time>2022-06-24T12:36:41.644Z</time>
      </trkpt>
      <trkpt lat="48.64096" lon="-3.89018">
        <ele>20.1</ele>
        <time>2022-06-24T12:36:50.725Z</time>
      </trkpt>
      <trkpt lat="48.64103" lon="-3.8903">
        <ele>20.1</ele>
        <time>2022-06-24T12:36:59.960Z</time>
      </trkpt>
      <trkpt lat="48.64109" lon="-3.89045">
        <ele>21.1</ele>
        <time>2022-06-24T12:37:09.764Z</time>
      </trkpt>
      <trkpt lat="48.64117" lon="-3.89057">
        <ele>22.1</ele>
        <time>2022-06-24T12:37:19.000Z</time>
      </trkpt>
      <trkpt lat="48.64124" lon="-3.89062">
        <ele>22.1</ele>
        <time>2022-06-24T12:37:28.641Z</time>
      </trkpt>
      <trkpt lat="48.6413" lon="-3.89069">
        <ele>22.1</ele>
        <time>2022-06-24T12:37:37.728Z</time>
      </trkpt>
      <trkpt lat="48.64138" lon="-3.89076">
        <ele>22.1</ele>
        <time>2022-06-24T12:37:46.742Z</time>
      </trkpt>
      <trkpt lat="48.64139" lon="-3.89079">
        <ele>22.1</ele>
        <time>2022-06-24T12:37:57.638Z</time>
      </trkpt>
      <trkpt lat="48.64144" lon="-3.89088">
        <ele>22.1</ele>
        <time>2022-06-24T12:38:06.763Z</time>
      </trkpt>
      <trkpt lat="48.6415" lon="-3.89104">
        <ele>19.35</ele>
        <time>2022-06-24T12:38:16.125Z</time>
      </trkpt>
      <trkpt lat="48.64158" lon="-3.89117">
        <ele>19.85</ele>
        <time>2022-06-24T12:38:26.502Z</time>
      </trkpt>
      <trkpt lat="48.64164" lon="-3.89129">
        <ele>18.16</ele>
        <time>2022-06-24T12:38:36.335Z</time>
      </trkpt>
      <trkpt lat="48.64167" lon="-3.89145">
        <ele>16.1</ele>
        <time>2022-06-24T12:38:45.682Z</time>
      </trkpt>
      <trkpt lat="48.64172" lon="-3.89159">
        <ele>16.1</ele>
        <time>2022-06-24T12:38:55.104Z</time>
      </trkpt>
      <trkpt lat="48.64178" lon="-3.89172">
        <ele>15.1</ele>
        <time>2022-06-24T12:39:04.523Z</time>
      </trkpt>
      <trkpt lat="48.64179" lon="-3.89188">
        <ele>9.38</ele>
        <time>2022-06-24T12:39:13.701Z</time>
      </trkpt>
      <trkpt lat="48.6418" lon="-3.89201">
        <ele>3.85</ele>
        <time>2022-06-24T12:39:23.720Z</time>
      </trkpt>
      <trkpt lat="48.64195" lon="-3.89208">
        <ele>6.1</ele>
        <time>2022-06-24T12:39:33.743Z</time>
      </trkpt>
      <trkpt lat="48.64203" lon="-3.89217">
        <ele>8.85</ele>
        <time>2022-06-24T12:39:43.722Z</time>
      </trkpt>
      <trkpt lat="48.64211" lon="-3.89226">
        <ele>9.1</ele>
        <time>2022-06-24T12:39:53.166Z</time>
      </trkpt>
      <trkpt lat="48.64221" lon="-3.89235">
        <ele>9.1</ele>
        <time>2022-06-24T12:40:02.482Z</time>
      </trkpt>
      <trkpt lat="48.64228" lon="-3.89243">
        <ele>8.1</ele>
        <time>2022-06-24T12:40:11.863Z</time>
      </trkpt>
      <trkpt lat="48.64236" lon="-3.8925">
        <ele>8.1</ele>
        <time>2022-06-24T12:40:21.241Z</time>
      </trkpt>
      <trkpt lat="48.64244" lon="-3.89257">
        <ele>7.1</ele>
        <time>2022-06-24T12:40:30.702Z</time>
      </trkpt>
      <trkpt lat="48.64253" lon="-3.89266">
        <ele>7.1</ele>
        <time>2022-06-24T12:40:40.599Z</time>
      </trkpt>
      <trkpt lat="48.6426" lon="-3.89277">
        <ele>3.12</ele>
        <time>2022-06-24T12:40:50.585Z</time>
      </trkpt>
      <trkpt lat="48.64267" lon="-3.89288">
        <ele>1.16</ele>
        <time>2022-06-24T12:40:59.826Z</time>
      </trkpt>
      <trkpt lat="48.64279" lon="-3.89293">
        <ele>3.1</ele>
        <time>2022-06-24T12:41:09.242Z</time>
      </trkpt>
      <trkpt lat="48.64287" lon="-3.89299">
        <ele>4.1</ele>
        <time>2022-06-24T12:41:18.819Z</time>
      </trkpt>
      <trkpt lat="48.64291" lon="-3.89302">
        <ele>4.15</ele>
        <time>2022-06-24T12:41:28.361Z</time>
      </trkpt>
      <trkpt lat="48.64289" lon="-3.89303">
        <ele>4.1</ele>
        <time>2022-06-24T12:41:37.739Z</time>
      </trkpt>
      <trkpt lat="48.64294" lon="-3.8931">
        <ele>0.11</ele>
        <time>2022-06-24T12:41:47.460Z</time>
      </trkpt>
      <trkpt lat="48.64306" lon="-3.89316">
        <ele>3.09</ele>
        <time>2022-06-24T12:41:56.942Z</time>
      </trkpt>
      <trkpt lat="48.64317" lon="-3.89321">
        <ele>5.04</ele>
        <time>2022-06-24T12:42:07.687Z</time>
      </trkpt>
      <trkpt lat="48.64324" lon="-3.89331">
        <ele>5.1</ele>
        <time>2022-06-24T12:42:16.782Z</time>
      </trkpt>
      <trkpt lat="48.64333" lon="-3.89338">
        <ele>5.1</ele>
        <time>2022-06-24T12:42:26.663Z</time>
      </trkpt>
      <trkpt lat="48.64339" lon="-3.89349">
        <ele>4.1</ele>
        <time>2022-06-24T12:42:36.599Z</time>
      </trkpt>
      <trkpt lat="48.64348" lon="-3.89359">
        <ele>5.1</ele>
        <time>2022-06-24T12:42:45.841Z</time>
      </trkpt>
      <trkpt lat="48.64356" lon="-3.89371">
        <ele>4.11</ele>
        <time>2022-06-24T12:42:55.581Z</time>
      </trkpt>
      <trkpt lat="48.64363" lon="-3.89382">
        <ele>4.11</ele>
        <time>2022-06-24T12:43:04.801Z</time>
      </trkpt>
      <trkpt lat="48.64373" lon="-3.89391">
        <ele>4.1</ele>
        <time>2022-06-24T12:43:14.043Z</time>
      </trkpt>
      <trkpt lat="48.64382" lon="-3.89398">
        <ele>5.04</ele>
        <time>2022-06-24T12:43:23.784Z</time>
      </trkpt>
      <trkpt lat="48.64389" lon="-3.89411">
        <ele>4.1</ele>
        <time>2022-06-24T12:43:33.724Z</time>
      </trkpt>
      <trkpt lat="48.64397" lon="-3.8942">
        <ele>4.1</ele>
        <time>2022-06-24T12:43:42.759Z</time>
      </trkpt>
      <trkpt lat="48.64407" lon="-3.89429">
        <ele>6.04</ele>
        <time>2022-06-24T12:43:52.466Z</time>
      </trkpt>
      <trkpt lat="48.64412" lon="-3.89444">
        <ele>6.1</ele>
        <time>2022-06-24T12:44:02.859Z</time>
      </trkpt>
      <trkpt lat="48.64419" lon="-3.89458">
        <ele>7.1</ele>
        <time>2022-06-24T12:44:13.685Z</time>
      </trkpt>
      <trkpt lat="48.64426" lon="-3.8947">
        <ele>5.1</ele>
        <time>2022-06-24T12:44:22.905Z</time>
      </trkpt>
      <trkpt lat="48.64426" lon="-3.8948">
        <ele>3.13</ele>
        <time>2022-06-24T12:44:32.843Z</time>
      </trkpt>
      <trkpt lat="48.64426" lon="-3.89478">
        <ele>4.1</ele>
        <time>2022-06-24T12:44:42.000Z</time>
      </trkpt>
      <trkpt lat="48.64425" lon="-3.89476">
        <ele>4.85</ele>
        <time>2022-06-24T12:44:52.000Z</time>
      </trkpt>
      <trkpt lat="48.6443" lon="-3.89485">
        <ele>5.1</ele>
        <time>2022-06-24T12:45:01.878Z</time>
      </trkpt>
      <trkpt lat="48.64434" lon="-3.89498">
        <ele>5.1</ele>
        <time>2022-06-24T12:45:11.642Z</time>
      </trkpt>
      <trkpt lat="48.64443" lon="-3.89506">
        <ele>5.6</ele>
        <time>2022-06-24T12:45:20.844Z</time>
      </trkpt>
      <trkpt lat="48.64448" lon="-3.89505">
        <ele>5.6</ele>
        <time>2022-06-24T12:45:30.063Z</time>
      </trkpt>
      <trkpt lat="48.64458" lon="-3.89506">
        <ele>5.6</ele>
        <time>2022-06-24T12:45:39.882Z</time>
      </trkpt>
      <trkpt lat="48.64469" lon="-3.89514">
        <ele>5.6</ele>
        <time>2022-06-24T12:45:48.900Z</time>
      </trkpt>
      <trkpt lat="48.64477" lon="-3.8952">
        <ele>5.6</ele>
        <time>2022-06-24T12:45:57.902Z</time>
      </trkpt>
      <trkpt lat="48.64484" lon="-3.89529">
        <ele>4.1</ele>
        <time>2022-06-24T12:46:06.904Z</time>
      </trkpt>
      <trkpt lat="48.64489" lon="-3.89535">
        <ele>6.04</ele>
        <time>2022-06-24T12:46:16.784Z</time>
      </trkpt>
      <trkpt lat="48.64494" lon="-3.89538">
        <ele>7.1</ele>
        <time>2022-06-24T12:46:26.523Z</time>
      </trkpt>
      <trkpt lat="48.64499" lon="-3.89547">
        <ele>8.15</ele>
        <time>2022-06-24T12:46:36.000Z</time>
      </trkpt>
      <trkpt lat="48.64498" lon="-3.89549">
        <ele>9.1</ele>
        <time>2022-06-24T12:46:45.573Z</time>
      </trkpt>
      <trkpt lat="48.64499" lon="-3.8955">
        <ele>9.1</ele>
        <time>2022-06-24T12:46:54.802Z</time>
      </trkpt>
      <trkpt lat="48.64506" lon="-3.89556">
        <ele>11.1</ele>
        <time>2022-06-24T12:47:04.482Z</time>
      </trkpt>
      <trkpt lat="48.64507" lon="-3.89561">
        <ele>12.1</ele>
        <time>2022-06-24T12:47:15.000Z</time>
      </trkpt>
      <trkpt lat="48.64507" lon="-3.8956">
        <ele>12.1</ele>
        <time>2022-06-24T12:48:56.608Z</time>
      </trkpt>
      <trkpt lat="48.64507" lon="-3.89562">
        <ele>12.1</ele>
        <time>2022-06-24T12:50:33.000Z</time>
      </trkpt>
      <trkpt lat="48.64508" lon="-3.89562">
        <ele>12.1</ele>
        <time>2022-06-24T12:50:42.495Z</time>
      </trkpt>
      <trkpt lat="48.6451" lon="-3.89562">
        <ele>10.12</ele>
        <time>2022-06-24T12:52:00.000Z</time>
      </trkpt>
      <trkpt lat="48.64509" lon="-3.89565">
        <ele>9.1</ele>
        <time>2022-06-24T12:52:10.000Z</time>
      </trkpt>
      <trkpt lat="48.64507" lon="-3.89565">
        <ele>9.1</ele>
        <time>2022-06-24T12:52:20.000Z</time>
      </trkpt>
      <trkpt lat="48.64513" lon="-3.89568">
        <ele>10.1</ele>
        <time>2022-06-24T12:52:31.899Z</time>
      </trkpt>
      <trkpt lat="48.6452" lon="-3.89582">
        <ele>11.1</ele>
        <time>2022-06-24T12:52:41.000Z</time>
      </trkpt>
      <trkpt lat="48.64518" lon="-3.89582">
        <ele>11.1</ele>
        <time>2022-06-24T12:52:51.000Z</time>
      </trkpt>
      <trkpt lat="48.64518" lon="-3.89591">
        <ele>12.1</ele>
        <time>2022-06-24T12:53:00.858Z</time>
      </trkpt>
      <trkpt lat="48.64517" lon="-3.89603">
        <ele>11.12</ele>
        <time>2022-06-24T12:53:09.882Z</time>
      </trkpt>
      <trkpt lat="48.64518" lon="-3.89614">
        <ele>8.12</ele>
        <time>2022-06-24T12:53:19.580Z</time>
      </trkpt>
      <trkpt lat="48.64515" lon="-3.89626">
        <ele>3.35</ele>
        <time>2022-06-24T12:53:29.720Z</time>
      </trkpt>
      <trkpt lat="48.64517" lon="-3.89639">
        <ele>19.87</ele>
        <time>2022-06-24T12:53:39.805Z</time>
      </trkpt>
      <trkpt lat="48.64526" lon="-3.89653">
        <ele>19.31</ele>
        <time>2022-06-24T12:53:49.205Z</time>
      </trkpt>
      <trkpt lat="48.64525" lon="-3.89665">
        <ele>19.68</ele>
        <time>2022-06-24T12:53:58.645Z</time>
      </trkpt>
      <trkpt lat="48.64525" lon="-3.89679">
        <ele>19.4</ele>
        <time>2022-06-24T12:54:08.622Z</time>
      </trkpt>
      <trkpt lat="48.64527" lon="-3.89691">
        <ele>19.4</ele>
        <time>2022-06-24T12:54:17.840Z</time>
      </trkpt>
      <trkpt lat="48.64529" lon="-3.89707">
        <ele>9.09</ele>
        <time>2022-06-24T12:54:27.340Z</time>
      </trkpt>
      <trkpt lat="48.64529" lon="-3.89724">
        <ele>11.1</ele>
        <time>2022-06-24T12:54:38.002Z</time>
      </trkpt>
      <trkpt lat="48.64528" lon="-3.89738">
        <ele>24.2</ele>
        <time>2022-06-24T12:54:48.537Z</time>
      </trkpt>
      <trkpt lat="48.6453" lon="-3.89752">
        <ele>24.2</ele>
        <time>2022-06-24T12:54:57.566Z</time>
      </trkpt>
      <trkpt lat="48.64532" lon="-3.89766">
        <ele>16.1</ele>
        <time>2022-06-24T12:55:07.764Z</time>
      </trkpt>
      <trkpt lat="48.64537" lon="-3.89778">
        <ele>17.1</ele>
        <time>2022-06-24T12:55:17.797Z</time>
      </trkpt>
      <trkpt lat="48.64541" lon="-3.89787">
        <ele>18.1</ele>
        <time>2022-06-24T12:55:27.898Z</time>
      </trkpt>
      <trkpt lat="48.64548" lon="-3.898">
        <ele>20.09</ele>
        <time>2022-06-24T12:55:37.942Z</time>
      </trkpt>
      <trkpt lat="48.64554" lon="-3.89811">
        <ele>21.1</ele>
        <time>2022-06-24T12:55:46.972Z</time>
      </trkpt>
      <trkpt lat="48.6456" lon="-3.89821">
        <ele>22.1</ele>
        <time>2022-06-24T12:55:56.524Z</time>
      </trkpt>
      <trkpt lat="48.64567" lon="-3.89832">
        <ele>24.04</ele>
        <time>2022-06-24T12:56:05.565Z</time>
      </trkpt>
      <trkpt lat="48.64575" lon="-3.8984">
        <ele>25.1</ele>
        <time>2022-06-24T12:56:14.882Z</time>
      </trkpt>
      <trkpt lat="48.64583" lon="-3.8985">
        <ele>25.1</ele>
        <time>2022-06-24T12:56:24.684Z</time>
      </trkpt>
      <trkpt lat="48.64589" lon="-3.89859">
        <ele>25.1</ele>
        <time>2022-06-24T12:56:33.760Z</time>
      </trkpt>
      <trkpt lat="48.64595" lon="-3.89867">
        <ele>25.1</ele>
        <time>2022-06-24T12:56:43.420Z</time>
      </trkpt>
      <trkpt lat="48.64604" lon="-3.89876">
        <ele>25.12</ele>
        <time>2022-06-24T12:56:52.527Z</time>
      </trkpt>
      <trkpt lat="48.64613" lon="-3.89887">
        <ele>26.1</ele>
        <time>2022-06-24T12:57:02.599Z</time>
      </trkpt>
      <trkpt lat="48.64623" lon="-3.89894">
        <ele>26.11</ele>
        <time>2022-06-24T12:57:12.722Z</time>
      </trkpt>
      <trkpt lat="48.64633" lon="-3.89903">
        <ele>26.1</ele>
        <time>2022-06-24T12:57:22.619Z</time>
      </trkpt>
      <trkpt lat="48.64643" lon="-3.89912">
        <ele>28.1</ele>
        <time>2022-06-24T12:57:32.661Z</time>
      </trkpt>
      <trkpt lat="48.64652" lon="-3.89924">
        <ele>30.04</ele>
        <time>2022-06-24T12:57:42.639Z</time>
      </trkpt>
      <trkpt lat="48.64661" lon="-3.89933">
        <ele>30.1</ele>
        <time>2022-06-24T12:57:52.683Z</time>
      </trkpt>
      <trkpt lat="48.64667" lon="-3.8994">
        <ele>30.1</ele>
        <time>2022-06-24T12:58:02.245Z</time>
      </trkpt>
      <trkpt lat="48.64674" lon="-3.89949">
        <ele>30.1</ele>
        <time>2022-06-24T12:58:11.844Z</time>
      </trkpt>
      <trkpt lat="48.64683" lon="-3.89957">
        <ele>35.6</ele>
        <time>2022-06-24T12:58:20.959Z</time>
      </trkpt>
      <trkpt lat="48.64694" lon="-3.89968">
        <ele>35.6</ele>
        <time>2022-06-24T12:58:30.678Z</time>
      </trkpt>
      <trkpt lat="48.64702" lon="-3.89979">
        <ele>35.6</ele>
        <time>2022-06-24T12:58:40.903Z</time>
      </trkpt>
      <trkpt lat="48.64713" lon="-3.89991">
        <ele>35.6</ele>
        <time>2022-06-24T12:58:50.000Z</time>
      </trkpt>
      <trkpt lat="48.64722" lon="-3.89995">
        <ele>34.85</ele>
        <time>2022-06-24T12:58:59.465Z</time>
      </trkpt>
      <trkpt lat="48.64731" lon="-3.90005">
        <ele>35.1</ele>
        <time>2022-06-24T12:59:08.780Z</time>
      </trkpt>
      <trkpt lat="48.64738" lon="-3.90014">
        <ele>36.11</ele>
        <time>2022-06-24T12:59:17.904Z</time>
      </trkpt>
      <trkpt lat="48.64743" lon="-3.90025">
        <ele>36.1</ele>
        <time>2022-06-24T12:59:26.905Z</time>
      </trkpt>
      <trkpt lat="48.64752" lon="-3.90037">
        <ele>36.1</ele>
        <time>2022-06-24T12:59:36.986Z</time>
      </trkpt>
      <trkpt lat="48.64756" lon="-3.90049">
        <ele>36.85</ele>
        <time>2022-06-24T12:59:46.620Z</time>
      </trkpt>
      <trkpt lat="48.64761" lon="-3.90058">
        <ele>36.11</ele>
        <time>2022-06-24T12:59:55.643Z</time>
      </trkpt>
      <trkpt lat="48.64767" lon="-3.90073">
        <ele>37.1</ele>
        <time>2022-06-24T13:00:05.704Z</time>
      </trkpt>
      <trkpt lat="48.64771" lon="-3.90087">
        <ele>39.1</ele>
        <time>2022-06-24T13:00:15.806Z</time>
      </trkpt>
      <trkpt lat="48.64777" lon="-3.901">
        <ele>39.16</ele>
        <time>2022-06-24T13:00:24.862Z</time>
      </trkpt>
      <trkpt lat="48.64782" lon="-3.90112">
        <ele>-14.98</ele>
        <time>2022-06-24T13:00:34.266Z</time>
      </trkpt>
      <trkpt lat="48.64786" lon="-3.90126">
        <ele>39.82</ele>
        <time>2022-06-24T13:00:43.983Z</time>
      </trkpt>
      <trkpt lat="48.64789" lon="-3.90141">
        <ele>25.24</ele>
        <time>2022-06-24T13:00:53.504Z</time>
      </trkpt>
      <trkpt lat="48.64791" lon="-3.90156">
        <ele>49.02</ele>
        <time>2022-06-24T13:01:02.865Z</time>
      </trkpt>
      <trkpt lat="48.64798" lon="-3.9017">
        <ele>49.4</ele>
        <time>2022-06-24T13:01:12.505Z</time>
      </trkpt>
      <trkpt lat="48.64806" lon="-3.90185">
        <ele>48.18</ele>
        <time>2022-06-24T13:01:22.584Z</time>
      </trkpt>
      <trkpt lat="48.64813" lon="-3.90199">
        <ele>49.4</ele>
        <time>2022-06-24T13:01:32.462Z</time>
      </trkpt>
      <trkpt lat="48.64819" lon="-3.90212">
        <ele>49.4</ele>
        <time>2022-06-24T13:01:41.689Z</time>
      </trkpt>
      <trkpt lat="48.64823" lon="-3.90229">
        <ele>49.4</ele>
        <time>2022-06-24T13:01:51.662Z</time>
      </trkpt>
      <trkpt lat="48.64824" lon="-3.90245">
        <ele>49.4</ele>
        <time>2022-06-24T13:02:00.944Z</time>
      </trkpt>
      <trkpt lat="48.64823" lon="-3.90257">
        <ele>49.4</ele>
        <time>2022-06-24T13:02:10.520Z</time>
      </trkpt>
      <trkpt lat="48.64822" lon="-3.90257">
        <ele>49.4</ele>
        <time>2022-06-24T13:02:37.000Z</time>
      </trkpt>
      <trkpt lat="48.64822" lon="-3.90259">
        <ele>49.4</ele>
        <time>2022-06-24T13:03:13.099Z</time>
      </trkpt>
      <trkpt lat="48.64832" lon="-3.90273">
        <ele>43.22</ele>
        <time>2022-06-24T13:03:23.800Z</time>
      </trkpt>
      <trkpt lat="48.64843" lon="-3.90283">
        <ele>25.49</ele>
        <time>2022-06-24T13:03:33.201Z</time>
      </trkpt>
      <trkpt lat="48.64852" lon="-3.90292">
        <ele>45.05</ele>
        <time>2022-06-24T13:03:42.924Z</time>
      </trkpt>
      <trkpt lat="48.64857" lon="-3.90304">
        <ele>45.09</ele>
        <time>2022-06-24T13:03:52.682Z</time>
      </trkpt>
      <trkpt lat="48.64856" lon="-3.90307">
        <ele>42.1</ele>
        <time>2022-06-24T13:04:03.278Z</time>
      </trkpt>
      <trkpt lat="48.64863" lon="-3.90316">
        <ele>45.04</ele>
        <time>2022-06-24T13:04:12.479Z</time>
      </trkpt>
      <trkpt lat="48.64876" lon="-3.90326">
        <ele>47.1</ele>
        <time>2022-06-24T13:04:22.440Z</time>
      </trkpt>
      <trkpt lat="48.64884" lon="-3.90337">
        <ele>47.16</ele>
        <time>2022-06-24T13:04:31.842Z</time>
      </trkpt>
      <trkpt lat="48.64891" lon="-3.90352">
        <ele>50.9</ele>
        <time>2022-06-24T13:04:42.722Z</time>
      </trkpt>
      <trkpt lat="48.64902" lon="-3.90362">
        <ele>50.9</ele>
        <time>2022-06-24T13:04:51.922Z</time>
      </trkpt>
      <trkpt lat="48.6491" lon="-3.90375">
        <ele>48.1</ele>
        <time>2022-06-24T13:05:01.539Z</time>
      </trkpt>
      <trkpt lat="48.64917" lon="-3.90386">
        <ele>50.9</ele>
        <time>2022-06-24T13:05:10.844Z</time>
      </trkpt>
      <trkpt lat="48.64927" lon="-3.90396">
        <ele>50.6</ele>
        <time>2022-06-24T13:05:20.164Z</time>
      </trkpt>
      <trkpt lat="48.64934" lon="-3.90407">
        <ele>50.9</ele>
        <time>2022-06-24T13:05:30.701Z</time>
      </trkpt>
      <trkpt lat="48.64942" lon="-3.90419">
        <ele>48.1</ele>
        <time>2022-06-24T13:05:40.381Z</time>
      </trkpt>
      <trkpt lat="48.64952" lon="-3.90429">
        <ele>50.66</ele>
        <time>2022-06-24T13:05:50.882Z</time>
      </trkpt>
      <trkpt lat="48.64958" lon="-3.90441">
        <ele>45.43</ele>
        <time>2022-06-24T13:06:00.324Z</time>
      </trkpt>
      <trkpt lat="48.64964" lon="-3.90452">
        <ele>50.66</ele>
        <time>2022-06-24T13:06:09.766Z</time>
      </trkpt>
      <trkpt lat="48.64973" lon="-3.90461">
        <ele>50.9</ele>
        <time>2022-06-24T13:06:19.622Z</time>
      </trkpt>
      <trkpt lat="48.6498" lon="-3.90471">
        <ele>50.9</ele>
        <time>2022-06-24T13:06:29.041Z</time>
      </trkpt>
      <trkpt lat="48.6499" lon="-3.90485">
        <ele>52.4</ele>
        <time>2022-06-24T13:06:39.000Z</time>
      </trkpt>
      <trkpt lat="48.64998" lon="-3.90493">
        <ele>52.4</ele>
        <time>2022-06-24T13:06:48.982Z</time>
      </trkpt>
      <trkpt lat="48.65004" lon="-3.90501">
        <ele>52.4</ele>
        <time>2022-06-24T13:06:58.743Z</time>
      </trkpt>
      <trkpt lat="48.64998" lon="-3.90514">
        <ele>57.59</ele>
        <time>2022-06-24T13:07:07.946Z</time>
      </trkpt>
      <trkpt lat="48.64997" lon="-3.90529">
        <ele>58.67</ele>
        <time>2022-06-24T13:07:17.523Z</time>
      </trkpt>
      <trkpt lat="48.65001" lon="-3.90543">
        <ele>58.7</ele>
        <time>2022-06-24T13:07:26.820Z</time>
      </trkpt>
      <trkpt lat="48.65" lon="-3.90557">
        <ele>57.5</ele>
        <time>2022-06-24T13:07:35.983Z</time>
      </trkpt>
      <trkpt lat="48.65001" lon="-3.90573">
        <ele>51.76</ele>
        <time>2022-06-24T13:07:45.720Z</time>
      </trkpt>
      <trkpt lat="48.65001" lon="-3.90587">
        <ele>58.63</ele>
        <time>2022-06-24T13:07:55.499Z</time>
      </trkpt>
      <trkpt lat="48.64998" lon="-3.90602">
        <ele>58.7</ele>
        <time>2022-06-24T13:08:04.704Z</time>
      </trkpt>
      <trkpt lat="48.64997" lon="-3.90618">
        <ele>58.7</ele>
        <time>2022-06-24T13:08:13.780Z</time>
      </trkpt>
      <trkpt lat="48.64998" lon="-3.90632">
        <ele>51.31</ele>
        <time>2022-06-24T13:08:22.801Z</time>
      </trkpt>
      <trkpt lat="48.64997" lon="-3.90646">
        <ele>51.3</ele>
        <time>2022-06-24T13:08:32.900Z</time>
      </trkpt>
      <trkpt lat="48.64998" lon="-3.90663">
        <ele>51.3</ele>
        <time>2022-06-24T13:08:42.440Z</time>
      </trkpt>
      <trkpt lat="48.65002" lon="-3.90677">
        <ele>51.3</ele>
        <time>2022-06-24T13:08:51.963Z</time>
      </trkpt>
      <trkpt lat="48.65005" lon="-3.90691">
        <ele>51.3</ele>
        <time>2022-06-24T13:09:00.966Z</time>
      </trkpt>
      <trkpt lat="48.65011" lon="-3.90709">
        <ele>51.3</ele>
        <time>2022-06-24T13:09:11.901Z</time>
      </trkpt>
      <trkpt lat="48.65016" lon="-3.90724">
        <ele>51.3</ele>
        <time>2022-06-24T13:09:22.441Z</time>
      </trkpt>
      <trkpt lat="48.65021" lon="-3.90736">
        <ele>51.3</ele>
        <time>2022-06-24T13:09:31.442Z</time>
      </trkpt>
      <trkpt lat="48.65027" lon="-3.90748">
        <ele>51.3</ele>
        <time>2022-06-24T13:09:40.501Z</time>
      </trkpt>
      <trkpt lat="48.65034" lon="-3.90762">
        <ele>51.1</ele>
        <time>2022-06-24T13:09:50.605Z</time>
      </trkpt>
      <trkpt lat="48.65041" lon="-3.90775">
        <ele>57.3</ele>
        <time>2022-06-24T13:10:00.600Z</time>
      </trkpt>
      <trkpt lat="48.65049" lon="-3.90788">
        <ele>57.3</ele>
        <time>2022-06-24T13:10:10.624Z</time>
      </trkpt>
      <trkpt lat="48.65056" lon="-3.90805">
        <ele>57.3</ele>
        <time>2022-06-24T13:10:20.505Z</time>
      </trkpt>
      <trkpt lat="48.6506" lon="-3.90821">
        <ele>57.3</ele>
        <time>2022-06-24T13:10:30.521Z</time>
      </trkpt>
      <trkpt lat="48.65063" lon="-3.90837">
        <ele>57.3</ele>
        <time>2022-06-24T13:10:40.586Z</time>
      </trkpt>
      <trkpt lat="48.65071" lon="-3.90849">
        <ele>52.16</ele>
        <time>2022-06-24T13:10:49.621Z</time>
      </trkpt>
      <trkpt lat="48.65076" lon="-3.90862">
        <ele>51.85</ele>
        <time>2022-06-24T13:10:58.800Z</time>
      </trkpt>
      <trkpt lat="48.65079" lon="-3.90878">
        <ele>52.1</ele>
        <time>2022-06-24T13:11:07.820Z</time>
      </trkpt>
      <trkpt lat="48.65084" lon="-3.90893">
        <ele>52.11</ele>
        <time>2022-06-24T13:11:17.863Z</time>
      </trkpt>
      <trkpt lat="48.65089" lon="-3.90903">
        <ele>53.1</ele>
        <time>2022-06-24T13:11:27.000Z</time>
      </trkpt>
      <trkpt lat="48.65092" lon="-3.90911">
        <ele>53.85</ele>
        <time>2022-06-24T13:11:36.404Z</time>
      </trkpt>
      <trkpt lat="48.65099" lon="-3.90924">
        <ele>53.1</ele>
        <time>2022-06-24T13:11:46.442Z</time>
      </trkpt>
      <trkpt lat="48.65104" lon="-3.90937">
        <ele>54.09</ele>
        <time>2022-06-24T13:11:55.504Z</time>
      </trkpt>
      <trkpt lat="48.65109" lon="-3.90949">
        <ele>52.12</ele>
        <time>2022-06-24T13:12:04.979Z</time>
      </trkpt>
      <trkpt lat="48.65117" lon="-3.90963">
        <ele>51.16</ele>
        <time>2022-06-24T13:12:15.562Z</time>
      </trkpt>
      <trkpt lat="48.65124" lon="-3.90975">
        <ele>51.1</ele>
        <time>2022-06-24T13:12:24.923Z</time>
      </trkpt>
      <trkpt lat="48.6513" lon="-3.90986">
        <ele>51.04</ele>
        <time>2022-06-24T13:12:33.981Z</time>
      </trkpt>
      <trkpt lat="48.65139" lon="-3.90996">
        <ele>51.1</ele>
        <time>2022-06-24T13:12:43.401Z</time>
      </trkpt>
      <trkpt lat="48.65145" lon="-3.91012">
        <ele>51.1</ele>
        <time>2022-06-24T13:12:53.782Z</time>
      </trkpt>
      <trkpt lat="48.65152" lon="-3.91025">
        <ele>54.85</ele>
        <time>2022-06-24T13:13:03.583Z</time>
      </trkpt>
      <trkpt lat="48.65157" lon="-3.91038">
        <ele>52.1</ele>
        <time>2022-06-24T13:13:12.846Z</time>
      </trkpt>
      <trkpt lat="48.65161" lon="-3.91052">
        <ele>49.1</ele>
        <time>2022-06-24T13:13:22.578Z</time>
      </trkpt>
      <trkpt lat="48.65167" lon="-3.91064">
        <ele>49.1</ele>
        <time>2022-06-24T13:13:31.763Z</time>
      </trkpt>
      <trkpt lat="48.65171" lon="-3.9108">
        <ele>50.09</ele>
        <time>2022-06-24T13:13:41.862Z</time>
      </trkpt>
      <trkpt lat="48.65173" lon="-3.91082">
        <ele>55.89</ele>
        <time>2022-06-24T13:13:51.000Z</time>
      </trkpt>
      <trkpt lat="48.65172" lon="-3.91084">
        <ele>55.92</ele>
        <time>2022-06-24T13:14:00.364Z</time>
      </trkpt>
      <trkpt lat="48.65174" lon="-3.91103">
        <ele>55.9</ele>
        <time>2022-06-24T13:14:09.685Z</time>
      </trkpt>
      <trkpt lat="48.65178" lon="-3.91122">
        <ele>55.9</ele>
        <time>2022-06-24T13:14:19.724Z</time>
      </trkpt>
      <trkpt lat="48.65181" lon="-3.91137">
        <ele>53.76</ele>
        <time>2022-06-24T13:14:28.879Z</time>
      </trkpt>
      <trkpt lat="48.65181" lon="-3.91153">
        <ele>55.9</ele>
        <time>2022-06-24T13:14:38.863Z</time>
      </trkpt>
      <trkpt lat="48.65181" lon="-3.9117">
        <ele>55.9</ele>
        <time>2022-06-24T13:14:48.319Z</time>
      </trkpt>
      <trkpt lat="48.65181" lon="-3.9119">
        <ele>55.9</ele>
        <time>2022-06-24T13:14:58.478Z</time>
      </trkpt>
      <trkpt lat="48.65182" lon="-3.91203">
        <ele>55.9</ele>
        <time>2022-06-24T13:15:07.904Z</time>
      </trkpt>
      <trkpt lat="48.65182" lon="-3.91219">
        <ele>48.4</ele>
        <time>2022-06-24T13:15:17.359Z</time>
      </trkpt>
      <trkpt lat="48.65183" lon="-3.91236">
        <ele>48.41</ele>
        <time>2022-06-24T13:15:26.842Z</time>
      </trkpt>
      <trkpt lat="48.65185" lon="-3.91251">
        <ele>48.4</ele>
        <time>2022-06-24T13:15:36.139Z</time>
      </trkpt>
      <trkpt lat="48.65186" lon="-3.91267">
        <ele>48.4</ele>
        <time>2022-06-24T13:15:45.664Z</time>
      </trkpt>
      <trkpt lat="48.65184" lon="-3.91283">
        <ele>47</ele>
        <time>2022-06-24T13:15:55.179Z</time>
      </trkpt>
      <trkpt lat="48.65188" lon="-3.91301">
        <ele>46.9</ele>
        <time>2022-06-24T13:16:04.579Z</time>
      </trkpt>
      <trkpt lat="48.65191" lon="-3.91319">
        <ele>46.9</ele>
        <time>2022-06-24T13:16:14.780Z</time>
      </trkpt>
      <trkpt lat="48.6519" lon="-3.91336">
        <ele>46.9</ele>
        <time>2022-06-24T13:16:24.686Z</time>
      </trkpt>
      <trkpt lat="48.65192" lon="-3.91352">
        <ele>46.9</ele>
        <time>2022-06-24T13:16:33.704Z</time>
      </trkpt>
      <trkpt lat="48.65194" lon="-3.91367">
        <ele>46.9</ele>
        <time>2022-06-24T13:16:42.722Z</time>
      </trkpt>
      <trkpt lat="48.65194" lon="-3.91381">
        <ele>46.9</ele>
        <time>2022-06-24T13:16:51.819Z</time>
      </trkpt>
      <trkpt lat="48.65196" lon="-3.91394">
        <ele>46.9</ele>
        <time>2022-06-24T13:17:00.903Z</time>
      </trkpt>
      <trkpt lat="48.65195" lon="-3.9141">
        <ele>42.1</ele>
        <time>2022-06-24T13:17:10.445Z</time>
      </trkpt>
      <trkpt lat="48.65193" lon="-3.91425">
        <ele>41.17</ele>
        <time>2022-06-24T13:17:19.526Z</time>
      </trkpt>
      <trkpt lat="48.65188" lon="-3.9144">
        <ele>40.1</ele>
        <time>2022-06-24T13:17:29.579Z</time>
      </trkpt>
      <trkpt lat="48.65183" lon="-3.91457">
        <ele>38.1</ele>
        <time>2022-06-24T13:17:38.677Z</time>
      </trkpt>
      <trkpt lat="48.6518" lon="-3.91475">
        <ele>35.04</ele>
        <time>2022-06-24T13:17:47.700Z</time>
      </trkpt>
      <trkpt lat="48.65182" lon="-3.91493">
        <ele>36.1</ele>
        <time>2022-06-24T13:17:57.322Z</time>
      </trkpt>
      <trkpt lat="48.65184" lon="-3.9151">
        <ele>37.1</ele>
        <time>2022-06-24T13:18:06.643Z</time>
      </trkpt>
      <trkpt lat="48.65182" lon="-3.91526">
        <ele>37.1</ele>
        <time>2022-06-24T13:18:16.119Z</time>
      </trkpt>
      <trkpt lat="48.65181" lon="-3.91541">
        <ele>37.1</ele>
        <time>2022-06-24T13:18:25.583Z</time>
      </trkpt>
      <trkpt lat="48.65181" lon="-3.91556">
        <ele>38.05</ele>
        <time>2022-06-24T13:18:34.646Z</time>
      </trkpt>
      <trkpt lat="48.65181" lon="-3.91562">
        <ele>38.85</ele>
        <time>2022-06-24T13:18:44.000Z</time>
      </trkpt>
      <trkpt lat="48.65181" lon="-3.91561">
        <ele>38.1</ele>
        <time>2022-06-24T13:18:59.000Z</time>
      </trkpt>
      <trkpt lat="48.6518" lon="-3.91567">
        <ele>39.1</ele>
        <time>2022-06-24T13:19:09.000Z</time>
      </trkpt>
      <trkpt lat="48.65178" lon="-3.91577">
        <ele>40.04</ele>
        <time>2022-06-24T13:19:18.644Z</time>
      </trkpt>
      <trkpt lat="48.65175" lon="-3.91594">
        <ele>39.1</ele>
        <time>2022-06-24T13:19:28.665Z</time>
      </trkpt>
      <trkpt lat="48.65173" lon="-3.91613">
        <ele>38.1</ele>
        <time>2022-06-24T13:19:40.329Z</time>
      </trkpt>
      <trkpt lat="48.65173" lon="-3.91627">
        <ele>38.1</ele>
        <time>2022-06-24T13:19:49.824Z</time>
      </trkpt>
      <trkpt lat="48.65175" lon="-3.91633">
        <ele>38.1</ele>
        <time>2022-06-24T13:19:59.000Z</time>
      </trkpt>
      <trkpt lat="48.65175" lon="-3.91633">
        <ele>38.1</ele>
        <time>2022-06-24T13:20:08.702Z</time>
      </trkpt>
      <trkpt lat="48.65182" lon="-3.91646">
        <ele>38.1</ele>
        <time>2022-06-24T13:20:18.799Z</time>
      </trkpt>
      <trkpt lat="48.6518" lon="-3.9166">
        <ele>37.1</ele>
        <time>2022-06-24T13:20:28.785Z</time>
      </trkpt>
      <trkpt lat="48.65177" lon="-3.91674">
        <ele>37.1</ele>
        <time>2022-06-24T13:20:38.121Z</time>
      </trkpt>
      <trkpt lat="48.65179" lon="-3.9169">
        <ele>37.1</ele>
        <time>2022-06-24T13:20:48.542Z</time>
      </trkpt>
      <trkpt lat="48.65178" lon="-3.91703">
        <ele>37.33</ele>
        <time>2022-06-24T13:20:57.900Z</time>
      </trkpt>
      <trkpt lat="48.65176" lon="-3.9172">
        <ele>38.1</ele>
        <time>2022-06-24T13:21:07.764Z</time>
      </trkpt>
      <trkpt lat="48.65178" lon="-3.91734">
        <ele>38.1</ele>
        <time>2022-06-24T13:21:16.947Z</time>
      </trkpt>
      <trkpt lat="48.65177" lon="-3.91747">
        <ele>38.04</ele>
        <time>2022-06-24T13:21:26.585Z</time>
      </trkpt>
      <trkpt lat="48.65178" lon="-3.91761">
        <ele>38.04</ele>
        <time>2022-06-24T13:21:36.083Z</time>
      </trkpt>
      <trkpt lat="48.65181" lon="-3.9178">
        <ele>38.1</ele>
        <time>2022-06-24T13:21:45.565Z</time>
      </trkpt>
      <trkpt lat="48.65182" lon="-3.91797">
        <ele>38.1</ele>
        <time>2022-06-24T13:21:55.558Z</time>
      </trkpt>
      <trkpt lat="48.65182" lon="-3.91812">
        <ele>38.1</ele>
        <time>2022-06-24T13:22:04.585Z</time>
      </trkpt>
      <trkpt lat="48.65181" lon="-3.91828">
        <ele>40.05</ele>
        <time>2022-06-24T13:22:14.682Z</time>
      </trkpt>
      <trkpt lat="48.65182" lon="-3.91843">
        <ele>38.35</ele>
        <time>2022-06-24T13:22:24.820Z</time>
      </trkpt>
      <trkpt lat="48.65184" lon="-3.91861">
        <ele>38.12</ele>
        <time>2022-06-24T13:22:34.643Z</time>
      </trkpt>
      <trkpt lat="48.65184" lon="-3.91876">
        <ele>39.05</ele>
        <time>2022-06-24T13:22:43.699Z</time>
      </trkpt>
      <trkpt lat="48.65185" lon="-3.91891">
        <ele>37.1</ele>
        <time>2022-06-24T13:22:52.702Z</time>
      </trkpt>
      <trkpt lat="48.65187" lon="-3.91908">
        <ele>37.1</ele>
        <time>2022-06-24T13:23:01.800Z</time>
      </trkpt>
      <trkpt lat="48.65189" lon="-3.91924">
        <ele>35.16</ele>
        <time>2022-06-24T13:23:11.000Z</time>
      </trkpt>
      <trkpt lat="48.6519" lon="-3.91937">
        <ele>35.85</ele>
        <time>2022-06-24T13:23:20.500Z</time>
      </trkpt>
      <trkpt lat="48.65189" lon="-3.91953">
        <ele>35.11</ele>
        <time>2022-06-24T13:23:29.820Z</time>
      </trkpt>
      <trkpt lat="48.6519" lon="-3.91968">
        <ele>34.1</ele>
        <time>2022-06-24T13:23:39.339Z</time>
      </trkpt>
      <trkpt lat="48.65192" lon="-3.91984">
        <ele>8.31</ele>
        <time>2022-06-24T13:23:48.638Z</time>
      </trkpt>
      <trkpt lat="48.65195" lon="-3.91998">
        <ele>7.9</ele>
        <time>2022-06-24T13:23:57.983Z</time>
      </trkpt>
      <trkpt lat="48.65196" lon="-3.92012">
        <ele>7.6</ele>
        <time>2022-06-24T13:24:07.880Z</time>
      </trkpt>
      <trkpt lat="48.65196" lon="-3.92029">
        <ele>9.05</ele>
        <time>2022-06-24T13:24:17.562Z</time>
      </trkpt>
      <trkpt lat="48.65197" lon="-3.92047">
        <ele>7.9</ele>
        <time>2022-06-24T13:24:27.584Z</time>
      </trkpt>
      <trkpt lat="48.65198" lon="-3.92064">
        <ele>8.75</ele>
        <time>2022-06-24T13:24:37.722Z</time>
      </trkpt>
      <trkpt lat="48.65199" lon="-3.92083">
        <ele>12.5</ele>
        <time>2022-06-24T13:24:47.804Z</time>
      </trkpt>
      <trkpt lat="48.65201" lon="-3.92098">
        <ele>8.4</ele>
        <time>2022-06-24T13:24:56.822Z</time>
      </trkpt>
      <trkpt lat="48.65201" lon="-3.92114">
        <ele>10.1</ele>
        <time>2022-06-24T13:25:06.281Z</time>
      </trkpt>
      <trkpt lat="48.65201" lon="-3.92129">
        <ele>8.4</ele>
        <time>2022-06-24T13:25:15.817Z</time>
      </trkpt>
      <trkpt lat="48.65203" lon="-3.92144">
        <ele>7.51</ele>
        <time>2022-06-24T13:25:25.660Z</time>
      </trkpt>
      <trkpt lat="48.65195" lon="-3.92157">
        <ele>19.55</ele>
        <time>2022-06-24T13:25:34.682Z</time>
      </trkpt>
      <trkpt lat="48.65192" lon="-3.92173">
        <ele>8.85</ele>
        <time>2022-06-24T13:25:43.925Z</time>
      </trkpt>
      <trkpt lat="48.65189" lon="-3.92187">
        <ele>28.1</ele>
        <time>2022-06-24T13:25:53.240Z</time>
      </trkpt>
      <trkpt lat="48.65184" lon="-3.922">
        <ele>27.1</ele>
        <time>2022-06-24T13:26:02.679Z</time>
      </trkpt>
      <trkpt lat="48.65181" lon="-3.92215">
        <ele>27.09</ele>
        <time>2022-06-24T13:26:11.723Z</time>
      </trkpt>
      <trkpt lat="48.65178" lon="-3.92229">
        <ele>27.1</ele>
        <time>2022-06-24T13:26:20.804Z</time>
      </trkpt>
      <trkpt lat="48.65174" lon="-3.92244">
        <ele>27.1</ele>
        <time>2022-06-24T13:26:30.463Z</time>
      </trkpt>
      <trkpt lat="48.65169" lon="-3.92257">
        <ele>27.09</ele>
        <time>2022-06-24T13:26:39.904Z</time>
      </trkpt>
      <trkpt lat="48.65166" lon="-3.92268">
        <ele>26.1</ele>
        <time>2022-06-24T13:26:49.603Z</time>
      </trkpt>
      <trkpt lat="48.65164" lon="-3.92275">
        <ele>25.1</ele>
        <time>2022-06-24T13:26:59.000Z</time>
      </trkpt>
      <trkpt lat="48.65163" lon="-3.92276">
        <ele>24.1</ele>
        <time>2022-06-24T13:27:09.000Z</time>
      </trkpt>
      <trkpt lat="48.65163" lon="-3.92278">
        <ele>24.1</ele>
        <time>2022-06-24T13:27:20.000Z</time>
      </trkpt>
      <trkpt lat="48.65156" lon="-3.9228">
        <ele>24.1</ele>
        <time>2022-06-24T13:27:30.621Z</time>
      </trkpt>
      <trkpt lat="48.65146" lon="-3.9228">
        <ele>26.1</ele>
        <time>2022-06-24T13:27:39.900Z</time>
      </trkpt>
      <trkpt lat="48.65135" lon="-3.92282">
        <ele>27.1</ele>
        <time>2022-06-24T13:27:49.701Z</time>
      </trkpt>
      <trkpt lat="48.65126" lon="-3.92281">
        <ele>27.35</ele>
        <time>2022-06-24T13:27:58.741Z</time>
      </trkpt>
      <trkpt lat="48.65117" lon="-3.92281">
        <ele>27.85</ele>
        <time>2022-06-24T13:28:08.843Z</time>
      </trkpt>
      <trkpt lat="48.65109" lon="-3.9228">
        <ele>28.04</ele>
        <time>2022-06-24T13:28:17.860Z</time>
      </trkpt>
      <trkpt lat="48.651" lon="-3.92277">
        <ele>29.1</ele>
        <time>2022-06-24T13:28:27.565Z</time>
      </trkpt>
      <trkpt lat="48.65092" lon="-3.92276">
        <ele>28.33</ele>
        <time>2022-06-24T13:28:36.566Z</time>
      </trkpt>
      <trkpt lat="48.65086" lon="-3.92276">
        <ele>30.1</ele>
        <time>2022-06-24T13:28:46.000Z</time>
      </trkpt>
      <trkpt lat="48.65083" lon="-3.92276">
        <ele>31.1</ele>
        <time>2022-06-24T13:28:55.520Z</time>
      </trkpt>
      <trkpt lat="48.65073" lon="-3.92272">
        <ele>32.1</ele>
        <time>2022-06-24T13:29:05.865Z</time>
      </trkpt>
      <trkpt lat="48.65064" lon="-3.92272">
        <ele>32.1</ele>
        <time>2022-06-24T13:29:15.625Z</time>
      </trkpt>
      <trkpt lat="48.65055" lon="-3.92274">
        <ele>32.1</ele>
        <time>2022-06-24T13:29:25.640Z</time>
      </trkpt>
      <trkpt lat="48.65046" lon="-3.92272">
        <ele>32.1</ele>
        <time>2022-06-24T13:29:35.602Z</time>
      </trkpt>
      <trkpt lat="48.65036" lon="-3.92269">
        <ele>32.1</ele>
        <time>2022-06-24T13:29:45.644Z</time>
      </trkpt>
      <trkpt lat="48.65027" lon="-3.92268">
        <ele>33.1</ele>
        <time>2022-06-24T13:29:56.864Z</time>
      </trkpt>
      <trkpt lat="48.65019" lon="-3.92262">
        <ele>33.85</ele>
        <time>2022-06-24T13:30:06.987Z</time>
      </trkpt>
      <trkpt lat="48.65009" lon="-3.92265">
        <ele>34.1</ele>
        <time>2022-06-24T13:30:16.506Z</time>
      </trkpt>
      <trkpt lat="48.65" lon="-3.92263">
        <ele>35.1</ele>
        <time>2022-06-24T13:30:26.745Z</time>
      </trkpt>
      <trkpt lat="48.64993" lon="-3.92263">
        <ele>35.1</ele>
        <time>2022-06-24T13:30:35.882Z</time>
      </trkpt>
      <trkpt lat="48.64984" lon="-3.92261">
        <ele>35.35</ele>
        <time>2022-06-24T13:30:45.437Z</time>
      </trkpt>
      <trkpt lat="48.64976" lon="-3.92262">
        <ele>35.1</ele>
        <time>2022-06-24T13:30:54.718Z</time>
      </trkpt>
      <trkpt lat="48.64968" lon="-3.92261">
        <ele>35.1</ele>
        <time>2022-06-24T13:31:03.865Z</time>
      </trkpt>
      <trkpt lat="48.64961" lon="-3.92261">
        <ele>34.16</ele>
        <time>2022-06-24T13:31:13.624Z</time>
      </trkpt>
      <trkpt lat="48.64953" lon="-3.9226">
        <ele>36.08</ele>
        <time>2022-06-24T13:31:22.682Z</time>
      </trkpt>
      <trkpt lat="48.64943" lon="-3.9226">
        <ele>35.1</ele>
        <time>2022-06-24T13:31:31.819Z</time>
      </trkpt>
      <trkpt lat="48.64936" lon="-3.92259">
        <ele>35.1</ele>
        <time>2022-06-24T13:31:40.924Z</time>
      </trkpt>
      <trkpt lat="48.64926" lon="-3.9226">
        <ele>36.08</ele>
        <time>2022-06-24T13:31:50.606Z</time>
      </trkpt>
      <trkpt lat="48.64916" lon="-3.9226">
        <ele>36.11</ele>
        <time>2022-06-24T13:31:59.804Z</time>
      </trkpt>
      <trkpt lat="48.64908" lon="-3.92265">
        <ele>37.85</ele>
        <time>2022-06-24T13:32:09.724Z</time>
      </trkpt>
      <trkpt lat="48.64899" lon="-3.92266">
        <ele>35.11</ele>
        <time>2022-06-24T13:32:19.565Z</time>
      </trkpt>
      <trkpt lat="48.64891" lon="-3.9226">
        <ele>36.1</ele>
        <time>2022-06-24T13:32:29.579Z</time>
      </trkpt>
      <trkpt lat="48.64885" lon="-3.92248">
        <ele>36.1</ele>
        <time>2022-06-24T13:32:38.979Z</time>
      </trkpt>
      <trkpt lat="48.64885" lon="-3.92235">
        <ele>35.1</ele>
        <time>2022-06-24T13:32:48.418Z</time>
      </trkpt>
      <trkpt lat="48.64886" lon="-3.92221">
        <ele>35.1</ele>
        <time>2022-06-24T13:32:57.682Z</time>
      </trkpt>
      <trkpt lat="48.64887" lon="-3.92209">
        <ele>37.09</ele>
        <time>2022-06-24T13:33:06.704Z</time>
      </trkpt>
      <trkpt lat="48.64889" lon="-3.92196">
        <ele>37.1</ele>
        <time>2022-06-24T13:33:16.863Z</time>
      </trkpt>
      <trkpt lat="48.64891" lon="-3.92182">
        <ele>38.1</ele>
        <time>2022-06-24T13:33:26.337Z</time>
      </trkpt>
      <trkpt lat="48.64894" lon="-3.9217">
        <ele>38.1</ele>
        <time>2022-06-24T13:33:35.685Z</time>
      </trkpt>
      <trkpt lat="48.64898" lon="-3.92157">
        <ele>39.1</ele>
        <time>2022-06-24T13:33:45.580Z</time>
      </trkpt>
      <trkpt lat="48.64903" lon="-3.92141">
        <ele>40.03</ele>
        <time>2022-06-24T13:33:55.644Z</time>
      </trkpt>
      <trkpt lat="48.64907" lon="-3.92129">
        <ele>41.03</ele>
        <time>2022-06-24T13:34:05.847Z</time>
      </trkpt>
      <trkpt lat="48.64914" lon="-3.92117">
        <ele>40.1</ele>
        <time>2022-06-24T13:34:15.623Z</time>
      </trkpt>
      <trkpt lat="48.64921" lon="-3.92104">
        <ele>40.1</ele>
        <time>2022-06-24T13:34:26.719Z</time>
      </trkpt>
      <trkpt lat="48.64928" lon="-3.92092">
        <ele>39.16</ele>
        <time>2022-06-24T13:34:36.641Z</time>
      </trkpt>
      <trkpt lat="48.64935" lon="-3.92085">
        <ele>39.1</ele>
        <time>2022-06-24T13:34:45.644Z</time>
      </trkpt>
      <trkpt lat="48.64943" lon="-3.92078">
        <ele>39.09</ele>
        <time>2022-06-24T13:34:54.741Z</time>
      </trkpt>
      <trkpt lat="48.64949" lon="-3.92084">
        <ele>39.1</ele>
        <time>2022-06-24T13:35:04.342Z</time>
      </trkpt>
      <trkpt lat="48.64956" lon="-3.92095">
        <ele>39.1</ele>
        <time>2022-06-24T13:35:13.439Z</time>
      </trkpt>
      <trkpt lat="48.64962" lon="-3.92104">
        <ele>40.09</ele>
        <time>2022-06-24T13:35:23.959Z</time>
      </trkpt>
      <trkpt lat="48.64961" lon="-3.92105">
        <ele>35.91</ele>
        <time>2022-06-24T13:35:57.000Z</time>
      </trkpt>
      <trkpt lat="48.64959" lon="-3.92105">
        <ele>35.09</ele>
        <time>2022-06-24T13:36:07.000Z</time>
      </trkpt>
      <trkpt lat="48.6496" lon="-3.92105">
        <ele>35.85</ele>
        <time>2022-06-24T13:36:31.000Z</time>
      </trkpt>
      <trkpt lat="48.64961" lon="-3.92105">
        <ele>36.03</ele>
        <time>2022-06-24T13:37:12.000Z</time>
      </trkpt>
      <trkpt lat="48.64966" lon="-3.92099">
        <ele>36.1</ele>
        <time>2022-06-24T13:37:21.697Z</time>
      </trkpt>
      <trkpt lat="48.6497" lon="-3.92094">
        <ele>37.14</ele>
        <time>2022-06-24T13:37:30.981Z</time>
      </trkpt>
      <trkpt lat="48.64979" lon="-3.92088">
        <ele>38.1</ele>
        <time>2022-06-24T13:37:40.623Z</time>
      </trkpt>
      <trkpt lat="48.64981" lon="-3.92086">
        <ele>39.1</ele>
        <time>2022-06-24T13:37:49.705Z</time>
      </trkpt>
      <trkpt lat="48.64977" lon="-3.92088">
        <ele>38.1</ele>
        <time>2022-06-24T13:37:59.000Z</time>
      </trkpt>
      <trkpt lat="48.64977" lon="-3.92089">
        <ele>38.1</ele>
        <time>2022-06-24T13:38:49.907Z</time>
      </trkpt>
      <trkpt lat="48.64975" lon="-3.92106">
        <ele>39.09</ele>
        <time>2022-06-24T13:38:59.802Z</time>
      </trkpt>
      <trkpt lat="48.64964" lon="-3.92115">
        <ele>35.17</ele>
        <time>2022-06-24T13:39:09.600Z</time>
      </trkpt>
      <trkpt lat="48.64961" lon="-3.9212">
        <ele>37.08</ele>
        <time>2022-06-24T13:39:19.745Z</time>
      </trkpt>
      <trkpt lat="48.64959" lon="-3.92132">
        <ele>39.03</ele>
        <time>2022-06-24T13:39:28.759Z</time>
      </trkpt>
      <trkpt lat="48.64951" lon="-3.92139">
        <ele>39.1</ele>
        <time>2022-06-24T13:39:38.785Z</time>
      </trkpt>
      <trkpt lat="48.64945" lon="-3.92146">
        <ele>38.11</ele>
        <time>2022-06-24T13:39:48.722Z</time>
      </trkpt>
      <trkpt lat="48.64941" lon="-3.92159">
        <ele>38.16</ele>
        <time>2022-06-24T13:39:58.421Z</time>
      </trkpt>
      <trkpt lat="48.64946" lon="-3.92155">
        <ele>37.1</ele>
        <time>2022-06-24T13:40:07.426Z</time>
      </trkpt>
      <trkpt lat="48.64946" lon="-3.92156">
        <ele>37.85</ele>
        <time>2022-06-24T13:42:52.000Z</time>
      </trkpt>
      <trkpt lat="48.64945" lon="-3.92157">
        <ele>38.08</ele>
        <time>2022-06-24T13:43:13.000Z</time>
      </trkpt>
      <trkpt lat="48.64946" lon="-3.92156">
        <ele>38.1</ele>
        <time>2022-06-24T13:43:39.700Z</time>
      </trkpt>
      <trkpt lat="48.64945" lon="-3.92157">
        <ele>37.11</ele>
        <time>2022-06-24T13:43:49.679Z</time>
      </trkpt>
      <trkpt lat="48.64946" lon="-3.92155">
        <ele>38.1</ele>
        <time>2022-06-24T13:44:00.000Z</time>
      </trkpt>
      <trkpt lat="48.64947" lon="-3.92155">
        <ele>38.14</ele>
        <time>2022-06-24T13:44:12.000Z</time>
      </trkpt>
      <trkpt lat="48.64946" lon="-3.92154">
        <ele>39.1</ele>
        <time>2022-06-24T13:44:24.000Z</time>
      </trkpt>
      <trkpt lat="48.64945" lon="-3.92154">
        <ele>38.1</ele>
        <time>2022-06-24T13:44:46.863Z</time>
      </trkpt>
      <trkpt lat="48.64946" lon="-3.92155">
        <ele>38.1</ele>
        <time>2022-06-24T13:44:56.704Z</time>
      </trkpt>
      <trkpt lat="48.64945" lon="-3.92156">
        <ele>38.1</ele>
        <time>2022-06-24T13:45:08.000Z</time>
      </trkpt>
      <trkpt lat="48.64946" lon="-3.92156">
        <ele>39.1</ele>
        <time>2022-06-24T13:46:05.000Z</time>
      </trkpt>
    </trkseg>
  </trk>
</gpx>